Darstellungsparameter: Aktuell verwendete Einstellungen:
Skalierung der Graphiken ... ?
xyx+y,   Skalierungsfaktor:      Skalierung: Modus: x, Faktor: 1
Darstellungszeitraum ... ?
Vom - - bis: - -   Zeitraum: 21.03.2017 - 10.04.2017
Min/Max/Avg-Anzeige ... ?
Zeige MMA aktuell
Zeige MMA Monat
Zeige MMA alles
Zeige --A aktuell
Zeige --A Monat
Zeige --A alles
Keine MMA-Anzeige
MMA:
Average (ber die Originaldaten)
MMA-Basis: 21.03.2017 - 10.04.2017
Quicknavigation für Darstellung... ?
Tage:      1T, 2T, 3T, 5T -1T -2T -3T -5T +1T +2T +3T +5T
Wochen: 1W, 2W, 3W -1W -2W -3W +1W +2W +3W
Monate: 1M, 3M, 6M -1M -3M -6M +1M +3M +6M
Jahre:    1J, 3J, 5J, 10J -1J -3J -5J -10J +1J +3J +5J +10J
Nutze für die Darstellung ... ?
Originaldaten oder Mittelwerte auf ...
Stundenbasis Tagesbasis Wochenbasis
Monatsbasis Jahresbasis      Datenbasis: Original-Daten
Darstellen als:
Statistik (Auto) Statistik J:M      Darstellung:
Zur Graphik,    zurück zur Übersicht aller Sensoren.
 
Tabellarische Datenbersicht: ?
 
Sensor: Nr:Datum:Temp:Abs-Feuchte:Windchill:Wind:
Aussen-T/F 1 21-03-2017 00:00:00 10.5 C 7.37 g/m*3 9.28 C 9.7 km/h
2 21-03-2017 00:05:00 10.6 C 7.42 g/m*3 9.14 C 11.3 km/h
3 21-03-2017 00:10:00 10.6 C 7.42 g/m*3 10.06 C 6.4 km/h
4 21-03-2017 00:15:00 10.6 C 7.42 g/m*3 9.14 C 11.3 km/h
5 21-03-2017 00:20:00 10.7 C 7.46 g/m*3 9.81 C 8.1 km/h
6 21-03-2017 00:25:00 10.7 C 7.46 g/m*3 9.52 C 9.7 km/h
7 21-03-2017 00:30:00 10.7 C 7.46 g/m*3 8.84 C 14.5 km/h
8 21-03-2017 00:35:00 10.8 C 7.51 g/m*3 8.61 C 17.7 km/h
9 21-03-2017 00:40:00 10.8 C 7.51 g/m*3 8.61 C 17.7 km/h
10 21-03-2017 00:45:00 10.8 C 7.51 g/m*3 8.61 C 17.7 km/h
11 21-03-2017 00:50:00 10.8 C 7.51 g/m*3 9.16 C 12.9 km/h
12 21-03-2017 00:55:00 10.8 C 7.51 g/m*3 9.38 C 11.3 km/h
13 21-03-2017 01:00:00 10.8 C 7.51 g/m*3 8.96 C 14.5 km/h
14 21-03-2017 01:05:00 10.8 C 7.51 g/m*3 8.78 C 16.1 km/h
15 21-03-2017 01:10:00 10.8 C 7.51 g/m*3 8.61 C 17.7 km/h
16 21-03-2017 01:15:00 10.8 C 7.51 g/m*3 8.96 C 14.5 km/h
17 21-03-2017 01:20:00 10.8 C 7.51 g/m*3 9.38 C 11.3 km/h
18 21-03-2017 01:25:00 10.8 C 7.51 g/m*3 9.16 C 12.9 km/h
19 21-03-2017 01:30:00 10.8 C 7.51 g/m*3 9.16 C 12.9 km/h
20 21-03-2017 01:35:00 10.8 C 7.51 g/m*3 8.78 C 16.1 km/h
21 21-03-2017 01:40:00 10.8 C 7.61 g/m*3 9.16 C 12.9 km/h
22 21-03-2017 01:45:00 10.7 C 7.56 g/m*3 9.26 C 11.3 km/h
23 21-03-2017 01:50:00 10.7 C 7.56 g/m*3 9.04 C 12.9 km/h
24 21-03-2017 01:55:00 10.7 C 7.56 g/m*3 9.04 C 12.9 km/h
25 21-03-2017 02:00:00 10.7 C 7.56 g/m*3 8.48 C 17.7 km/h
Sensor: Nr:Datum:Temp:Abs-Feuchte:Windchill:Wind:
Aussen-T/F 26 21-03-2017 02:05:00 10.8 C 7.61 g/m*3 8.45 C 19.3 km/h
27 21-03-2017 02:10:00 10.8 C 7.61 g/m*3 8.17 C 22.5 km/h
28 21-03-2017 02:15:00 10.8 C 7.61 g/m*3 9.38 C 11.3 km/h
29 21-03-2017 02:20:00 10.9 C 7.66 g/m*3 8.9 C 16.1 km/h
30 21-03-2017 02:25:00 10.9 C 7.66 g/m*3 8.58 C 19.3 km/h
31 21-03-2017 02:30:00 10.9 C 7.66 g/m*3 9.28 C 12.9 km/h
32 21-03-2017 02:35:00 10.9 C 7.66 g/m*3 9.76 C 9.7 km/h
33 21-03-2017 02:40:00 11 C 7.71 g/m*3 9.88 C 9.7 km/h
34 21-03-2017 02:45:00 10.9 C 7.66 g/m*3 9.08 C 14.5 km/h
35 21-03-2017 02:50:00 11 C 7.81 g/m*3 9.4 C 12.9 km/h
36 21-03-2017 02:55:00 10.9 C 7.76 g/m*3 9.08 C 14.5 km/h
37 21-03-2017 03:00:00 10.9 C 7.76 g/m*3 8.9 C 16.1 km/h
38 21-03-2017 03:05:00 10.9 C 7.86 g/m*3 8.9 C 16.1 km/h
39 21-03-2017 03:10:00 10.8 C 7.81 g/m*3 9.93 C 8.1 km/h
40 21-03-2017 03:15:00 10.8 C 7.91 g/m*3 8.96 C 14.5 km/h
41 21-03-2017 03:20:00 10.8 C 7.91 g/m*3 9.64 C 9.7 km/h
42 21-03-2017 03:25:00 10.7 C 7.86 g/m*3 9.52 C 9.7 km/h
43 21-03-2017 03:30:00 10.7 C 7.96 g/m*3 9.26 C 11.3 km/h
44 21-03-2017 03:35:00 10.7 C 7.96 g/m*3 9.52 C 9.7 km/h
45 21-03-2017 03:40:00 10.7 C 7.96 g/m*3 9.52 C 9.7 km/h
46 21-03-2017 03:45:00 10.7 C 7.96 g/m*3 9.81 C 8.1 km/h
47 21-03-2017 03:50:00 10.7 C 8.05 g/m*3 9.52 C 9.7 km/h
48 21-03-2017 03:55:00 10.7 C 8.05 g/m*3 9.52 C 9.7 km/h
49 21-03-2017 04:00:00 10.6 C 8 g/m*3 9.4 C 9.7 km/h
50 21-03-2017 04:05:00 10.6 C 8 g/m*3 9.4 C 9.7 km/h
Sensor: Nr:Datum:Temp:Abs-Feuchte:Windchill:Wind:
Aussen-T/F 51 21-03-2017 04:10:00 10.6 C 8.1 g/m*3 9.4 C 9.7 km/h
52 21-03-2017 04:15:00 10.6 C 8.1 g/m*3 9.69 C 8.1 km/h
53 21-03-2017 04:20:00 10.6 C 8.1 g/m*3 8.92 C 12.9 km/h
54 21-03-2017 04:25:00 10.5 C 8.05 g/m*3 9.28 C 9.7 km/h
55 21-03-2017 04:30:00 10.5 C 8.15 g/m*3 8.4 C 16.1 km/h
56 21-03-2017 04:35:00 10.5 C 8.15 g/m*3 9.28 C 9.7 km/h
57 21-03-2017 04:40:00 10.4 C 8.19 g/m*3 8.9 C 11.3 km/h
58 21-03-2017 04:45:00 10.4 C 8.29 g/m*3 8.67 C 12.9 km/h
59 21-03-2017 04:50:00 10.3 C 8.33 g/m*3 8.78 C 11.3 km/h
60 21-03-2017 04:55:00 10.2 C 8.28 g/m*3 9.22 C 8.1 km/h
61 21-03-2017 05:00:00 10.1 C 8.32 g/m*3 10.1 C 3.2 km/h
62 21-03-2017 05:05:00 10 C 8.36 g/m*3 10 C 4.8 km/h
63 21-03-2017 05:10:00 9.9 C 8.31 g/m*3 9.9 C 3.2 km/h
64 21-03-2017 05:15:00 9.8 C 8.35 g/m*3 8.75 C 8.1 km/h
65 21-03-2017 05:20:00 9.7 C 8.3 g/m*3 8.06 C 11.3 km/h
66 21-03-2017 05:25:00 9.7 C 8.3 g/m*3 8.63 C 8.1 km/h
67 21-03-2017 05:30:00 9.7 C 8.39 g/m*3 9.7 C 3.2 km/h
68 21-03-2017 05:35:00 9.6 C 8.34 g/m*3 8.91 C 6.4 km/h
69 21-03-2017 05:40:00 9.6 C 8.34 g/m*3 7.94 C 11.3 km/h
70 21-03-2017 05:45:00 9.6 C 8.34 g/m*3 8.91 C 6.4 km/h
71 21-03-2017 05:50:00 9.6 C 8.34 g/m*3 9.6 C 3.2 km/h
72 21-03-2017 05:55:00 9.6 C 8.34 g/m*3 9.6 C 3.2 km/h
73 21-03-2017 06:00:00 9.5 C 8.28 g/m*3 9.5 C 3.2 km/h
74 21-03-2017 06:05:00 9.5 C 8.37 g/m*3 9.5 C 3.2 km/h
75 21-03-2017 06:10:00 9.5 C 8.37 g/m*3 9.5 C 4.8 km/h
Sensor: Nr:Datum:Temp:Abs-Feuchte:Windchill:Wind:
Aussen-T/F 76 21-03-2017 06:15:00 9.4 C 8.32 g/m*3 8.28 C 8.1 km/h
77 21-03-2017 06:20:00 9.4 C 8.32 g/m*3 9.4 C 4.8 km/h
78 21-03-2017 06:25:00 9.4 C 8.32 g/m*3 9.4 C 1.6 km/h
79 21-03-2017 06:30:00 9.4 C 8.32 g/m*3 9.4 C 3.2 km/h
80 21-03-2017 06:35:00 9.4 C 8.32 g/m*3 9.4 C 3.2 km/h
81 21-03-2017 06:40:00 9.3 C 8.36 g/m*3 9.3 C 3.2 km/h
82 21-03-2017 06:45:00 9.3 C 8.36 g/m*3 9.3 C 4.8 km/h
83 21-03-2017 06:50:00 9.3 C 8.36 g/m*3 8.16 C 8.1 km/h
84 21-03-2017 06:55:00 9.3 C 8.36 g/m*3 8.56 C 6.4 km/h
85 21-03-2017 07:00:00 9.3 C 8.36 g/m*3 8.16 C 8.1 km/h
86 21-03-2017 07:05:00 9.3 C 8.36 g/m*3 9.3 C 1.6 km/h
87 21-03-2017 07:10:00 9.3 C 8.36 g/m*3 9.3 C 1.6 km/h
88 21-03-2017 07:15:00 9.3 C 8.36 g/m*3 9.3 C 4.8 km/h
89 21-03-2017 07:20:00 9.3 C 8.36 g/m*3 9.3 C 4.8 km/h
90 21-03-2017 07:25:00 9.3 C 8.36 g/m*3 9.3 C 0 km/h
91 21-03-2017 07:30:00 9.3 C 8.36 g/m*3 9.3 C 0 km/h
92 21-03-2017 07:35:00 9.3 C 8.45 g/m*3 9.3 C 3.2 km/h
93 21-03-2017 07:40:00 9.3 C 8.45 g/m*3 9.3 C 1.6 km/h
94 21-03-2017 07:45:00 9.3 C 8.45 g/m*3 9.3 C 4.8 km/h
95 21-03-2017 07:50:00 9.3 C 8.45 g/m*3 9.3 C 4.8 km/h
96 21-03-2017 07:55:00 9.3 C 8.45 g/m*3 8.16 C 8.1 km/h
97 21-03-2017 08:00:00 9.3 C 8.45 g/m*3 9.3 C 3.2 km/h
98 21-03-2017 08:05:00 9.4 C 8.5 g/m*3 9.4 C 3.2 km/h
99 21-03-2017 08:10:00 9.4 C 8.5 g/m*3 9.4 C 1.6 km/h
100 21-03-2017 08:15:00 9.5 C 8.56 g/m*3 9.5 C 4.8 km/h
Sensor: Nr:Datum:Temp:Abs-Feuchte:Windchill:Wind:
Aussen-T/F 101 21-03-2017 08:20:00 9.5 C 8.56 g/m*3 9.5 C 3.2 km/h
102 21-03-2017 08:25:00 9.6 C 8.61 g/m*3 9.6 C 4.8 km/h
103 21-03-2017 08:30:00 9.6 C 8.61 g/m*3 8.91 C 6.4 km/h
104 21-03-2017 08:35:00 9.6 C 8.61 g/m*3 9.6 C 4.8 km/h
105 21-03-2017 08:40:00 9.5 C 8.56 g/m*3 8.4 C 8.1 km/h
106 21-03-2017 08:45:00 9.6 C 8.61 g/m*3 8.52 C 8.1 km/h
107 21-03-2017 08:50:00 9.5 C 8.47 g/m*3 8.79 C 6.4 km/h
108 21-03-2017 08:55:00 9.6 C 8.52 g/m*3 9.6 C 4.8 km/h
109 21-03-2017 09:00:00 9.7 C 8.57 g/m*3 9.02 C 6.4 km/h
110 21-03-2017 09:05:00 9.7 C 8.48 g/m*3 9.7 C 3.2 km/h
111 21-03-2017 09:10:00 9.8 C 8.63 g/m*3 9.8 C 4.8 km/h
112 21-03-2017 09:15:00 10 C 8.74 g/m*3 8.68 C 9.7 km/h
113 21-03-2017 09:20:00 10.1 C 8.7 g/m*3 10.1 C 4.8 km/h
114 21-03-2017 09:25:00 10.2 C 8.66 g/m*3 9.6 C 6.4 km/h
115 21-03-2017 09:30:00 10.3 C 8.71 g/m*3 10.3 C 3.2 km/h
116 21-03-2017 09:35:00 10.4 C 8.77 g/m*3 10.4 C 4.8 km/h
117 21-03-2017 09:40:00 10.4 C 8.67 g/m*3 9.83 C 6.4 km/h
118 21-03-2017 09:45:00 10.6 C 8.88 g/m*3 10.6 C 4.8 km/h
119 21-03-2017 09:50:00 10.7 C 8.84 g/m*3 10.18 C 6.4 km/h
120 21-03-2017 09:55:00 10.7 C 8.74 g/m*3 9.52 C 9.7 km/h
121 21-03-2017 10:00:00 10.8 C 8.7 g/m*3 9.38 C 11.3 km/h
122 21-03-2017 10:05:00 10.8 C 8.8 g/m*3 9.64 C 9.7 km/h
123 21-03-2017 10:10:00 10.9 C 8.85 g/m*3 10.9 C 4.8 km/h
124 21-03-2017 10:15:00 11.1 C 8.96 g/m*3 11.1 C 4.8 km/h
125 21-03-2017 10:20:00 11.2 C 8.92 g/m*3 11.2 C 8.1 km/h
Sensor: Nr:Datum:Temp:Abs-Feuchte:Windchill:Wind:
Aussen-T/F 126 21-03-2017 10:25:00 11.3 C 8.87 g/m*3 11.3 C 8.1 km/h
127 21-03-2017 10:30:00 11.3 C 8.77 g/m*3 11.3 C 9.7 km/h
128 21-03-2017 10:35:00 11.5 C 8.78 g/m*3 11.5 C 9.7 km/h
129 21-03-2017 10:40:00 11.6 C 8.73 g/m*3 11.6 C 6.4 km/h
130 21-03-2017 10:45:00 11.7 C 8.47 g/m*3 11.7 C 12.9 km/h
131 21-03-2017 10:50:00 11.7 C 8.26 g/m*3 11.7 C 14.5 km/h
132 21-03-2017 10:55:00 11.7 C 8.26 g/m*3 11.7 C 14.5 km/h
133 21-03-2017 11:00:00 11.8 C 8.21 g/m*3 11.8 C 9.7 km/h
134 21-03-2017 11:05:00 11.9 C 8.26 g/m*3 11.9 C 11.3 km/h
135 21-03-2017 11:10:00 12.1 C 8.36 g/m*3 12.1 C 9.7 km/h
136 21-03-2017 11:15:00 12.1 C 8.26 g/m*3 12.1 C 12.9 km/h
137 21-03-2017 11:20:00 12.1 C 8.04 g/m*3 12.1 C 9.7 km/h
138 21-03-2017 11:25:00 12.1 C 8.04 g/m*3 12.1 C 11.3 km/h
139 21-03-2017 11:30:00 12.1 C 7.94 g/m*3 12.1 C 12.9 km/h
140 21-03-2017 11:35:00 12.2 C 7.99 g/m*3 12.2 C 16.1 km/h
141 21-03-2017 11:40:00 12.2 C 8.09 g/m*3 12.2 C 12.9 km/h
142 21-03-2017 11:45:00 12.3 C 8.14 g/m*3 12.3 C 9.7 km/h
143 21-03-2017 11:50:00 12.5 C 7.81 g/m*3 12.5 C 17.7 km/h
144 21-03-2017 11:55:00 12.6 C 7.52 g/m*3 12.6 C 19.3 km/h
145 21-03-2017 12:00:00 12.6 C 7.41 g/m*3 12.6 C 16.1 km/h
146 21-03-2017 12:05:00 12.6 C 7.52 g/m*3 12.6 C 16.1 km/h
147 21-03-2017 12:10:00 12.6 C 7.41 g/m*3 12.6 C 19.3 km/h
148 21-03-2017 12:15:00 12.7 C 7.46 g/m*3 12.7 C 19.3 km/h
149 21-03-2017 12:20:00 12.6 C 7.19 g/m*3 12.6 C 17.7 km/h
150 21-03-2017 12:25:00 12.6 C 7.3 g/m*3 12.6 C 16.1 km/h
Sensor: Nr:Datum:Temp:Abs-Feuchte:Windchill:Wind:
Aussen-T/F 151 21-03-2017 12:30:00 12.7 C 7.68 g/m*3 12.7 C 12.9 km/h
152 21-03-2017 12:35:00 12.7 C 7.35 g/m*3 12.7 C 14.5 km/h
153 21-03-2017 12:40:00 12.8 C 7.39 g/m*3 12.8 C 16.1 km/h
154 21-03-2017 12:45:00 12.7 C 7.24 g/m*3 12.7 C 19.3 km/h
155 21-03-2017 12:50:00 12.6 C 7.3 g/m*3 12.6 C 12.9 km/h
156 21-03-2017 12:55:00 12.5 C 7.37 g/m*3 12.5 C 11.3 km/h
157 21-03-2017 13:00:00 12.6 C 7.41 g/m*3 12.6 C 16.1 km/h
158 21-03-2017 13:05:00 12.6 C 7.3 g/m*3 12.6 C 16.1 km/h
159 21-03-2017 13:10:00 12.4 C 7.1 g/m*3 12.4 C 17.7 km/h
160 21-03-2017 13:15:00 12.3 C 7.28 g/m*3 12.3 C 14.5 km/h
161 21-03-2017 13:20:00 11.9 C 7.73 g/m*3 11.9 C 19.3 km/h
162 21-03-2017 13:25:00 11.1 C 7.66 g/m*3 11.1 C 17.7 km/h
163 21-03-2017 13:30:00 10.1 C 7.56 g/m*3 8.1 C 14.5 km/h
164 21-03-2017 13:35:00 9.5 C 7.55 g/m*3 7.82 C 11.3 km/h
165 21-03-2017 13:40:00 9.3 C 7.73 g/m*3 9.3 C 0 km/h
166 21-03-2017 13:45:00 9.2 C 7.77 g/m*3 9.2 C 1.6 km/h
167 21-03-2017 13:50:00 9.2 C 7.95 g/m*3 9.2 C 1.6 km/h
168 21-03-2017 13:55:00 9.3 C 8.09 g/m*3 9.3 C 1.6 km/h
169 21-03-2017 14:00:00 9.3 C 8.09 g/m*3 9.3 C 0 km/h
170 21-03-2017 14:05:00 9.3 C 8.18 g/m*3 9.3 C 1.6 km/h
171 21-03-2017 14:10:00 9.3 C 8.09 g/m*3 9.3 C 0 km/h
172 21-03-2017 14:15:00 9.3 C 8.18 g/m*3 9.3 C 0 km/h
173 21-03-2017 14:20:00 9.3 C 8.18 g/m*3 9.3 C 1.6 km/h
174 21-03-2017 14:25:00 9.4 C 8.23 g/m*3 9.4 C 4.8 km/h
175 21-03-2017 14:30:00 9.5 C 8.1 g/m*3 9.5 C 4.8 km/h
Sensor: Nr:Datum:Temp:Abs-Feuchte:Windchill:Wind:
Aussen-T/F 176 21-03-2017 14:35:00 9.6 C 8.15 g/m*3 9.6 C 3.2 km/h
177 21-03-2017 14:40:00 9.6 C 8.15 g/m*3 9.6 C 0 km/h
178 21-03-2017 14:45:00 9.7 C 8.2 g/m*3 9.7 C 0 km/h
179 21-03-2017 14:50:00 9.7 C 8.2 g/m*3 9.7 C 0 km/h
180 21-03-2017 14:55:00 9.7 C 8.3 g/m*3 9.7 C 0 km/h
181 21-03-2017 15:00:00 9.7 C 8.3 g/m*3 9.7 C 3.2 km/h
182 21-03-2017 15:05:00 9.2 C 7.5 g/m*3 6.44 C 19.3 km/h
183 21-03-2017 15:10:00 8.9 C 7.36 g/m*3 7.09 C 11.3 km/h
184 21-03-2017 15:15:00 8.8 C 7.49 g/m*3 7.98 C 6.4 km/h
185 21-03-2017 15:20:00 8.6 C 7.39 g/m*3 7.75 C 6.4 km/h
186 21-03-2017 15:25:00 8.4 C 7.13 g/m*3 7.52 C 6.4 km/h
187 21-03-2017 15:30:00 8.4 C 7.3 g/m*3 8.4 C 4.8 km/h
188 21-03-2017 15:35:00 8.4 C 7.3 g/m*3 8.4 C 1.6 km/h
189 21-03-2017 15:40:00 8.4 C 7.3 g/m*3 8.4 C 1.6 km/h
190 21-03-2017 15:45:00 8.3 C 7.33 g/m*3 8.3 C 4.8 km/h
191 21-03-2017 15:50:00 8.3 C 7.33 g/m*3 8.3 C 3.2 km/h
192 21-03-2017 15:55:00 8.2 C 7.29 g/m*3 8.2 C 4.8 km/h
193 21-03-2017 16:00:00 8.2 C 7.37 g/m*3 8.2 C 3.2 km/h
194 21-03-2017 16:05:00 8.2 C 7.45 g/m*3 8.2 C 0 km/h
195 21-03-2017 16:10:00 8.3 C 7.5 g/m*3 8.3 C 0 km/h
196 21-03-2017 16:15:00 8.3 C 7.5 g/m*3 8.3 C 0 km/h
197 21-03-2017 16:20:00 8.3 C 7.42 g/m*3 7.41 C 6.4 km/h
198 21-03-2017 16:25:00 8.3 C 7.42 g/m*3 8.3 C 1.6 km/h
199 21-03-2017 16:30:00 8.3 C 7.33 g/m*3 8.3 C 3.2 km/h
200 21-03-2017 16:35:00 8.4 C 7.38 g/m*3 8.4 C 3.2 km/h
Sensor: Nr:Datum:Temp:Abs-Feuchte:Windchill:Wind:
Aussen-T/F 201 21-03-2017 16:40:00 8.6 C 7.48 g/m*3 8.6 C 4.8 km/h
202 21-03-2017 16:45:00 8.6 C 7.39 g/m*3 8.6 C 1.6 km/h
203 21-03-2017 16:50:00 8.7 C 7.35 g/m*3 7.46 C 8.1 km/h
204 21-03-2017 16:55:00 8.7 C 7.26 g/m*3 7.87 C 6.4 km/h
205 21-03-2017 17:00:00 8.8 C 7.22 g/m*3 8.8 C 4.8 km/h
206 21-03-2017 17:05:00 8.8 C 7.31 g/m*3 8.8 C 0 km/h
207 21-03-2017 17:10:00 8.8 C 7.22 g/m*3 7.98 C 6.4 km/h
208 21-03-2017 17:15:00 8.9 C 7.27 g/m*3 8.9 C 3.2 km/h
209 21-03-2017 17:20:00 8.9 C 7.27 g/m*3 8.9 C 3.2 km/h
210 21-03-2017 17:25:00 8.9 C 7.36 g/m*3 8.9 C 0 km/h
211 21-03-2017 17:30:00 8.9 C 7.36 g/m*3 8.9 C 3.2 km/h
212 21-03-2017 17:35:00 8.9 C 7.27 g/m*3 8.9 C 3.2 km/h
213 21-03-2017 17:40:00 8.9 C 7.18 g/m*3 8.9 C 4.8 km/h
214 21-03-2017 17:45:00 8.9 C 7.1 g/m*3 8.9 C 3.2 km/h
215 21-03-2017 17:50:00 8.9 C 7.27 g/m*3 8.9 C 0 km/h
216 21-03-2017 17:55:00 9 C 7.32 g/m*3 9 C 0 km/h
217 21-03-2017 18:00:00 8.9 C 7.36 g/m*3 8.9 C 0 km/h
218 21-03-2017 18:05:00 8.9 C 7.36 g/m*3 8.9 C 0 km/h
219 21-03-2017 18:10:00 8.8 C 7.31 g/m*3 8.8 C 0 km/h
220 21-03-2017 18:15:00 8.7 C 7.18 g/m*3 8.7 C 0 km/h
221 21-03-2017 18:20:00 8.6 C 7.22 g/m*3 8.6 C 0 km/h
222 21-03-2017 18:25:00 8.5 C 7.09 g/m*3 8.5 C 0 km/h
223 21-03-2017 18:30:00 8.4 C 7.04 g/m*3 8.4 C 0 km/h
224 21-03-2017 18:35:00 8.3 C 6.83 g/m*3 8.3 C 3.2 km/h
225 21-03-2017 18:40:00 8.3 C 6.41 g/m*3 8.3 C 3.2 km/h
Sensor: Nr:Datum:Temp:Abs-Feuchte:Windchill:Wind:
Aussen-T/F 226 21-03-2017 18:45:00 8.4 C 6.36 g/m*3 7.52 C 6.4 km/h
227 21-03-2017 18:50:00 8.6 C 6.79 g/m*3 8.6 C 4.8 km/h
228 21-03-2017 18:55:00 8.4 C 6.45 g/m*3 8.4 C 3.2 km/h
229 21-03-2017 19:00:00 8.4 C 6.62 g/m*3 8.4 C 0 km/h
230 21-03-2017 19:05:00 8.2 C 6.62 g/m*3 8.2 C 0 km/h
231 21-03-2017 19:10:00 8.1 C 6.49 g/m*3 8.1 C 0 km/h
232 21-03-2017 19:15:00 8 C 6.53 g/m*3 8 C 0 km/h
233 21-03-2017 19:20:00 7.9 C 6.65 g/m*3 7.9 C 3.2 km/h
234 21-03-2017 19:25:00 7.8 C 6.61 g/m*3 7.8 C 0 km/h
235 21-03-2017 19:30:00 7.7 C 6.65 g/m*3 7.7 C 3.2 km/h
236 21-03-2017 19:35:00 7.6 C 6.69 g/m*3 7.6 C 1.6 km/h
237 21-03-2017 19:40:00 7.5 C 6.72 g/m*3 7.5 C 4.8 km/h
238 21-03-2017 19:45:00 7.4 C 6.6 g/m*3 7.4 C 4.8 km/h
239 21-03-2017 19:50:00 7.3 C 6.56 g/m*3 7.3 C 3.2 km/h
240 21-03-2017 19:55:00 7.2 C 6.36 g/m*3 7.2 C 1.6 km/h
241 21-03-2017 20:00:00 7.2 C 6.28 g/m*3 7.2 C 0 km/h
242 21-03-2017 20:05:00 7.3 C 6 g/m*3 7.3 C 4.8 km/h
243 21-03-2017 20:10:00 7.4 C 6.12 g/m*3 7.4 C 1.6 km/h
244 21-03-2017 20:15:00 7.4 C 5.88 g/m*3 7.4 C 3.2 km/h
245 21-03-2017 20:20:00 7.4 C 5.88 g/m*3 7.4 C 1.6 km/h
246 21-03-2017 20:25:00 7.4 C 5.88 g/m*3 7.4 C 3.2 km/h
247 21-03-2017 20:30:00 7.4 C 5.96 g/m*3 7.4 C 0 km/h
248 21-03-2017 20:35:00 7.4 C 6.04 g/m*3 7.4 C 4.8 km/h
249 21-03-2017 20:40:00 7.3 C 6.08 g/m*3 7.3 C 3.2 km/h
250 21-03-2017 20:45:00 7.3 C 6.16 g/m*3 7.3 C 1.6 km/h
Sensor: Nr:Datum:Temp:Abs-Feuchte:Windchill:Wind:
Aussen-T/F 251 21-03-2017 20:50:00 7.2 C 6.28 g/m*3 7.2 C 0 km/h
252 21-03-2017 20:55:00 7.1 C 6.24 g/m*3 7.1 C 4.8 km/h
253 21-03-2017 21:00:00 6.9 C 6.08 g/m*3 6.9 C 3.2 km/h
254 21-03-2017 21:05:00 6.9 C 6 g/m*3 6.9 C 0 km/h
255 21-03-2017 21:10:00 6.8 C 5.81 g/m*3 6.8 C 0 km/h
256 21-03-2017 21:15:00 6.8 C 5.74 g/m*3 6.8 C 3.2 km/h
257 21-03-2017 21:20:00 6.8 C 5.97 g/m*3 6.8 C 3.2 km/h
258 21-03-2017 21:25:00 6.8 C 5.97 g/m*3 6.8 C 3.2 km/h
259 21-03-2017 21:30:00 6.8 C 6.12 g/m*3 6.8 C 0 km/h
260 21-03-2017 21:35:00 6.8 C 6.27 g/m*3 6.8 C 1.6 km/h
261 21-03-2017 21:40:00 6.7 C 6.23 g/m*3 6.7 C 0 km/h
262 21-03-2017 21:45:00 6.7 C 6.31 g/m*3 6.7 C 0 km/h
263 21-03-2017 21:50:00 6.5 C 6.3 g/m*3 6.5 C 0 km/h
264 21-03-2017 21:55:00 6.4 C 6.26 g/m*3 6.4 C 0 km/h
265 21-03-2017 22:00:00 6.3 C 6.29 g/m*3 6.3 C 0 km/h
266 21-03-2017 22:05:00 6.1 C 6.21 g/m*3 6.1 C 0 km/h
267 21-03-2017 22:10:00 6 C 6.24 g/m*3 6 C 0 km/h
268 21-03-2017 22:15:00 5.9 C 6.27 g/m*3 5.9 C 0 km/h
269 21-03-2017 22:20:00 5.9 C 6.27 g/m*3 5.9 C 0 km/h
270 21-03-2017 22:25:00 5.8 C 6.23 g/m*3 5.8 C 0 km/h
271 21-03-2017 22:30:00 5.8 C 6.23 g/m*3 5.8 C 0 km/h
272 21-03-2017 22:35:00 5.7 C 6.19 g/m*3 5.7 C 0 km/h
273 21-03-2017 22:40:00 5.6 C 6.22 g/m*3 5.6 C 0 km/h
274 21-03-2017 22:45:00 5.6 C 6.22 g/m*3 5.6 C 0 km/h
275 21-03-2017 22:50:00 5.5 C 6.18 g/m*3 5.5 C 0 km/h
Sensor: Nr:Datum:Temp:Abs-Feuchte:Windchill:Wind:
Aussen-T/F 276 21-03-2017 22:55:00 5.4 C 6.14 g/m*3 5.4 C 0 km/h
277 21-03-2017 23:00:00 5.3 C 6.1 g/m*3 5.3 C 0 km/h
278 21-03-2017 23:05:00 5.2 C 6.06 g/m*3 5.2 C 0 km/h
279 21-03-2017 23:10:00 5.1 C 6.02 g/m*3 5.1 C 0 km/h
280 21-03-2017 23:15:00 5.1 C 6.09 g/m*3 5.1 C 0 km/h
281 21-03-2017 23:20:00 5 C 6.05 g/m*3 5 C 0 km/h
282 21-03-2017 23:25:00 4.9 C 6.01 g/m*3 4.9 C 0 km/h
283 21-03-2017 23:30:00 4.8 C 5.97 g/m*3 4.8 C 0 km/h
284 21-03-2017 23:35:00 4.7 C 5.93 g/m*3 4.7 C 0 km/h
285 21-03-2017 23:40:00 4.5 C 5.78 g/m*3 4.5 C 0 km/h
286 21-03-2017 23:45:00 4.3 C 5.71 g/m*3 4.3 C 0 km/h
287 21-03-2017 23:50:00 4.2 C 5.67 g/m*3 4.2 C 0 km/h
288 21-03-2017 23:55:00 4.1 C 5.7 g/m*3 4.1 C 0 km/h
289 22-03-2017 00:00:00 4 C 5.66 g/m*3 4 C 0 km/h
290 22-03-2017 00:05:00 3.8 C 5.58 g/m*3 3.8 C 0 km/h
291 22-03-2017 00:10:00 3.8 C 5.65 g/m*3 3.8 C 1.6 km/h
292 22-03-2017 00:15:00 3.8 C 5.65 g/m*3 3.8 C 3.2 km/h
293 22-03-2017 00:20:00 3.8 C 5.65 g/m*3 3.8 C 4.8 km/h
294 22-03-2017 00:25:00 3.8 C 5.65 g/m*3 3.8 C 0 km/h
295 22-03-2017 00:30:00 3.8 C 5.65 g/m*3 3.8 C 0 km/h
296 22-03-2017 00:35:00 3.7 C 5.61 g/m*3 3.7 C 0 km/h
297 22-03-2017 00:40:00 3.7 C 5.61 g/m*3 3.7 C 0 km/h
298 22-03-2017 00:45:00 3.6 C 5.57 g/m*3 3.6 C 0 km/h
299 22-03-2017 00:50:00 3.5 C 5.53 g/m*3 3.5 C 0 km/h
300 22-03-2017 00:55:00 3.3 C 5.46 g/m*3 3.3 C 0 km/h
Sensor: Nr:Datum:Temp:Abs-Feuchte:Windchill:Wind:
Aussen-T/F 301 22-03-2017 01:00:00 3.2 C 5.42 g/m*3 3.2 C 0 km/h
302 22-03-2017 01:05:00 3.2 C 5.42 g/m*3 3.2 C 0 km/h
303 22-03-2017 01:10:00 3.1 C 5.39 g/m*3 3.1 C 0 km/h
304 22-03-2017 01:15:00 3 C 5.35 g/m*3 3 C 0 km/h
305 22-03-2017 01:20:00 2.8 C 5.28 g/m*3 2.8 C 0 km/h
306 22-03-2017 01:25:00 2.7 C 5.24 g/m*3 2.7 C 0 km/h
307 22-03-2017 01:30:00 2.6 C 5.21 g/m*3 2.6 C 0 km/h
308 22-03-2017 01:35:00 2.5 C 5.17 g/m*3 2.5 C 0 km/h
309 22-03-2017 01:40:00 2.4 C 5.14 g/m*3 2.4 C 0 km/h
310 22-03-2017 01:45:00 2.4 C 5.2 g/m*3 2.4 C 0 km/h
311 22-03-2017 01:50:00 2.4 C 5.2 g/m*3 2.4 C 0 km/h
312 22-03-2017 01:55:00 2.3 C 5.16 g/m*3 2.3 C 0 km/h
313 22-03-2017 02:00:00 2.2 C 5.07 g/m*3 2.2 C 0 km/h
314 22-03-2017 02:05:00 2.2 C 5.13 g/m*3 2.2 C 0 km/h
315 22-03-2017 02:10:00 2.2 C 5.13 g/m*3 2.2 C 0 km/h
316 22-03-2017 02:15:00 2.1 C 5.09 g/m*3 2.1 C 0 km/h
317 22-03-2017 02:20:00 1.9 C 5.02 g/m*3 1.9 C 0 km/h
318 22-03-2017 02:25:00 1.8 C 4.99 g/m*3 1.8 C 0 km/h
319 22-03-2017 02:30:00 1.7 C 4.95 g/m*3 1.7 C 0 km/h
320 22-03-2017 02:35:00 1.7 C 5.01 g/m*3 1.7 C 0 km/h
321 22-03-2017 02:40:00 1.7 C 5.01 g/m*3 1.7 C 0 km/h
322 22-03-2017 02:45:00 1.6 C 4.97 g/m*3 1.6 C 0 km/h
323 22-03-2017 02:50:00 1.6 C 4.97 g/m*3 1.6 C 0 km/h
324 22-03-2017 02:55:00 1.6 C 4.97 g/m*3 1.6 C 0 km/h
325 22-03-2017 03:00:00 1.5 C 4.94 g/m*3 1.5 C 0 km/h
Sensor: Nr:Datum:Temp:Abs-Feuchte:Windchill:Wind:
Aussen-T/F 326 22-03-2017 03:05:00 1.5 C 4.94 g/m*3 1.5 C 0 km/h
327 22-03-2017 03:10:00 1.5 C 4.99 g/m*3 1.5 C 0 km/h
328 22-03-2017 03:15:00 1.6 C 5.03 g/m*3 1.6 C 0 km/h
329 22-03-2017 03:20:00 1.4 C 4.91 g/m*3 1.4 C 0 km/h
330 22-03-2017 03:25:00 1.4 C 4.91 g/m*3 1.4 C 0 km/h
331 22-03-2017 03:30:00 1.4 C 4.91 g/m*3 1.4 C 0 km/h
332 22-03-2017 03:35:00 1.4 C 4.96 g/m*3 1.4 C 0 km/h
333 22-03-2017 03:40:00 1.5 C 4.99 g/m*3 1.5 C 0 km/h
334 22-03-2017 03:45:00 1.4 C 4.96 g/m*3 1.4 C 0 km/h
335 22-03-2017 03:50:00 1.4 C 4.96 g/m*3 1.4 C 0 km/h
336 22-03-2017 03:55:00 1.4 C 4.96 g/m*3 1.4 C 0 km/h
337 22-03-2017 04:00:00 1.4 C 4.96 g/m*3 1.4 C 0 km/h
338 22-03-2017 04:05:00 1.3 C 4.93 g/m*3 1.3 C 0 km/h
339 22-03-2017 04:10:00 1.3 C 4.93 g/m*3 1.3 C 0 km/h
340 22-03-2017 04:15:00 1.2 C 4.89 g/m*3 1.2 C 0 km/h
341 22-03-2017 04:20:00 1.2 C 4.89 g/m*3 1.2 C 0 km/h
342 22-03-2017 04:25:00 1.1 C 4.86 g/m*3 1.1 C 0 km/h
343 22-03-2017 04:30:00 1 C 4.83 g/m*3 1 C 0 km/h
344 22-03-2017 04:35:00 0.9 C 4.79 g/m*3 0.9 C 0 km/h
345 22-03-2017 04:40:00 0.8 C 4.76 g/m*3 0.8 C 0 km/h
346 22-03-2017 04:45:00 0.8 C 4.76 g/m*3 0.8 C 0 km/h
347 22-03-2017 04:50:00 0.7 C 4.73 g/m*3 0.7 C 0 km/h
348 22-03-2017 04:55:00 0.8 C 4.81 g/m*3 0.8 C 0 km/h
349 22-03-2017 05:00:00 0.9 C 4.85 g/m*3 0.9 C 0 km/h
350 22-03-2017 05:05:00 1 C 4.88 g/m*3 1 C 0 km/h
Sensor: Nr:Datum:Temp:Abs-Feuchte:Windchill:Wind:
Aussen-T/F 351 22-03-2017 05:10:00 1.1 C 4.91 g/m*3 1.1 C 0 km/h
352 22-03-2017 05:15:00 1.1 C 4.91 g/m*3 1.1 C 0 km/h
353 22-03-2017 05:20:00 1 C 4.88 g/m*3 1 C 0 km/h
354 22-03-2017 05:25:00 0.8 C 4.81 g/m*3 0.8 C 0 km/h
355 22-03-2017 05:30:00 0.8 C 4.81 g/m*3 0.8 C 0 km/h
356 22-03-2017 05:35:00 0.8 C 4.81 g/m*3 0.8 C 0 km/h
357 22-03-2017 05:40:00 0.8 C 4.81 g/m*3 0.8 C 0 km/h
358 22-03-2017 05:45:00 0.9 C 4.9 g/m*3 0.9 C 0 km/h
359 22-03-2017 05:50:00 1.1 C 4.96 g/m*3 1.1 C 0 km/h
360 22-03-2017 05:55:00 1.1 C 4.96 g/m*3 1.1 C 0 km/h
361 22-03-2017 06:00:00 1.2 C 5 g/m*3 1.2 C 0 km/h
362 22-03-2017 06:05:00 1.2 C 5 g/m*3 1.2 C 0 km/h
363 22-03-2017 06:10:00 1.2 C 5 g/m*3 1.2 C 0 km/h
364 22-03-2017 06:15:00 1.3 C 5.03 g/m*3 1.3 C 0 km/h
365 22-03-2017 06:20:00 1.3 C 5.03 g/m*3 1.3 C 0 km/h
366 22-03-2017 06:25:00 1.3 C 5.03 g/m*3 1.3 C 0 km/h
367 22-03-2017 06:30:00 1.3 C 5.03 g/m*3 1.3 C 0 km/h
368 22-03-2017 06:35:00 1.3 C 5.03 g/m*3 1.3 C 0 km/h
369 22-03-2017 06:40:00 1.2 C 5 g/m*3 1.2 C 0 km/h
370 22-03-2017 06:45:00 1.2 C 5 g/m*3 1.2 C 0 km/h
371 22-03-2017 06:50:00 1.2 C 5 g/m*3 1.2 C 1.6 km/h
372 22-03-2017 06:55:00 1.3 C 5.03 g/m*3 1.3 C 0 km/h
373 22-03-2017 07:00:00 1.3 C 5.03 g/m*3 1.3 C 0 km/h
374 22-03-2017 07:05:00 1.3 C 5.03 g/m*3 1.3 C 0 km/h
375 22-03-2017 07:10:00 1.3 C 5.03 g/m*3 1.3 C 0 km/h
Sensor: Nr:Datum:Temp:Abs-Feuchte:Windchill:Wind:
Aussen-T/F 376 22-03-2017 07:15:00 1.4 C 5.07 g/m*3 1.4 C 0 km/h
377 22-03-2017 07:20:00 1.4 C 5.07 g/m*3 1.4 C 0 km/h
378 22-03-2017 07:25:00 1.5 C 5.1 g/m*3 1.5 C 0 km/h
379 22-03-2017 07:30:00 1.6 C 5.14 g/m*3 1.6 C 0 km/h
380 22-03-2017 07:35:00 1.6 C 5.14 g/m*3 1.6 C 0 km/h
381 22-03-2017 07:40:00 1.7 C 5.17 g/m*3 1.7 C 0 km/h
382 22-03-2017 07:45:00 1.7 C 5.17 g/m*3 1.7 C 0 km/h
383 22-03-2017 07:50:00 1.8 C 5.21 g/m*3 1.8 C 0 km/h
384 22-03-2017 07:55:00 1.8 C 5.21 g/m*3 1.8 C 0 km/h
385 22-03-2017 08:00:00 1.8 C 5.21 g/m*3 1.8 C 0 km/h
386 22-03-2017 08:05:00 1.9 C 5.3 g/m*3 1.9 C 0 km/h
387 22-03-2017 08:10:00 1.9 C 5.3 g/m*3 1.9 C 0 km/h
388 22-03-2017 08:15:00 2 C 5.33 g/m*3 2 C 0 km/h
389 22-03-2017 08:20:00 1.9 C 5.24 g/m*3 1.9 C 0 km/h
390 22-03-2017 08:25:00 2 C 5.28 g/m*3 2 C 0 km/h
391 22-03-2017 08:30:00 2.1 C 5.31 g/m*3 2.1 C 0 km/h
392 22-03-2017 08:35:00 2.2 C 5.41 g/m*3 2.2 C 1.6 km/h
393 22-03-2017 08:40:00 2.3 C 5.44 g/m*3 2.3 C 1.6 km/h
394 22-03-2017 08:45:00 2.4 C 5.48 g/m*3 2.4 C 0 km/h
395 22-03-2017 08:50:00 2.5 C 5.52 g/m*3 2.5 C 1.6 km/h
396 22-03-2017 08:55:00 2.6 C 5.56 g/m*3 2.6 C 3.2 km/h
397 22-03-2017 09:00:00 2.6 C 5.56 g/m*3 2.6 C 3.2 km/h
398 22-03-2017 09:05:00 2.7 C 5.59 g/m*3 2.7 C 1.6 km/h
399 22-03-2017 09:10:00 2.8 C 5.63 g/m*3 2.8 C 1.6 km/h
400 22-03-2017 09:15:00 2.8 C 5.63 g/m*3 2.8 C 0 km/h
Sensor: Nr:Datum:Temp:Abs-Feuchte:Windchill:Wind:
Aussen-T/F 401 22-03-2017 09:20:00 2.9 C 5.67 g/m*3 2.9 C 0 km/h
402 22-03-2017 09:25:00 3 C 5.71 g/m*3 3 C 0 km/h
403 22-03-2017 09:30:00 3.1 C 5.75 g/m*3 3.1 C 1.6 km/h
404 22-03-2017 09:35:00 3.3 C 5.82 g/m*3 3.3 C 0 km/h
405 22-03-2017 09:40:00 3.4 C 5.86 g/m*3 3.4 C 1.6 km/h
406 22-03-2017 09:45:00 3.6 C 5.94 g/m*3 3.6 C 1.6 km/h
407 22-03-2017 09:50:00 3.7 C 5.98 g/m*3 3.7 C 1.6 km/h
408 22-03-2017 09:55:00 3.8 C 6.02 g/m*3 3.8 C 3.2 km/h
409 22-03-2017 10:00:00 3.9 C 6 g/m*3 3.9 C 1.6 km/h
410 22-03-2017 10:05:00 3.9 C 6 g/m*3 3.9 C 3.2 km/h
411 22-03-2017 10:10:00 4.1 C 6.08 g/m*3 4.1 C 1.6 km/h
412 22-03-2017 10:15:00 4.2 C 6.12 g/m*3 4.2 C 1.6 km/h
413 22-03-2017 10:20:00 4.3 C 6.1 g/m*3 4.3 C 1.6 km/h
414 22-03-2017 10:25:00 4.4 C 6.14 g/m*3 4.4 C 0 km/h
415 22-03-2017 10:30:00 4.7 C 6.26 g/m*3 4.7 C 1.6 km/h
416 22-03-2017 10:35:00 4.8 C 6.24 g/m*3 4.8 C 0 km/h
417 22-03-2017 10:40:00 4.9 C 6.28 g/m*3 4.9 C 1.6 km/h
418 22-03-2017 10:45:00 5 C 6.25 g/m*3 5 C 1.6 km/h
419 22-03-2017 10:50:00 5.1 C 6.29 g/m*3 5.1 C 1.6 km/h
420 22-03-2017 10:55:00 5.1 C 6.29 g/m*3 5.1 C 1.6 km/h
421 22-03-2017 11:00:00 5.2 C 6.33 g/m*3 5.2 C 3.2 km/h
422 22-03-2017 11:05:00 5.3 C 6.38 g/m*3 5.3 C 1.6 km/h
423 22-03-2017 11:10:00 5.5 C 6.46 g/m*3 5.5 C 3.2 km/h
424 22-03-2017 11:15:00 5.7 C 6.55 g/m*3 5.7 C 1.6 km/h
425 22-03-2017 11:20:00 5.8 C 6.59 g/m*3 5.8 C 0 km/h
Sensor: Nr:Datum:Temp:Abs-Feuchte:Windchill:Wind:
Aussen-T/F 426 22-03-2017 11:25:00 5.9 C 6.63 g/m*3 5.9 C 1.6 km/h
427 22-03-2017 11:30:00 6 C 6.6 g/m*3 6 C 3.2 km/h
428 22-03-2017 11:35:00 6.1 C 6.65 g/m*3 6.1 C 1.6 km/h
429 22-03-2017 11:40:00 6.2 C 6.69 g/m*3 6.2 C 1.6 km/h
430 22-03-2017 11:45:00 6.3 C 6.74 g/m*3 6.3 C 0 km/h
431 22-03-2017 11:50:00 6.5 C 6.82 g/m*3 6.5 C 1.6 km/h
432 22-03-2017 11:55:00 6.8 C 6.96 g/m*3 6.8 C 0 km/h
433 22-03-2017 12:00:00 6.9 C 6.85 g/m*3 6.9 C 1.6 km/h
434 22-03-2017 12:05:00 7.1 C 6.86 g/m*3 7.1 C 4.8 km/h
435 22-03-2017 12:10:00 7.3 C 6.87 g/m*3 6.25 C 6.4 km/h
436 22-03-2017 12:15:00 7.4 C 6.76 g/m*3 7.4 C 4.8 km/h
437 22-03-2017 12:20:00 7.6 C 6.85 g/m*3 7.6 C 4.8 km/h
438 22-03-2017 12:25:00 7.7 C 6.81 g/m*3 7.7 C 4.8 km/h
439 22-03-2017 12:30:00 7.7 C 6.81 g/m*3 7.7 C 4.8 km/h
440 22-03-2017 12:35:00 7.8 C 6.86 g/m*3 7.8 C 1.6 km/h
441 22-03-2017 12:40:00 7.8 C 6.86 g/m*3 7.8 C 4.8 km/h
442 22-03-2017 12:45:00 7.8 C 6.86 g/m*3 7.8 C 4.8 km/h
443 22-03-2017 12:50:00 7.9 C 6.9 g/m*3 7.9 C 1.6 km/h
444 22-03-2017 12:55:00 7.9 C 6.9 g/m*3 7.9 C 0 km/h
445 22-03-2017 13:00:00 8.1 C 7.07 g/m*3 8.1 C 3.2 km/h
446 22-03-2017 13:05:00 8.2 C 7.03 g/m*3 8.2 C 3.2 km/h
447 22-03-2017 13:10:00 8.3 C 7.08 g/m*3 8.3 C 3.2 km/h
448 22-03-2017 13:15:00 8.4 C 6.96 g/m*3 7.11 C 8.1 km/h
449 22-03-2017 13:20:00 8.4 C 6.96 g/m*3 8.4 C 4.8 km/h
450 22-03-2017 13:25:00 8.6 C 7.05 g/m*3 8.6 C 3.2 km/h
Sensor: Nr:Datum:Temp:Abs-Feuchte:Windchill:Wind:
Aussen-T/F 451 22-03-2017 13:30:00 8.6 C 6.96 g/m*3 7.34 C 8.1 km/h
452 22-03-2017 13:35:00 8.6 C 6.96 g/m*3 8.6 C 4.8 km/h
453 22-03-2017 13:40:00 8.6 C 6.96 g/m*3 7.75 C 6.4 km/h
454 22-03-2017 13:45:00 8.5 C 6.92 g/m*3 7.22 C 8.1 km/h
455 22-03-2017 13:50:00 8.6 C 6.96 g/m*3 7.75 C 6.4 km/h
456 22-03-2017 13:55:00 8.6 C 6.96 g/m*3 7.34 C 8.1 km/h
457 22-03-2017 14:00:00 8.6 C 6.96 g/m*3 8.6 C 4.8 km/h
458 22-03-2017 14:05:00 8.7 C 6.92 g/m*3 7.46 C 8.1 km/h
459 22-03-2017 14:10:00 8.7 C 6.92 g/m*3 7.46 C 8.1 km/h
460 22-03-2017 14:15:00 8.8 C 6.88 g/m*3 8.8 C 4.8 km/h
461 22-03-2017 14:20:00 8.9 C 7.01 g/m*3 7.69 C 8.1 km/h
462 22-03-2017 14:25:00 9.1 C 7.01 g/m*3 9.1 C 4.8 km/h
463 22-03-2017 14:30:00 9.2 C 6.97 g/m*3 8.05 C 8.1 km/h
464 22-03-2017 14:35:00 9.3 C 7.01 g/m*3 8.16 C 8.1 km/h
465 22-03-2017 14:40:00 9.4 C 6.96 g/m*3 8.28 C 8.1 km/h
466 22-03-2017 14:45:00 9.5 C 7.01 g/m*3 8.79 C 6.4 km/h
467 22-03-2017 14:50:00 9.6 C 6.96 g/m*3 9.6 C 4.8 km/h
468 22-03-2017 14:55:00 9.7 C 6.91 g/m*3 8.63 C 8.1 km/h
469 22-03-2017 15:00:00 9.7 C 7.01 g/m*3 8.63 C 8.1 km/h
470 22-03-2017 15:05:00 9.8 C 7.05 g/m*3 9.8 C 3.2 km/h
471 22-03-2017 15:10:00 9.9 C 6.91 g/m*3 9.9 C 3.2 km/h
472 22-03-2017 15:15:00 9.9 C 6.91 g/m*3 9.9 C 4.8 km/h
473 22-03-2017 15:20:00 9.8 C 6.77 g/m*3 8.75 C 8.1 km/h
474 22-03-2017 15:25:00 9.8 C 6.87 g/m*3 8.75 C 8.1 km/h
475 22-03-2017 15:30:00 9.9 C 6.91 g/m*3 8.06 C 12.9 km/h
Sensor: Nr:Datum:Temp:Abs-Feuchte:Windchill:Wind:
Aussen-T/F 476 22-03-2017 15:35:00 9.9 C 6.91 g/m*3 8.87 C 8.1 km/h
477 22-03-2017 15:40:00 9.8 C 6.87 g/m*3 7.73 C 14.5 km/h
478 22-03-2017 15:45:00 9.8 C 6.96 g/m*3 9.8 C 3.2 km/h
479 22-03-2017 15:50:00 9.9 C 6.82 g/m*3 9.25 C 6.4 km/h
480 22-03-2017 15:55:00 9.9 C 6.82 g/m*3 9.25 C 6.4 km/h
481 22-03-2017 16:00:00 9.9 C 6.72 g/m*3 8.56 C 9.7 km/h
482 22-03-2017 16:05:00 9.9 C 6.72 g/m*3 8.87 C 8.1 km/h
483 22-03-2017 16:10:00 9.8 C 6.68 g/m*3 9.8 C 4.8 km/h
484 22-03-2017 16:15:00 9.8 C 6.77 g/m*3 8.75 C 8.1 km/h
485 22-03-2017 16:20:00 9.6 C 6.69 g/m*3 8.21 C 9.7 km/h
486 22-03-2017 16:25:00 9.6 C 6.69 g/m*3 8.91 C 6.4 km/h
487 22-03-2017 16:30:00 9.5 C 6.83 g/m*3 9.5 C 1.6 km/h
488 22-03-2017 16:35:00 9.4 C 6.78 g/m*3 9.4 C 3.2 km/h
489 22-03-2017 16:40:00 9.4 C 6.78 g/m*3 9.4 C 0 km/h
490 22-03-2017 16:45:00 9.3 C 6.74 g/m*3 9.3 C 0 km/h
491 22-03-2017 16:50:00 9.3 C 6.83 g/m*3 9.3 C 3.2 km/h
492 22-03-2017 16:55:00 9.3 C 6.83 g/m*3 9.3 C 0 km/h
493 22-03-2017 17:00:00 9.2 C 6.79 g/m*3 9.2 C 0 km/h
494 22-03-2017 17:05:00 9.2 C 6.88 g/m*3 9.2 C 0 km/h
495 22-03-2017 17:10:00 9.2 C 7.05 g/m*3 9.2 C 0 km/h
496 22-03-2017 17:15:00 9.2 C 7.05 g/m*3 9.2 C 0 km/h
497 22-03-2017 17:20:00 9.1 C 7.1 g/m*3 9.1 C 0 km/h
498 22-03-2017 17:25:00 9.1 C 7.1 g/m*3 9.1 C 0 km/h
499 22-03-2017 17:30:00 8.9 C 7.1 g/m*3 8.9 C 0 km/h
500 22-03-2017 17:35:00 8.9 C 7.1 g/m*3 8.9 C 0 km/h
Sensor: Nr:Datum:Temp:Abs-Feuchte:Windchill:Wind:
Aussen-T/F 501 22-03-2017 17:40:00 8.9 C 7.1 g/m*3 8.9 C 0 km/h
502 22-03-2017 17:45:00 8.8 C 7.05 g/m*3 8.8 C 0 km/h
503 22-03-2017 17:50:00 8.8 C 7.14 g/m*3 8.8 C 0 km/h
504 22-03-2017 17:55:00 8.7 C 7.09 g/m*3 8.7 C 0 km/h
505 22-03-2017 18:00:00 8.7 C 7.09 g/m*3 8.7 C 0 km/h
506 22-03-2017 18:05:00 8.6 C 7.05 g/m*3 8.6 C 0 km/h
507 22-03-2017 18:10:00 8.5 C 7 g/m*3 8.5 C 0 km/h
508 22-03-2017 18:15:00 8.5 C 7.09 g/m*3 8.5 C 0 km/h
509 22-03-2017 18:20:00 8.4 C 7.04 g/m*3 8.4 C 0 km/h
510 22-03-2017 18:25:00 8.3 C 7 g/m*3 8.3 C 3.2 km/h
511 22-03-2017 18:30:00 8.3 C 7.08 g/m*3 8.3 C 3.2 km/h
512 22-03-2017 18:35:00 8.3 C 7.08 g/m*3 8.3 C 0 km/h
513 22-03-2017 18:40:00 8.2 C 7.03 g/m*3 8.2 C 0 km/h
514 22-03-2017 18:45:00 8.2 C 7.03 g/m*3 8.2 C 0 km/h
515 22-03-2017 18:50:00 8.2 C 7.03 g/m*3 8.2 C 0 km/h
516 22-03-2017 18:55:00 8.1 C 7.07 g/m*3 8.1 C 0 km/h
517 22-03-2017 19:00:00 8.1 C 6.99 g/m*3 8.1 C 0 km/h
518 22-03-2017 19:05:00 8.1 C 6.99 g/m*3 8.1 C 3.2 km/h
519 22-03-2017 19:10:00 8 C 7.03 g/m*3 8 C 0 km/h
520 22-03-2017 19:15:00 7.9 C 6.98 g/m*3 7.9 C 0 km/h
521 22-03-2017 19:20:00 7.9 C 6.98 g/m*3 7.9 C 0 km/h
522 22-03-2017 19:25:00 7.9 C 6.98 g/m*3 7.9 C 0 km/h
523 22-03-2017 19:30:00 7.9 C 6.98 g/m*3 7.9 C 0 km/h
524 22-03-2017 19:35:00 7.8 C 6.94 g/m*3 7.8 C 0 km/h
525 22-03-2017 19:40:00 7.8 C 6.94 g/m*3 7.8 C 0 km/h
Sensor: Nr:Datum:Temp:Abs-Feuchte:Windchill:Wind:
Aussen-T/F 526 22-03-2017 19:45:00 7.8 C 7.02 g/m*3 7.8 C 0 km/h
527 22-03-2017 19:50:00 7.7 C 6.89 g/m*3 7.7 C 0 km/h
528 22-03-2017 19:55:00 7.7 C 6.97 g/m*3 7.7 C 0 km/h
529 22-03-2017 20:00:00 7.7 C 6.97 g/m*3 7.7 C 0 km/h
530 22-03-2017 20:05:00 7.7 C 6.97 g/m*3 7.7 C 0 km/h
531 22-03-2017 20:10:00 7.7 C 6.97 g/m*3 7.7 C 0 km/h
532 22-03-2017 20:15:00 7.7 C 6.97 g/m*3 7.7 C 0 km/h
533 22-03-2017 20:20:00 7.6 C 6.93 g/m*3 7.6 C 0 km/h
534 22-03-2017 20:25:00 7.6 C 7.01 g/m*3 7.6 C 0 km/h
535 22-03-2017 20:30:00 7.6 C 7.01 g/m*3 7.6 C 1.6 km/h
536 22-03-2017 20:35:00 7.6 C 7.01 g/m*3 7.6 C 0 km/h
537 22-03-2017 20:40:00 7.5 C 6.96 g/m*3 7.5 C 0 km/h
538 22-03-2017 20:45:00 7.4 C 6.92 g/m*3 7.4 C 0 km/h
539 22-03-2017 20:50:00 7.4 C 6.92 g/m*3 7.4 C 0 km/h
540 22-03-2017 20:55:00 7.4 C 6.92 g/m*3 7.4 C 0 km/h
541 22-03-2017 21:00:00 7.4 C 6.92 g/m*3 7.4 C 0 km/h
542 22-03-2017 21:05:00 7.4 C 6.92 g/m*3 7.4 C 0 km/h
543 22-03-2017 21:10:00 7.4 C 6.92 g/m*3 7.4 C 0 km/h
544 22-03-2017 21:15:00 7.3 C 6.87 g/m*3 7.3 C 0 km/h
545 22-03-2017 21:20:00 7.3 C 6.95 g/m*3 7.3 C 0 km/h
546 22-03-2017 21:25:00 7.3 C 6.95 g/m*3 7.3 C 0 km/h
547 22-03-2017 21:30:00 7.3 C 6.87 g/m*3 7.3 C 0 km/h
548 22-03-2017 21:35:00 7.3 C 6.87 g/m*3 7.3 C 0 km/h
549 22-03-2017 21:40:00 7.3 C 6.95 g/m*3 7.3 C 0 km/h
550 22-03-2017 21:45:00 7.3 C 6.95 g/m*3 7.3 C 0 km/h
Sensor: Nr:Datum:Temp:Abs-Feuchte:Windchill:Wind:
Aussen-T/F 551 22-03-2017 21:50:00 7.3 C 6.95 g/m*3 7.3 C 0 km/h
552 22-03-2017 21:55:00 7.3 C 6.95 g/m*3 7.3 C 0 km/h
553 22-03-2017 22:00:00 7.3 C 6.95 g/m*3 7.3 C 0 km/h
554 22-03-2017 22:05:00 7.3 C 6.95 g/m*3 7.3 C 0 km/h
555 22-03-2017 22:10:00 7.2 C 6.91 g/m*3 7.2 C 0 km/h
556 22-03-2017 22:15:00 7.2 C 6.91 g/m*3 7.2 C 0 km/h
557 22-03-2017 22:20:00 7.2 C 6.99 g/m*3 7.2 C 0 km/h
558 22-03-2017 22:25:00 7.2 C 6.99 g/m*3 7.2 C 0 km/h
559 22-03-2017 22:30:00 7.2 C 6.91 g/m*3 7.2 C 0 km/h
560 22-03-2017 22:35:00 7.2 C 6.99 g/m*3 7.2 C 0 km/h
561 22-03-2017 22:40:00 7.2 C 6.99 g/m*3 7.2 C 0 km/h
562 22-03-2017 22:45:00 7.2 C 6.99 g/m*3 7.2 C 0 km/h
563 22-03-2017 22:50:00 7.2 C 6.91 g/m*3 7.2 C 0 km/h
564 22-03-2017 22:55:00 7.2 C 6.99 g/m*3 7.2 C 0 km/h
565 22-03-2017 23:00:00 7.2 C 6.99 g/m*3 7.2 C 0 km/h
566 22-03-2017 23:05:00 7.2 C 6.99 g/m*3 7.2 C 0 km/h
567 22-03-2017 23:10:00 7.2 C 6.99 g/m*3 7.2 C 0 km/h
568 22-03-2017 23:15:00 7.2 C 6.99 g/m*3 7.2 C 0 km/h
569 22-03-2017 23:20:00 7.2 C 6.99 g/m*3 7.2 C 0 km/h
570 22-03-2017 23:25:00 7.2 C 6.99 g/m*3 7.2 C 0 km/h
571 22-03-2017 23:30:00 7.2 C 6.99 g/m*3 7.2 C 0 km/h
572 22-03-2017 23:35:00 7.2 C 6.99 g/m*3 7.2 C 0 km/h
573 22-03-2017 23:40:00 7.2 C 6.99 g/m*3 7.2 C 0 km/h
574 22-03-2017 23:45:00 7.2 C 6.99 g/m*3 7.2 C 0 km/h
575 22-03-2017 23:50:00 7.2 C 6.99 g/m*3 7.2 C 0 km/h
Sensor: Nr:Datum:Temp:Abs-Feuchte:Windchill:Wind:
Aussen-T/F 576 22-03-2017 23:55:00 7.2 C 6.99 g/m*3 7.2 C 0 km/h
577 23-03-2017 00:00:00 7.2 C 6.99 g/m*3 7.2 C 0 km/h
578 23-03-2017 00:05:00 7.2 C 7.06 g/m*3 7.2 C 0 km/h
579 23-03-2017 00:10:00 7.2 C 7.06 g/m*3 7.2 C 0 km/h
580 23-03-2017 00:15:00 7.1 C 6.94 g/m*3 7.1 C 0 km/h
581 23-03-2017 00:20:00 7.1 C 6.94 g/m*3 7.1 C 0 km/h
582 23-03-2017 00:25:00 7.1 C 7.02 g/m*3 7.1 C 0 km/h
583 23-03-2017 00:30:00 7.1 C 6.94 g/m*3 7.1 C 0 km/h
584 23-03-2017 00:35:00 7.1 C 7.02 g/m*3 7.1 C 0 km/h
585 23-03-2017 00:40:00 7.1 C 6.94 g/m*3 7.1 C 0 km/h
586 23-03-2017 00:45:00 7 C 6.9 g/m*3 7 C 0 km/h
587 23-03-2017 00:50:00 6.9 C 6.93 g/m*3 6.9 C 0 km/h
588 23-03-2017 00:55:00 6.8 C 6.81 g/m*3 6.8 C 0 km/h
589 23-03-2017 01:00:00 6.7 C 6.76 g/m*3 6.7 C 0 km/h
590 23-03-2017 01:05:00 6.6 C 6.72 g/m*3 6.6 C 0 km/h
591 23-03-2017 01:10:00 6.6 C 6.72 g/m*3 6.6 C 3.2 km/h
592 23-03-2017 01:15:00 6.4 C 6.71 g/m*3 6.4 C 3.2 km/h
593 23-03-2017 01:20:00 6.4 C 6.71 g/m*3 6.4 C 4.8 km/h
594 23-03-2017 01:25:00 6.3 C 6.66 g/m*3 6.3 C 0 km/h
595 23-03-2017 01:30:00 6.3 C 6.66 g/m*3 6.3 C 0 km/h
596 23-03-2017 01:35:00 6.2 C 6.62 g/m*3 6.2 C 1.6 km/h
597 23-03-2017 01:40:00 6.2 C 6.62 g/m*3 6.2 C 1.6 km/h
598 23-03-2017 01:45:00 6.2 C 6.62 g/m*3 6.2 C 0 km/h
599 23-03-2017 01:50:00 6.2 C 6.62 g/m*3 6.2 C 0 km/h
600 23-03-2017 01:55:00 6.1 C 6.58 g/m*3 6.1 C 1.6 km/h
Sensor: Nr:Datum:Temp:Abs-Feuchte:Windchill:Wind:
Aussen-T/F 601 23-03-2017 02:00:00 6.1 C 6.65 g/m*3 6.1 C 0 km/h
602 23-03-2017 02:05:00 6.1 C 6.65 g/m*3 6.1 C 1.6 km/h
603 23-03-2017 02:10:00 6 C 6.6 g/m*3 6 C 0 km/h
604 23-03-2017 02:15:00 5.9 C 6.56 g/m*3 5.9 C 0 km/h
605 23-03-2017 02:20:00 5.9 C 6.56 g/m*3 5.9 C 0 km/h
606 23-03-2017 02:25:00 5.8 C 6.52 g/m*3 5.8 C 0 km/h
607 23-03-2017 02:30:00 5.7 C 6.48 g/m*3 5.7 C 1.6 km/h
608 23-03-2017 02:35:00 5.7 C 6.48 g/m*3 5.7 C 1.6 km/h
609 23-03-2017 02:40:00 5.6 C 6.43 g/m*3 5.6 C 1.6 km/h
610 23-03-2017 02:45:00 5.6 C 6.43 g/m*3 5.6 C 0 km/h
611 23-03-2017 02:50:00 5.5 C 6.46 g/m*3 5.5 C 0 km/h
612 23-03-2017 02:55:00 5.4 C 6.42 g/m*3 5.4 C 0 km/h
613 23-03-2017 03:00:00 5.4 C 6.42 g/m*3 5.4 C 0 km/h
614 23-03-2017 03:05:00 5.3 C 6.31 g/m*3 5.3 C 0 km/h
615 23-03-2017 03:10:00 5.2 C 6.33 g/m*3 5.2 C 0 km/h
616 23-03-2017 03:15:00 5.1 C 6.29 g/m*3 5.1 C 0 km/h
617 23-03-2017 03:20:00 5.1 C 6.29 g/m*3 5.1 C 3.2 km/h
618 23-03-2017 03:25:00 5.1 C 6.29 g/m*3 5.1 C 3.2 km/h
619 23-03-2017 03:30:00 5.1 C 6.36 g/m*3 5.1 C 1.6 km/h
620 23-03-2017 03:35:00 5 C 6.32 g/m*3 5 C 1.6 km/h
621 23-03-2017 03:40:00 5 C 6.32 g/m*3 5 C 0 km/h
622 23-03-2017 03:45:00 4.9 C 6.28 g/m*3 4.9 C 1.6 km/h
623 23-03-2017 03:50:00 4.9 C 6.28 g/m*3 4.9 C 1.6 km/h
624 23-03-2017 03:55:00 4.8 C 6.24 g/m*3 4.8 C 1.6 km/h
625 23-03-2017 04:00:00 4.8 C 6.24 g/m*3 4.8 C 1.6 km/h
Sensor: Nr:Datum:Temp:Abs-Feuchte:Windchill:Wind:
Aussen-T/F 626 23-03-2017 04:05:00 4.8 C 6.24 g/m*3 4.8 C 1.6 km/h
627 23-03-2017 04:10:00 4.8 C 6.24 g/m*3 4.8 C 1.6 km/h
628 23-03-2017 04:15:00 4.7 C 6.19 g/m*3 4.7 C 1.6 km/h
629 23-03-2017 04:20:00 4.6 C 6.15 g/m*3 4.6 C 4.8 km/h
630 23-03-2017 04:25:00 4.6 C 6.15 g/m*3 4.6 C 3.2 km/h
631 23-03-2017 04:30:00 4.4 C 6.07 g/m*3 4.4 C 4.8 km/h
632 23-03-2017 04:35:00 4.4 C 6.07 g/m*3 4.4 C 4.8 km/h
633 23-03-2017 04:40:00 4.3 C 6.03 g/m*3 4.3 C 3.2 km/h
634 23-03-2017 04:45:00 4.3 C 6.03 g/m*3 4.3 C 3.2 km/h
635 23-03-2017 04:50:00 4.3 C 6.1 g/m*3 4.3 C 4.8 km/h
636 23-03-2017 04:55:00 4.2 C 6.06 g/m*3 4.2 C 3.2 km/h
637 23-03-2017 05:00:00 4.2 C 5.99 g/m*3 4.2 C 0 km/h
638 23-03-2017 05:05:00 4 C 5.91 g/m*3 4 C 0 km/h
639 23-03-2017 05:10:00 3.9 C 5.87 g/m*3 3.9 C 3.2 km/h
640 23-03-2017 05:15:00 3.8 C 5.9 g/m*3 3.8 C 3.2 km/h
641 23-03-2017 05:20:00 3.8 C 5.9 g/m*3 3.8 C 3.2 km/h
642 23-03-2017 05:25:00 3.8 C 5.9 g/m*3 3.8 C 0 km/h
643 23-03-2017 05:30:00 3.6 C 5.76 g/m*3 3.6 C 0 km/h
644 23-03-2017 05:35:00 3.5 C 5.78 g/m*3 3.5 C 0 km/h
645 23-03-2017 05:40:00 3.4 C 5.74 g/m*3 3.4 C 0 km/h
646 23-03-2017 05:45:00 3.2 C 5.66 g/m*3 3.2 C 0 km/h
647 23-03-2017 05:50:00 3.2 C 5.66 g/m*3 3.2 C 0 km/h
648 23-03-2017 05:55:00 3.1 C 5.63 g/m*3 3.1 C 0 km/h
649 23-03-2017 06:00:00 3 C 5.59 g/m*3 3 C 0 km/h
650 23-03-2017 06:05:00 2.9 C 5.55 g/m*3 2.9 C 0 km/h
Sensor: Nr:Datum:Temp:Abs-Feuchte:Windchill:Wind:
Aussen-T/F 651 23-03-2017 06:10:00 2.9 C 5.55 g/m*3 2.9 C 0 km/h
652 23-03-2017 06:15:00 2.8 C 5.51 g/m*3 2.8 C 0 km/h
653 23-03-2017 06:20:00 2.8 C 5.51 g/m*3 2.8 C 0 km/h
654 23-03-2017 06:25:00 2.7 C 5.48 g/m*3 2.7 C 0 km/h
655 23-03-2017 06:30:00 2.7 C 5.48 g/m*3 2.7 C 0 km/h
656 23-03-2017 06:35:00 2.8 C 5.57 g/m*3 2.8 C 0 km/h
657 23-03-2017 06:40:00 2.8 C 5.57 g/m*3 2.8 C 0 km/h
658 23-03-2017 06:45:00 2.8 C 5.57 g/m*3 2.8 C 0 km/h
659 23-03-2017 06:50:00 3.1 C 5.69 g/m*3 3.1 C 0 km/h
660 23-03-2017 06:55:00 3.2 C 5.72 g/m*3 3.2 C 0 km/h
661 23-03-2017 07:00:00 3.3 C 5.76 g/m*3 3.3 C 0 km/h
662 23-03-2017 07:05:00 3.4 C 5.86 g/m*3 3.4 C 0 km/h
663 23-03-2017 07:10:00 3.6 C 5.94 g/m*3 3.6 C 0 km/h
664 23-03-2017 07:15:00 3.6 C 5.88 g/m*3 3.6 C 0 km/h
665 23-03-2017 07:20:00 3.7 C 5.98 g/m*3 3.7 C 0 km/h
666 23-03-2017 07:25:00 3.8 C 6.02 g/m*3 3.8 C 0 km/h
667 23-03-2017 07:30:00 3.9 C 6.06 g/m*3 3.9 C 0 km/h
668 23-03-2017 07:35:00 4.1 C 6.14 g/m*3 4.1 C 0 km/h
669 23-03-2017 07:40:00 4.2 C 6.19 g/m*3 4.2 C 0 km/h
670 23-03-2017 07:45:00 4.3 C 6.23 g/m*3 4.3 C 0 km/h
671 23-03-2017 07:50:00 4.4 C 6.27 g/m*3 4.4 C 0 km/h
672 23-03-2017 07:55:00 4.5 C 6.31 g/m*3 4.5 C 0 km/h
673 23-03-2017 08:00:00 4.6 C 6.35 g/m*3 4.6 C 1.6 km/h
674 23-03-2017 08:05:00 4.7 C 6.39 g/m*3 4.7 C 0 km/h
675 23-03-2017 08:10:00 4.8 C 6.44 g/m*3 4.8 C 0 km/h
Sensor: Nr:Datum:Temp:Abs-Feuchte:Windchill:Wind:
Aussen-T/F 676 23-03-2017 08:15:00 4.9 C 6.48 g/m*3 4.9 C 0 km/h
677 23-03-2017 08:20:00 4.9 C 6.48 g/m*3 4.9 C 0 km/h
678 23-03-2017 08:25:00 5.1 C 6.57 g/m*3 5.1 C 0 km/h
679 23-03-2017 08:30:00 5.1 C 6.57 g/m*3 5.1 C 0 km/h
680 23-03-2017 08:35:00 5.2 C 6.61 g/m*3 5.2 C 1.6 km/h
681 23-03-2017 08:40:00 5.3 C 6.65 g/m*3 5.3 C 0 km/h
682 23-03-2017 08:45:00 5.4 C 6.7 g/m*3 5.4 C 0 km/h
683 23-03-2017 08:50:00 5.6 C 6.79 g/m*3 5.6 C 1.6 km/h
684 23-03-2017 08:55:00 5.7 C 6.76 g/m*3 5.7 C 1.6 km/h
685 23-03-2017 09:00:00 5.8 C 6.81 g/m*3 5.8 C 0 km/h
686 23-03-2017 09:05:00 6 C 6.9 g/m*3 6 C 0 km/h
687 23-03-2017 09:10:00 6.2 C 6.99 g/m*3 6.2 C 4.8 km/h
688 23-03-2017 09:15:00 6.2 C 6.99 g/m*3 6.2 C 1.6 km/h
689 23-03-2017 09:20:00 6.3 C 6.96 g/m*3 6.3 C 1.6 km/h
690 23-03-2017 09:25:00 6.5 C 7.05 g/m*3 6.5 C 3.2 km/h
691 23-03-2017 09:30:00 6.7 C 7.14 g/m*3 6.7 C 0 km/h
692 23-03-2017 09:35:00 6.8 C 7.19 g/m*3 6.8 C 0 km/h
693 23-03-2017 09:40:00 7.1 C 7.25 g/m*3 7.1 C 0 km/h
694 23-03-2017 09:45:00 7.3 C 7.35 g/m*3 7.3 C 4.8 km/h
695 23-03-2017 09:50:00 7.5 C 7.36 g/m*3 6.48 C 6.4 km/h
696 23-03-2017 09:55:00 7.7 C 7.3 g/m*3 5.94 C 9.7 km/h
697 23-03-2017 10:00:00 7.8 C 7.35 g/m*3 7.8 C 1.6 km/h
698 23-03-2017 10:05:00 8 C 7.28 g/m*3 8 C 1.6 km/h
699 23-03-2017 10:10:00 8.2 C 7.37 g/m*3 8.2 C 1.6 km/h
700 23-03-2017 10:15:00 8.3 C 7.42 g/m*3 8.3 C 3.2 km/h
Sensor: Nr:Datum:Temp:Abs-Feuchte:Windchill:Wind:
Aussen-T/F 701 23-03-2017 10:20:00 8.4 C 7.3 g/m*3 7.11 C 8.1 km/h
702 23-03-2017 10:25:00 8.5 C 7.34 g/m*3 6.9 C 9.7 km/h
703 23-03-2017 10:30:00 8.6 C 7.3 g/m*3 7.34 C 8.1 km/h
704 23-03-2017 10:35:00 8.6 C 7.3 g/m*3 7.01 C 9.7 km/h
705 23-03-2017 10:40:00 8.7 C 7.35 g/m*3 6.85 C 11.3 km/h
706 23-03-2017 10:45:00 8.7 C 7.26 g/m*3 6.85 C 11.3 km/h
707 23-03-2017 10:50:00 8.8 C 7.4 g/m*3 7.58 C 8.1 km/h
708 23-03-2017 10:55:00 8.9 C 7.45 g/m*3 8.9 C 4.8 km/h
709 23-03-2017 11:00:00 9.1 C 7.45 g/m*3 7.61 C 9.7 km/h
710 23-03-2017 11:05:00 9.1 C 7.36 g/m*3 7.33 C 11.3 km/h
711 23-03-2017 11:10:00 9.2 C 7.5 g/m*3 8.05 C 8.1 km/h
712 23-03-2017 11:15:00 9.3 C 7.46 g/m*3 7.33 C 12.9 km/h
713 23-03-2017 11:20:00 9.3 C 7.37 g/m*3 8.16 C 8.1 km/h
714 23-03-2017 11:25:00 9.3 C 7.37 g/m*3 7.58 C 11.3 km/h
715 23-03-2017 11:30:00 9.3 C 7.46 g/m*3 7.58 C 11.3 km/h
716 23-03-2017 11:35:00 9.2 C 7.32 g/m*3 6.99 C 14.5 km/h
717 23-03-2017 11:40:00 9.1 C 7.36 g/m*3 7.09 C 12.9 km/h
718 23-03-2017 11:45:00 9.2 C 7.32 g/m*3 7.21 C 12.9 km/h
719 23-03-2017 11:50:00 9.2 C 7.32 g/m*3 7.73 C 9.7 km/h
720 23-03-2017 11:55:00 9.4 C 7.51 g/m*3 7.7 C 11.3 km/h
721 23-03-2017 12:00:00 9.7 C 7.56 g/m*3 8.06 C 11.3 km/h
722 23-03-2017 12:05:00 9.8 C 7.61 g/m*3 8.18 C 11.3 km/h
723 23-03-2017 12:10:00 9.9 C 7.56 g/m*3 9.9 C 4.8 km/h
724 23-03-2017 12:15:00 10.1 C 7.75 g/m*3 8.8 C 9.7 km/h
725 23-03-2017 12:20:00 10.3 C 7.66 g/m*3 8.55 C 12.9 km/h
Sensor: Nr:Datum:Temp:Abs-Feuchte:Windchill:Wind:
Aussen-T/F 726 23-03-2017 12:25:00 10.5 C 7.76 g/m*3 9.28 C 9.7 km/h
727 23-03-2017 12:30:00 10.7 C 7.86 g/m*3 10.18 C 6.4 km/h
728 23-03-2017 12:35:00 10.9 C 7.96 g/m*3 10.41 C 6.4 km/h
729 23-03-2017 12:40:00 11.1 C 7.86 g/m*3 11.1 C 9.7 km/h
730 23-03-2017 12:45:00 11.3 C 7.75 g/m*3 11.3 C 8.1 km/h
731 23-03-2017 12:50:00 11.4 C 7.8 g/m*3 11.4 C 9.7 km/h
732 23-03-2017 12:55:00 11.6 C 7.9 g/m*3 11.6 C 9.7 km/h
733 23-03-2017 13:00:00 11.8 C 7.79 g/m*3 11.8 C 6.4 km/h
734 23-03-2017 13:05:00 12 C 7.89 g/m*3 12 C 9.7 km/h
735 23-03-2017 13:10:00 12.2 C 7.77 g/m*3 12.2 C 9.7 km/h
736 23-03-2017 13:15:00 12.3 C 7.82 g/m*3 12.3 C 6.4 km/h
737 23-03-2017 13:20:00 12.4 C 7.87 g/m*3 12.4 C 9.7 km/h
738 23-03-2017 13:25:00 12.6 C 7.97 g/m*3 12.6 C 6.4 km/h
739 23-03-2017 13:30:00 12.7 C 7.79 g/m*3 12.7 C 11.3 km/h
740 23-03-2017 13:35:00 12.8 C 7.84 g/m*3 12.8 C 8.1 km/h
741 23-03-2017 13:40:00 13.1 C 8.1 g/m*3 13.1 C 9.7 km/h
742 23-03-2017 13:45:00 13.3 C 7.97 g/m*3 13.3 C 8.1 km/h
743 23-03-2017 13:50:00 13.5 C 8.07 g/m*3 13.5 C 9.7 km/h
744 23-03-2017 13:55:00 13.7 C 7.82 g/m*3 13.7 C 12.9 km/h
745 23-03-2017 14:00:00 13.7 C 7.7 g/m*3 13.7 C 9.7 km/h
746 23-03-2017 14:05:00 13.8 C 7.86 g/m*3 13.8 C 8.1 km/h
747 23-03-2017 14:10:00 13.9 C 7.67 g/m*3 13.9 C 6.4 km/h
748 23-03-2017 14:15:00 14 C 7.72 g/m*3 14 C 8.1 km/h
749 23-03-2017 14:20:00 14.2 C 7.69 g/m*3 14.2 C 8.1 km/h
750 23-03-2017 14:25:00 14.4 C 7.91 g/m*3 14.4 C 9.7 km/h
Sensor: Nr:Datum:Temp:Abs-Feuchte:Windchill:Wind:
Aussen-T/F 751 23-03-2017 14:30:00 14.6 C 7.76 g/m*3 14.6 C 11.3 km/h
752 23-03-2017 14:35:00 14.6 C 7.88 g/m*3 14.6 C 3.2 km/h
753 23-03-2017 14:40:00 14.7 C 7.68 g/m*3 14.7 C 4.8 km/h
754 23-03-2017 14:45:00 14.8 C 7.73 g/m*3 14.8 C 8.1 km/h
755 23-03-2017 14:50:00 14.8 C 7.98 g/m*3 14.8 C 14.5 km/h
756 23-03-2017 14:55:00 14.8 C 7.73 g/m*3 14.8 C 14.5 km/h
757 23-03-2017 15:00:00 14.7 C 7.68 g/m*3 14.7 C 12.9 km/h
758 23-03-2017 15:05:00 14.7 C 7.81 g/m*3 14.7 C 14.5 km/h
759 23-03-2017 15:10:00 14.8 C 7.85 g/m*3 14.8 C 9.7 km/h
760 23-03-2017 15:15:00 14.8 C 7.85 g/m*3 14.8 C 16.1 km/h
761 23-03-2017 15:20:00 14.8 C 7.98 g/m*3 14.8 C 1.6 km/h
762 23-03-2017 15:25:00 14.9 C 7.9 g/m*3 14.9 C 9.7 km/h
763 23-03-2017 15:30:00 14.9 C 7.9 g/m*3 14.9 C 4.8 km/h
764 23-03-2017 15:35:00 15.1 C 8 g/m*3 15.1 C 8.1 km/h
765 23-03-2017 15:40:00 15.2 C 7.92 g/m*3 15.2 C 8.1 km/h
766 23-03-2017 15:45:00 15.2 C 7.92 g/m*3 15.2 C 9.7 km/h
767 23-03-2017 15:50:00 15.1 C 7.74 g/m*3 15.1 C 16.1 km/h
768 23-03-2017 15:55:00 14.9 C 7.77 g/m*3 14.9 C 8.1 km/h
769 23-03-2017 16:00:00 14.9 C 7.9 g/m*3 14.9 C 8.1 km/h
770 23-03-2017 16:05:00 15.1 C 7.87 g/m*3 15.1 C 11.3 km/h
771 23-03-2017 16:10:00 15.3 C 7.97 g/m*3 15.3 C 6.4 km/h
772 23-03-2017 16:15:00 15.5 C 8.06 g/m*3 15.5 C 6.4 km/h
773 23-03-2017 16:20:00 15.8 C 8.08 g/m*3 15.8 C 6.4 km/h
774 23-03-2017 16:25:00 15.9 C 7.72 g/m*3 15.9 C 11.3 km/h
775 23-03-2017 16:30:00 16 C 7.63 g/m*3 16 C 8.1 km/h
Sensor: Nr:Datum:Temp:Abs-Feuchte:Windchill:Wind:
Aussen-T/F 776 23-03-2017 16:35:00 16.3 C 8.05 g/m*3 16.3 C 3.2 km/h
777 23-03-2017 16:40:00 16.6 C 7.77 g/m*3 16.6 C 12.9 km/h
778 23-03-2017 16:45:00 16.6 C 7.63 g/m*3 16.6 C 12.9 km/h
779 23-03-2017 16:50:00 16.3 C 7.63 g/m*3 16.3 C 8.1 km/h
780 23-03-2017 16:55:00 16.1 C 7.54 g/m*3 16.1 C 8.1 km/h
781 23-03-2017 17:00:00 16.1 C 7.54 g/m*3 16.1 C 6.4 km/h
782 23-03-2017 17:05:00 16.2 C 7.72 g/m*3 16.2 C 4.8 km/h
783 23-03-2017 17:10:00 16.2 C 7.58 g/m*3 16.2 C 9.7 km/h
784 23-03-2017 17:15:00 16.2 C 7.58 g/m*3 16.2 C 8.1 km/h
785 23-03-2017 17:20:00 16.4 C 7.4 g/m*3 16.4 C 9.7 km/h
786 23-03-2017 17:25:00 16.5 C 7.58 g/m*3 16.5 C 6.4 km/h
787 23-03-2017 17:30:00 16.4 C 7.54 g/m*3 16.4 C 8.1 km/h
788 23-03-2017 17:35:00 16.3 C 7.35 g/m*3 16.3 C 6.4 km/h
789 23-03-2017 17:40:00 16.3 C 7.49 g/m*3 16.3 C 3.2 km/h
790 23-03-2017 17:45:00 16.3 C 7.49 g/m*3 16.3 C 4.8 km/h
791 23-03-2017 17:50:00 16.1 C 7.68 g/m*3 16.1 C 4.8 km/h
792 23-03-2017 17:55:00 15.8 C 7.81 g/m*3 15.8 C 6.4 km/h
793 23-03-2017 18:00:00 15.7 C 8.03 g/m*3 15.7 C 1.6 km/h
794 23-03-2017 18:05:00 15.4 C 7.88 g/m*3 15.4 C 4.8 km/h
795 23-03-2017 18:10:00 15.2 C 7.79 g/m*3 15.2 C 4.8 km/h
796 23-03-2017 18:15:00 15.2 C 7.66 g/m*3 15.2 C 0 km/h
797 23-03-2017 18:20:00 15.2 C 8.31 g/m*3 15.2 C 0 km/h
798 23-03-2017 18:25:00 15.2 C 8.05 g/m*3 15.2 C 1.6 km/h
799 23-03-2017 18:30:00 14.9 C 7.9 g/m*3 14.9 C 1.6 km/h
800 23-03-2017 18:35:00 14.4 C 8.03 g/m*3 14.4 C 3.2 km/h
Sensor: Nr:Datum:Temp:Abs-Feuchte:Windchill:Wind:
Aussen-T/F 801 23-03-2017 18:40:00 13.9 C 7.91 g/m*3 13.9 C 3.2 km/h
802 23-03-2017 18:45:00 13.3 C 7.74 g/m*3 13.3 C 4.8 km/h
803 23-03-2017 18:50:00 12.8 C 7.73 g/m*3 12.8 C 6.4 km/h
804 23-03-2017 18:55:00 12.3 C 7.6 g/m*3 12.3 C 6.4 km/h
805 23-03-2017 19:00:00 11.9 C 7.52 g/m*3 11.9 C 4.8 km/h
806 23-03-2017 19:05:00 11.6 C 7.48 g/m*3 11.6 C 4.8 km/h
807 23-03-2017 19:10:00 11.3 C 7.45 g/m*3 11.3 C 4.8 km/h
808 23-03-2017 19:15:00 11.1 C 7.45 g/m*3 11.1 C 6.4 km/h
809 23-03-2017 19:20:00 10.9 C 7.36 g/m*3 10.9 C 4.8 km/h
810 23-03-2017 19:25:00 10.7 C 7.37 g/m*3 10.18 C 6.4 km/h
811 23-03-2017 19:30:00 10.6 C 7.32 g/m*3 10.06 C 6.4 km/h
812 23-03-2017 19:35:00 10.4 C 7.23 g/m*3 9.83 C 6.4 km/h
813 23-03-2017 19:40:00 10.3 C 7.28 g/m*3 9.72 C 6.4 km/h
814 23-03-2017 19:45:00 10.2 C 7.33 g/m*3 9.6 C 6.4 km/h
815 23-03-2017 19:50:00 10 C 7.33 g/m*3 9.37 C 6.4 km/h
816 23-03-2017 19:55:00 9.9 C 7.28 g/m*3 9.25 C 6.4 km/h
817 23-03-2017 20:00:00 9.9 C 7.38 g/m*3 9.25 C 6.4 km/h
818 23-03-2017 20:05:00 9.8 C 7.33 g/m*3 9.14 C 6.4 km/h
819 23-03-2017 20:10:00 9.8 C 7.33 g/m*3 9.14 C 6.4 km/h
820 23-03-2017 20:15:00 9.7 C 7.38 g/m*3 9.02 C 6.4 km/h
821 23-03-2017 20:20:00 9.7 C 7.38 g/m*3 9.02 C 6.4 km/h
822 23-03-2017 20:25:00 9.6 C 7.33 g/m*3 8.91 C 6.4 km/h
823 23-03-2017 20:30:00 9.6 C 7.33 g/m*3 8.91 C 6.4 km/h
824 23-03-2017 20:35:00 9.5 C 7.28 g/m*3 8.79 C 6.4 km/h
825 23-03-2017 20:40:00 9.5 C 7.37 g/m*3 9.5 C 4.8 km/h
Sensor: Nr:Datum:Temp:Abs-Feuchte:Windchill:Wind:
Aussen-T/F 826 23-03-2017 20:45:00 9.4 C 7.33 g/m*3 8.68 C 6.4 km/h
827 23-03-2017 20:50:00 9.3 C 7.37 g/m*3 8.56 C 6.4 km/h
828 23-03-2017 20:55:00 9.3 C 7.37 g/m*3 8.56 C 6.4 km/h
829 23-03-2017 21:00:00 9.2 C 7.41 g/m*3 9.2 C 4.8 km/h
830 23-03-2017 21:05:00 9.2 C 7.41 g/m*3 9.2 C 4.8 km/h
831 23-03-2017 21:10:00 9.2 C 7.41 g/m*3 9.2 C 4.8 km/h
832 23-03-2017 21:15:00 9.1 C 7.45 g/m*3 9.1 C 3.2 km/h
833 23-03-2017 21:20:00 9 C 7.41 g/m*3 9 C 3.2 km/h
834 23-03-2017 21:25:00 8.9 C 7.36 g/m*3 8.9 C 3.2 km/h
835 23-03-2017 21:30:00 8.8 C 7.31 g/m*3 8.8 C 0 km/h
836 23-03-2017 21:35:00 8.8 C 7.31 g/m*3 8.8 C 1.6 km/h
837 23-03-2017 21:40:00 8.7 C 7.26 g/m*3 8.7 C 3.2 km/h
838 23-03-2017 21:45:00 8.6 C 7.3 g/m*3 8.6 C 0 km/h
839 23-03-2017 21:50:00 8.4 C 7.13 g/m*3 8.4 C 0 km/h
840 23-03-2017 21:55:00 8.3 C 7.16 g/m*3 8.3 C 0 km/h
841 23-03-2017 22:00:00 8.2 C 7.2 g/m*3 8.2 C 0 km/h
842 23-03-2017 22:05:00 8.1 C 7.16 g/m*3 8.1 C 3.2 km/h
843 23-03-2017 22:10:00 8.1 C 7.16 g/m*3 8.1 C 3.2 km/h
844 23-03-2017 22:15:00 7.9 C 7.06 g/m*3 7.9 C 0 km/h
845 23-03-2017 22:20:00 7.8 C 7.1 g/m*3 7.8 C 0 km/h
846 23-03-2017 22:25:00 7.8 C 7.1 g/m*3 7.8 C 0 km/h
847 23-03-2017 22:30:00 7.7 C 7.05 g/m*3 7.7 C 0 km/h
848 23-03-2017 22:35:00 7.7 C 7.14 g/m*3 7.7 C 1.6 km/h
849 23-03-2017 22:40:00 7.7 C 7.22 g/m*3 7.7 C 4.8 km/h
850 23-03-2017 22:45:00 7.6 C 7.17 g/m*3 7.6 C 3.2 km/h
Sensor: Nr:Datum:Temp:Abs-Feuchte:Windchill:Wind:
Aussen-T/F 851 23-03-2017 22:50:00 7.6 C 7.17 g/m*3 7.6 C 1.6 km/h
852 23-03-2017 22:55:00 7.6 C 7.17 g/m*3 7.6 C 0 km/h
853 23-03-2017 23:00:00 7.6 C 7.17 g/m*3 7.6 C 1.6 km/h
854 23-03-2017 23:05:00 7.6 C 7.17 g/m*3 7.6 C 1.6 km/h
855 23-03-2017 23:10:00 7.6 C 7.17 g/m*3 7.6 C 1.6 km/h
856 23-03-2017 23:15:00 7.6 C 7.25 g/m*3 7.6 C 3.2 km/h
857 23-03-2017 23:20:00 7.5 C 7.2 g/m*3 7.5 C 0 km/h
858 23-03-2017 23:25:00 7.4 C 7.08 g/m*3 7.4 C 0 km/h
859 23-03-2017 23:30:00 7.4 C 7.16 g/m*3 7.4 C 1.6 km/h
860 23-03-2017 23:35:00 7.3 C 7.11 g/m*3 7.3 C 1.6 km/h
861 23-03-2017 23:40:00 7.3 C 7.11 g/m*3 7.3 C 1.6 km/h
862 23-03-2017 23:45:00 7.3 C 7.11 g/m*3 7.3 C 0 km/h
863 23-03-2017 23:50:00 7.3 C 7.11 g/m*3 7.3 C 1.6 km/h
864 23-03-2017 23:55:00 7.3 C 7.11 g/m*3 7.3 C 0 km/h
865 24-03-2017 00:00:00 7.1 C 6.94 g/m*3 7.1 C 1.6 km/h
866 24-03-2017 00:05:00 7.1 C 7.02 g/m*3 7.1 C 0 km/h
867 24-03-2017 00:10:00 7 C 6.97 g/m*3 7 C 0 km/h
868 24-03-2017 00:15:00 6.9 C 7.01 g/m*3 6.9 C 0 km/h
869 24-03-2017 00:20:00 6.9 C 7.01 g/m*3 6.9 C 3.2 km/h
870 24-03-2017 00:25:00 6.9 C 7.01 g/m*3 6.9 C 3.2 km/h
871 24-03-2017 00:30:00 6.9 C 7.01 g/m*3 6.9 C 1.6 km/h
872 24-03-2017 00:35:00 6.8 C 6.96 g/m*3 6.8 C 3.2 km/h
873 24-03-2017 00:40:00 6.8 C 6.96 g/m*3 6.8 C 0 km/h
874 24-03-2017 00:45:00 6.7 C 6.91 g/m*3 6.7 C 1.6 km/h
875 24-03-2017 00:50:00 6.7 C 6.91 g/m*3 6.7 C 1.6 km/h
Sensor: Nr:Datum:Temp:Abs-Feuchte:Windchill:Wind:
Aussen-T/F 876 24-03-2017 00:55:00 6.7 C 6.91 g/m*3 6.7 C 0 km/h
877 24-03-2017 01:00:00 6.7 C 6.99 g/m*3 6.7 C 1.6 km/h
878 24-03-2017 01:05:00 6.8 C 7.04 g/m*3 6.8 C 0 km/h
879 24-03-2017 01:10:00 6.8 C 7.04 g/m*3 6.8 C 0 km/h
880 24-03-2017 01:15:00 6.9 C 7.08 g/m*3 6.9 C 0 km/h
881 24-03-2017 01:20:00 7.1 C 7.25 g/m*3 7.1 C 0 km/h
882 24-03-2017 01:25:00 7.2 C 7.3 g/m*3 7.2 C 0 km/h
883 24-03-2017 01:30:00 7.2 C 7.22 g/m*3 7.2 C 0 km/h
884 24-03-2017 01:35:00 7.1 C 7.18 g/m*3 7.1 C 0 km/h
885 24-03-2017 01:40:00 7 C 7.05 g/m*3 7 C 0 km/h
886 24-03-2017 01:45:00 6.9 C 7.01 g/m*3 6.9 C 0 km/h
887 24-03-2017 01:50:00 6.9 C 7.08 g/m*3 6.9 C 0 km/h
888 24-03-2017 01:55:00 6.9 C 7.08 g/m*3 6.9 C 0 km/h
889 24-03-2017 02:00:00 6.9 C 7.08 g/m*3 6.9 C 1.6 km/h
890 24-03-2017 02:05:00 7.1 C 7.18 g/m*3 7.1 C 1.6 km/h
891 24-03-2017 02:10:00 7.2 C 7.22 g/m*3 7.2 C 1.6 km/h
892 24-03-2017 02:15:00 7.2 C 7.22 g/m*3 7.2 C 0 km/h
893 24-03-2017 02:20:00 7.2 C 7.14 g/m*3 7.2 C 0 km/h
894 24-03-2017 02:25:00 7.1 C 7.02 g/m*3 7.1 C 0 km/h
895 24-03-2017 02:30:00 7 C 6.97 g/m*3 7 C 0 km/h
896 24-03-2017 02:35:00 6.9 C 6.93 g/m*3 6.9 C 0 km/h
897 24-03-2017 02:40:00 6.8 C 6.88 g/m*3 6.8 C 0 km/h
898 24-03-2017 02:45:00 6.8 C 6.96 g/m*3 6.8 C 0 km/h
899 24-03-2017 02:50:00 6.8 C 6.96 g/m*3 6.8 C 0 km/h
900 24-03-2017 02:55:00 7 C 7.13 g/m*3 7 C 1.6 km/h
Sensor: Nr:Datum:Temp:Abs-Feuchte:Windchill:Wind:
Aussen-T/F 901 24-03-2017 03:00:00 7.1 C 7.18 g/m*3 7.1 C 0 km/h
902 24-03-2017 03:05:00 7.2 C 7.22 g/m*3 7.2 C 0 km/h
903 24-03-2017 03:10:00 7.3 C 7.19 g/m*3 7.3 C 0 km/h
904 24-03-2017 03:15:00 7.4 C 7.24 g/m*3 7.4 C 1.6 km/h
905 24-03-2017 03:20:00 7.5 C 7.28 g/m*3 7.5 C 1.6 km/h
906 24-03-2017 03:25:00 7.6 C 7.33 g/m*3 7.6 C 1.6 km/h
907 24-03-2017 03:30:00 7.7 C 7.3 g/m*3 7.7 C 1.6 km/h
908 24-03-2017 03:35:00 7.7 C 7.3 g/m*3 7.7 C 4.8 km/h
909 24-03-2017 03:40:00 7.8 C 7.35 g/m*3 7.8 C 0 km/h
910 24-03-2017 03:45:00 7.8 C 7.35 g/m*3 7.8 C 0 km/h
911 24-03-2017 03:50:00 7.8 C 7.26 g/m*3 7.8 C 0 km/h
912 24-03-2017 03:55:00 7.8 C 7.26 g/m*3 7.8 C 1.6 km/h
913 24-03-2017 04:00:00 7.9 C 7.31 g/m*3 7.9 C 0 km/h
914 24-03-2017 04:05:00 7.9 C 7.31 g/m*3 7.9 C 1.6 km/h
915 24-03-2017 04:10:00 7.9 C 7.23 g/m*3 6.52 C 8.1 km/h
916 24-03-2017 04:15:00 8.1 C 7.32 g/m*3 8.1 C 4.8 km/h
917 24-03-2017 04:20:00 8.1 C 7.24 g/m*3 8.1 C 1.6 km/h
918 24-03-2017 04:25:00 8.1 C 7.24 g/m*3 8.1 C 3.2 km/h
919 24-03-2017 04:30:00 8.1 C 7.24 g/m*3 8.1 C 4.8 km/h
920 24-03-2017 04:35:00 8.2 C 7.2 g/m*3 8.2 C 1.6 km/h
921 24-03-2017 04:40:00 8.2 C 7.2 g/m*3 8.2 C 3.2 km/h
922 24-03-2017 04:45:00 8.2 C 7.2 g/m*3 8.2 C 1.6 km/h
923 24-03-2017 04:50:00 8.3 C 7.16 g/m*3 8.3 C 3.2 km/h
924 24-03-2017 04:55:00 8.3 C 7.25 g/m*3 8.3 C 0 km/h
925 24-03-2017 05:00:00 8.3 C 7.16 g/m*3 8.3 C 0 km/h
Sensor: Nr:Datum:Temp:Abs-Feuchte:Windchill:Wind:
Aussen-T/F 926 24-03-2017 05:05:00 8.2 C 7.12 g/m*3 8.2 C 0 km/h
927 24-03-2017 05:10:00 8.2 C 7.12 g/m*3 8.2 C 1.6 km/h
928 24-03-2017 05:15:00 8.2 C 7.12 g/m*3 8.2 C 4.8 km/h
929 24-03-2017 05:20:00 8.2 C 7.12 g/m*3 8.2 C 0 km/h
930 24-03-2017 05:25:00 8.2 C 7.12 g/m*3 8.2 C 0 km/h
931 24-03-2017 05:30:00 8.2 C 7.12 g/m*3 8.2 C 4.8 km/h
932 24-03-2017 05:35:00 8.2 C 7.03 g/m*3 8.2 C 3.2 km/h
933 24-03-2017 05:40:00 8.2 C 7.03 g/m*3 8.2 C 1.6 km/h
934 24-03-2017 05:45:00 8.2 C 7.03 g/m*3 8.2 C 3.2 km/h
935 24-03-2017 05:50:00 8.3 C 7.08 g/m*3 8.3 C 0 km/h
936 24-03-2017 05:55:00 8.2 C 7.03 g/m*3 8.2 C 4.8 km/h
937 24-03-2017 06:00:00 8.3 C 7 g/m*3 8.3 C 4.8 km/h
938 24-03-2017 06:05:00 8.3 C 7.08 g/m*3 7.41 C 6.4 km/h
939 24-03-2017 06:10:00 8.3 C 7 g/m*3 7.41 C 6.4 km/h
940 24-03-2017 06:15:00 8.3 C 7 g/m*3 8.3 C 1.6 km/h
941 24-03-2017 06:20:00 8.2 C 6.95 g/m*3 6.87 C 8.1 km/h
942 24-03-2017 06:25:00 8.2 C 7.03 g/m*3 8.2 C 4.8 km/h
943 24-03-2017 06:30:00 8.2 C 6.95 g/m*3 8.2 C 4.8 km/h
944 24-03-2017 06:35:00 8.2 C 6.95 g/m*3 8.2 C 1.6 km/h
945 24-03-2017 06:40:00 8.2 C 6.95 g/m*3 7.29 C 6.4 km/h
946 24-03-2017 06:45:00 8.2 C 6.95 g/m*3 8.2 C 4.8 km/h
947 24-03-2017 06:50:00 8.2 C 6.95 g/m*3 8.2 C 3.2 km/h
948 24-03-2017 06:55:00 8.2 C 6.95 g/m*3 7.29 C 6.4 km/h
949 24-03-2017 07:00:00 8.2 C 6.95 g/m*3 5.99 C 12.9 km/h
950 24-03-2017 07:05:00 8.2 C 6.87 g/m*3 5.76 C 14.5 km/h
Sensor: Nr:Datum:Temp:Abs-Feuchte:Windchill:Wind:
Aussen-T/F 951 24-03-2017 07:10:00 8.2 C 6.95 g/m*3 5.76 C 14.5 km/h
952 24-03-2017 07:15:00 8.2 C 6.87 g/m*3 6.54 C 9.7 km/h
953 24-03-2017 07:20:00 8.2 C 6.87 g/m*3 6.54 C 9.7 km/h
954 24-03-2017 07:25:00 8.2 C 6.87 g/m*3 8.2 C 3.2 km/h
955 24-03-2017 07:30:00 8.2 C 6.87 g/m*3 6.25 C 11.3 km/h
956 24-03-2017 07:35:00 8.2 C 6.87 g/m*3 6.87 C 8.1 km/h
957 24-03-2017 07:40:00 8.2 C 6.78 g/m*3 5.99 C 12.9 km/h
958 24-03-2017 07:45:00 8.2 C 6.78 g/m*3 6.25 C 11.3 km/h
959 24-03-2017 07:50:00 8.3 C 6.83 g/m*3 5.14 C 20.9 km/h
960 24-03-2017 07:55:00 8.3 C 6.83 g/m*3 7.41 C 6.4 km/h
961 24-03-2017 08:00:00 8.3 C 6.83 g/m*3 5.89 C 14.5 km/h
962 24-03-2017 08:05:00 8.3 C 6.74 g/m*3 6.66 C 9.7 km/h
963 24-03-2017 08:10:00 8.3 C 6.74 g/m*3 8.3 C 3.2 km/h
964 24-03-2017 08:15:00 8.4 C 6.79 g/m*3 7.11 C 8.1 km/h
965 24-03-2017 08:20:00 8.4 C 6.79 g/m*3 7.11 C 8.1 km/h
966 24-03-2017 08:25:00 8.4 C 6.79 g/m*3 7.52 C 6.4 km/h
967 24-03-2017 08:30:00 8.4 C 6.79 g/m*3 7.52 C 6.4 km/h
968 24-03-2017 08:35:00 8.4 C 6.79 g/m*3 7.11 C 8.1 km/h
969 24-03-2017 08:40:00 8.4 C 6.7 g/m*3 6.49 C 11.3 km/h
970 24-03-2017 08:45:00 8.5 C 6.83 g/m*3 6.61 C 11.3 km/h
971 24-03-2017 08:50:00 8.5 C 6.74 g/m*3 6.9 C 9.7 km/h
972 24-03-2017 08:55:00 8.5 C 6.74 g/m*3 6.61 C 11.3 km/h
973 24-03-2017 09:00:00 8.6 C 6.87 g/m*3 6.48 C 12.9 km/h
974 24-03-2017 09:05:00 8.7 C 6.83 g/m*3 7.13 C 9.7 km/h
975 24-03-2017 09:10:00 8.8 C 6.88 g/m*3 7.58 C 8.1 km/h
Sensor: Nr:Datum:Temp:Abs-Feuchte:Windchill:Wind:
Aussen-T/F 976 24-03-2017 09:15:00 8.8 C 6.88 g/m*3 7.58 C 8.1 km/h
977 24-03-2017 09:20:00 8.9 C 6.83 g/m*3 7.69 C 8.1 km/h
978 24-03-2017 09:25:00 8.9 C 6.83 g/m*3 7.09 C 11.3 km/h
979 24-03-2017 09:30:00 8.9 C 6.75 g/m*3 7.69 C 8.1 km/h
980 24-03-2017 09:35:00 9 C 6.79 g/m*3 7.81 C 8.1 km/h
981 24-03-2017 09:40:00 9.1 C 6.83 g/m*3 6.87 C 14.5 km/h
982 24-03-2017 09:45:00 9.1 C 6.83 g/m*3 6.87 C 14.5 km/h
983 24-03-2017 09:50:00 9.1 C 6.74 g/m*3 7.93 C 8.1 km/h
984 24-03-2017 09:55:00 9.1 C 6.74 g/m*3 6.67 C 16.1 km/h
985 24-03-2017 10:00:00 9.2 C 6.79 g/m*3 7.73 C 9.7 km/h
986 24-03-2017 10:05:00 9.3 C 6.74 g/m*3 7.85 C 9.7 km/h
987 24-03-2017 10:10:00 9.3 C 6.74 g/m*3 7.85 C 9.7 km/h
988 24-03-2017 10:15:00 9.5 C 6.83 g/m*3 7.82 C 11.3 km/h
989 24-03-2017 10:20:00 9.5 C 6.74 g/m*3 6.98 C 17.7 km/h
990 24-03-2017 10:25:00 9.5 C 6.74 g/m*3 7.82 C 11.3 km/h
991 24-03-2017 10:30:00 9.6 C 6.87 g/m*3 7.94 C 11.3 km/h
992 24-03-2017 10:35:00 9.6 C 6.78 g/m*3 7.7 C 12.9 km/h
993 24-03-2017 10:40:00 9.6 C 6.69 g/m*3 7.29 C 16.1 km/h
994 24-03-2017 10:45:00 9.7 C 6.82 g/m*3 7.82 C 12.9 km/h
995 24-03-2017 10:50:00 9.7 C 6.73 g/m*3 9.7 C 4.8 km/h
996 24-03-2017 10:55:00 9.9 C 6.82 g/m*3 8.3 C 11.3 km/h
997 24-03-2017 11:00:00 10.1 C 6.81 g/m*3 9.1 C 8.1 km/h
998 24-03-2017 11:05:00 10.1 C 6.9 g/m*3 8.8 C 9.7 km/h
999 24-03-2017 11:10:00 10.1 C 6.81 g/m*3 7.91 C 16.1 km/h
1000 24-03-2017 11:15:00 10.1 C 6.9 g/m*3 8.54 C 11.3 km/h
Sensor: Nr:Datum:Temp:Abs-Feuchte:Windchill:Wind:
Aussen-T/F 1001 24-03-2017 11:20:00 10.3 C 6.9 g/m*3 9.04 C 9.7 km/h
1002 24-03-2017 11:25:00 10.4 C 6.84 g/m*3 8.9 C 11.3 km/h
1003 24-03-2017 11:30:00 10.4 C 6.84 g/m*3 8.28 C 16.1 km/h
1004 24-03-2017 11:35:00 10.3 C 6.9 g/m*3 10.3 C 4.8 km/h
1005 24-03-2017 11:40:00 10.4 C 6.94 g/m*3 10.4 C 3.2 km/h
1006 24-03-2017 11:45:00 10.3 C 6.8 g/m*3 8.78 C 11.3 km/h
1007 24-03-2017 11:50:00 10.2 C 6.76 g/m*3 8.66 C 11.3 km/h
1008 24-03-2017 11:55:00 10.3 C 6.8 g/m*3 9.72 C 6.4 km/h
1009 24-03-2017 12:00:00 10.5 C 6.98 g/m*3 9.28 C 9.7 km/h
1010 24-03-2017 12:05:00 10.7 C 6.97 g/m*3 8.84 C 14.5 km/h
1011 24-03-2017 12:10:00 10.7 C 6.88 g/m*3 8.48 C 17.7 km/h
1012 24-03-2017 12:15:00 10.4 C 6.94 g/m*3 7.8 C 20.9 km/h
1013 24-03-2017 12:20:00 10.5 C 6.89 g/m*3 8.4 C 16.1 km/h
1014 24-03-2017 12:25:00 10.6 C 6.93 g/m*3 9.4 C 9.7 km/h
1015 24-03-2017 12:30:00 10.7 C 6.97 g/m*3 9.04 C 12.9 km/h
1016 24-03-2017 12:35:00 10.6 C 6.83 g/m*3 8.71 C 14.5 km/h
1017 24-03-2017 12:40:00 10.4 C 6.84 g/m*3 7.95 C 19.3 km/h
1018 24-03-2017 12:45:00 10.6 C 6.83 g/m*3 8.2 C 19.3 km/h
1019 24-03-2017 12:50:00 10.7 C 6.88 g/m*3 8.32 C 19.3 km/h
1020 24-03-2017 12:55:00 10.8 C 6.92 g/m*3 8.96 C 14.5 km/h
1021 24-03-2017 13:00:00 10.9 C 6.86 g/m*3 9.08 C 14.5 km/h
1022 24-03-2017 13:05:00 11.1 C 7.05 g/m*3 11.1 C 14.5 km/h
1023 24-03-2017 13:10:00 11.2 C 6.99 g/m*3 11.2 C 19.3 km/h
1024 24-03-2017 13:15:00 11.3 C 6.94 g/m*3 11.3 C 17.7 km/h
1025 24-03-2017 13:20:00 11.2 C 6.89 g/m*3 11.2 C 20.9 km/h
Sensor: Nr:Datum:Temp:Abs-Feuchte:Windchill:Wind:
Aussen-T/F 1026 24-03-2017 13:25:00 11.2 C 6.99 g/m*3 11.2 C 11.3 km/h
1027 24-03-2017 13:30:00 11.4 C 6.98 g/m*3 11.4 C 14.5 km/h
1028 24-03-2017 13:35:00 11.4 C 6.98 g/m*3 11.4 C 12.9 km/h
1029 24-03-2017 13:40:00 11.4 C 6.88 g/m*3 11.4 C 14.5 km/h
1030 24-03-2017 13:45:00 11.4 C 6.88 g/m*3 11.4 C 12.9 km/h
1031 24-03-2017 13:50:00 11.5 C 6.92 g/m*3 11.5 C 14.5 km/h
1032 24-03-2017 13:55:00 11.6 C 6.86 g/m*3 11.6 C 19.3 km/h
1033 24-03-2017 14:00:00 11.8 C 6.95 g/m*3 11.8 C 14.5 km/h
1034 24-03-2017 14:05:00 11.8 C 6.84 g/m*3 11.8 C 17.7 km/h
1035 24-03-2017 14:10:00 11.8 C 6.95 g/m*3 11.8 C 16.1 km/h
1036 24-03-2017 14:15:00 12.1 C 6.86 g/m*3 12.1 C 19.3 km/h
1037 24-03-2017 14:20:00 12.1 C 6.86 g/m*3 12.1 C 19.3 km/h
1038 24-03-2017 14:25:00 12.2 C 6.8 g/m*3 12.2 C 17.7 km/h
1039 24-03-2017 14:30:00 12.3 C 6.95 g/m*3 12.3 C 17.7 km/h
1040 24-03-2017 14:35:00 12.6 C 6.97 g/m*3 12.6 C 14.5 km/h
1041 24-03-2017 14:40:00 12.7 C 7.01 g/m*3 12.7 C 12.9 km/h
1042 24-03-2017 14:45:00 12.8 C 6.94 g/m*3 12.8 C 11.3 km/h
1043 24-03-2017 14:50:00 12.8 C 6.94 g/m*3 12.8 C 12.9 km/h
1044 24-03-2017 14:55:00 12.9 C 6.88 g/m*3 12.9 C 14.5 km/h
1045 24-03-2017 15:00:00 13.1 C 6.85 g/m*3 13.1 C 12.9 km/h
1046 24-03-2017 15:05:00 13.2 C 6.89 g/m*3 13.2 C 11.3 km/h
1047 24-03-2017 15:10:00 13.4 C 6.86 g/m*3 13.4 C 14.5 km/h
1048 24-03-2017 15:15:00 13.6 C 6.94 g/m*3 13.6 C 14.5 km/h
1049 24-03-2017 15:20:00 13.5 C 6.78 g/m*3 13.5 C 14.5 km/h
1050 24-03-2017 15:25:00 13.6 C 6.94 g/m*3 13.6 C 11.3 km/h
Sensor: Nr:Datum:Temp:Abs-Feuchte:Windchill:Wind:
Aussen-T/F 1051 24-03-2017 15:30:00 13.7 C 6.99 g/m*3 13.7 C 4.8 km/h
1052 24-03-2017 15:35:00 13.8 C 6.91 g/m*3 13.8 C 3.2 km/h
1053 24-03-2017 15:40:00 13.9 C 6.83 g/m*3 13.9 C 11.3 km/h
1054 24-03-2017 15:45:00 13.9 C 6.83 g/m*3 13.9 C 8.1 km/h
1055 24-03-2017 15:50:00 14 C 6.88 g/m*3 14 C 16.1 km/h
1056 24-03-2017 15:55:00 14.2 C 6.84 g/m*3 14.2 C 14.5 km/h
1057 24-03-2017 16:00:00 14.2 C 6.84 g/m*3 14.2 C 14.5 km/h
1058 24-03-2017 16:05:00 14.2 C 6.84 g/m*3 14.2 C 16.1 km/h
1059 24-03-2017 16:10:00 14.3 C 7 g/m*3 14.3 C 12.9 km/h
1060 24-03-2017 16:15:00 14.4 C 6.68 g/m*3 14.4 C 16.1 km/h
1061 24-03-2017 16:20:00 14.4 C 6.68 g/m*3 14.4 C 16.1 km/h
1062 24-03-2017 16:25:00 14.4 C 6.55 g/m*3 14.4 C 16.1 km/h
1063 24-03-2017 16:30:00 14.6 C 6.76 g/m*3 14.6 C 12.9 km/h
1064 24-03-2017 16:35:00 14.7 C 6.67 g/m*3 14.7 C 12.9 km/h
1065 24-03-2017 16:40:00 14.8 C 6.97 g/m*3 14.8 C 9.7 km/h
1066 24-03-2017 16:45:00 15 C 6.8 g/m*3 15 C 11.3 km/h
1067 24-03-2017 16:50:00 14.9 C 6.75 g/m*3 14.9 C 12.9 km/h
1068 24-03-2017 16:55:00 14.9 C 6.75 g/m*3 14.9 C 12.9 km/h
1069 24-03-2017 17:00:00 14.8 C 6.71 g/m*3 14.8 C 20.9 km/h
1070 24-03-2017 17:05:00 14.8 C 6.71 g/m*3 14.8 C 19.3 km/h
1071 24-03-2017 17:10:00 14.8 C 6.97 g/m*3 14.8 C 16.1 km/h
1072 24-03-2017 17:15:00 15.1 C 6.84 g/m*3 15.1 C 11.3 km/h
1073 24-03-2017 17:20:00 15.1 C 6.84 g/m*3 15.1 C 9.7 km/h
1074 24-03-2017 17:25:00 15.2 C 6.88 g/m*3 15.2 C 8.1 km/h
1075 24-03-2017 17:30:00 15.1 C 6.71 g/m*3 15.1 C 16.1 km/h
Sensor: Nr:Datum:Temp:Abs-Feuchte:Windchill:Wind:
Aussen-T/F 1076 24-03-2017 17:35:00 15 C 6.8 g/m*3 15 C 9.7 km/h
1077 24-03-2017 17:40:00 15 C 6.8 g/m*3 15 C 9.7 km/h
1078 24-03-2017 17:45:00 14.9 C 6.88 g/m*3 14.9 C 9.7 km/h
1079 24-03-2017 17:50:00 14.9 C 6.88 g/m*3 14.9 C 11.3 km/h
1080 24-03-2017 17:55:00 14.9 C 6.88 g/m*3 14.9 C 6.4 km/h
1081 24-03-2017 18:00:00 14.8 C 6.84 g/m*3 14.8 C 6.4 km/h
1082 24-03-2017 18:05:00 14.6 C 6.88 g/m*3 14.6 C 9.7 km/h
1083 24-03-2017 18:10:00 14.4 C 7.05 g/m*3 14.4 C 8.1 km/h
1084 24-03-2017 18:15:00 14.3 C 6.88 g/m*3 14.3 C 1.6 km/h
1085 24-03-2017 18:20:00 14.2 C 6.84 g/m*3 14.2 C 3.2 km/h
1086 24-03-2017 18:25:00 13.9 C 6.83 g/m*3 13.9 C 0 km/h
1087 24-03-2017 18:30:00 13.6 C 6.83 g/m*3 13.6 C 6.4 km/h
1088 24-03-2017 18:35:00 13.2 C 6.89 g/m*3 13.2 C 1.6 km/h
1089 24-03-2017 18:40:00 12.7 C 7.01 g/m*3 12.7 C 3.2 km/h
1090 24-03-2017 18:45:00 12.1 C 6.86 g/m*3 12.1 C 1.6 km/h
1091 24-03-2017 18:50:00 11.6 C 6.96 g/m*3 11.6 C 1.6 km/h
1092 24-03-2017 18:55:00 11.2 C 6.89 g/m*3 11.2 C 3.2 km/h
1093 24-03-2017 19:00:00 10.9 C 6.86 g/m*3 10.9 C 1.6 km/h
1094 24-03-2017 19:05:00 10.6 C 6.83 g/m*3 10.6 C 3.2 km/h
1095 24-03-2017 19:10:00 10.3 C 6.9 g/m*3 10.3 C 3.2 km/h
1096 24-03-2017 19:15:00 10.1 C 6.9 g/m*3 10.1 C 1.6 km/h
1097 24-03-2017 19:20:00 9.8 C 6.77 g/m*3 9.8 C 1.6 km/h
1098 24-03-2017 19:25:00 9.7 C 6.82 g/m*3 9.7 C 4.8 km/h
1099 24-03-2017 19:30:00 9.6 C 6.78 g/m*3 9.6 C 3.2 km/h
1100 24-03-2017 19:35:00 9.4 C 6.78 g/m*3 9.4 C 3.2 km/h
Sensor: Nr:Datum:Temp:Abs-Feuchte:Windchill:Wind:
Aussen-T/F 1101 24-03-2017 19:40:00 9.3 C 6.83 g/m*3 9.3 C 1.6 km/h
1102 24-03-2017 19:45:00 9.2 C 6.79 g/m*3 9.2 C 1.6 km/h
1103 24-03-2017 19:50:00 9.1 C 6.74 g/m*3 9.1 C 1.6 km/h
1104 24-03-2017 19:55:00 8.9 C 6.75 g/m*3 8.9 C 1.6 km/h
1105 24-03-2017 20:00:00 8.9 C 6.75 g/m*3 8.9 C 3.2 km/h
1106 24-03-2017 20:05:00 8.8 C 6.79 g/m*3 8.8 C 1.6 km/h
1107 24-03-2017 20:10:00 8.7 C 6.75 g/m*3 8.7 C 0 km/h
1108 24-03-2017 20:15:00 8.6 C 6.7 g/m*3 8.6 C 1.6 km/h
1109 24-03-2017 20:20:00 8.5 C 6.66 g/m*3 8.5 C 3.2 km/h
1110 24-03-2017 20:25:00 8.4 C 6.62 g/m*3 8.4 C 3.2 km/h
1111 24-03-2017 20:30:00 8.3 C 6.66 g/m*3 8.3 C 0 km/h
1112 24-03-2017 20:35:00 8.2 C 6.62 g/m*3 8.2 C 0 km/h
1113 24-03-2017 20:40:00 8.1 C 6.57 g/m*3 8.1 C 3.2 km/h
1114 24-03-2017 20:45:00 8 C 6.61 g/m*3 8 C 1.6 km/h
1115 24-03-2017 20:50:00 7.9 C 6.57 g/m*3 7.9 C 0 km/h
1116 24-03-2017 20:55:00 7.9 C 6.57 g/m*3 7.9 C 1.6 km/h
1117 24-03-2017 21:00:00 7.9 C 6.57 g/m*3 7.9 C 3.2 km/h
1118 24-03-2017 21:05:00 7.9 C 6.57 g/m*3 7.9 C 1.6 km/h
1119 24-03-2017 21:10:00 7.8 C 6.53 g/m*3 7.8 C 0 km/h
1120 24-03-2017 21:15:00 7.7 C 6.49 g/m*3 7.7 C 4.8 km/h
1121 24-03-2017 21:20:00 7.7 C 6.57 g/m*3 7.7 C 0 km/h
1122 24-03-2017 21:25:00 7.6 C 6.53 g/m*3 7.6 C 1.6 km/h
1123 24-03-2017 21:30:00 7.7 C 6.49 g/m*3 7.7 C 4.8 km/h
1124 24-03-2017 21:35:00 7.7 C 6.49 g/m*3 7.7 C 4.8 km/h
1125 24-03-2017 21:40:00 7.7 C 6.41 g/m*3 7.7 C 1.6 km/h
Sensor: Nr:Datum:Temp:Abs-Feuchte:Windchill:Wind:
Aussen-T/F 1126 24-03-2017 21:45:00 7.6 C 6.36 g/m*3 7.6 C 3.2 km/h
1127 24-03-2017 21:50:00 7.4 C 6.36 g/m*3 7.4 C 4.8 km/h
1128 24-03-2017 21:55:00 7.4 C 6.36 g/m*3 7.4 C 1.6 km/h
1129 24-03-2017 22:00:00 7.3 C 6.32 g/m*3 7.3 C 0 km/h
1130 24-03-2017 22:05:00 7.2 C 6.36 g/m*3 7.2 C 0 km/h
1131 24-03-2017 22:10:00 7.1 C 6.4 g/m*3 7.1 C 3.2 km/h
1132 24-03-2017 22:15:00 7 C 6.28 g/m*3 7 C 3.2 km/h
1133 24-03-2017 22:20:00 6.9 C 6.31 g/m*3 6.9 C 1.6 km/h
1134 24-03-2017 22:25:00 6.8 C 6.35 g/m*3 6.8 C 1.6 km/h
1135 24-03-2017 22:30:00 6.7 C 6.31 g/m*3 6.7 C 3.2 km/h
1136 24-03-2017 22:35:00 6.7 C 6.31 g/m*3 6.7 C 1.6 km/h
1137 24-03-2017 22:40:00 6.6 C 6.34 g/m*3 6.6 C 4.8 km/h
1138 24-03-2017 22:45:00 6.6 C 6.34 g/m*3 6.6 C 3.2 km/h
1139 24-03-2017 22:50:00 6.6 C 6.34 g/m*3 6.6 C 4.8 km/h
1140 24-03-2017 22:55:00 6.5 C 6.3 g/m*3 6.5 C 4.8 km/h
1141 24-03-2017 23:00:00 6.4 C 6.26 g/m*3 6.4 C 3.2 km/h
1142 24-03-2017 23:05:00 6.4 C 6.26 g/m*3 6.4 C 3.2 km/h
1143 24-03-2017 23:10:00 6.3 C 6.22 g/m*3 6.3 C 3.2 km/h
1144 24-03-2017 23:15:00 6.3 C 6.22 g/m*3 6.3 C 3.2 km/h
1145 24-03-2017 23:20:00 6.2 C 6.25 g/m*3 6.2 C 4.8 km/h
1146 24-03-2017 23:25:00 6.2 C 6.18 g/m*3 6.2 C 3.2 km/h
1147 24-03-2017 23:30:00 6.2 C 6.25 g/m*3 6.2 C 0 km/h
1148 24-03-2017 23:35:00 6.2 C 6.18 g/m*3 6.2 C 3.2 km/h
1149 24-03-2017 23:40:00 6.1 C 6.21 g/m*3 6.1 C 3.2 km/h
1150 24-03-2017 23:45:00 6.1 C 6.21 g/m*3 6.1 C 4.8 km/h
Sensor: Nr:Datum:Temp:Abs-Feuchte:Windchill:Wind:
Aussen-T/F 1151 24-03-2017 23:50:00 6 C 6.17 g/m*3 6 C 4.8 km/h
1152 24-03-2017 23:55:00 5.9 C 6.13 g/m*3 5.9 C 4.8 km/h
1153 25-03-2017 00:00:00 5.9 C 6.13 g/m*3 5.9 C 4.8 km/h
1154 25-03-2017 00:05:00 5.9 C 6.13 g/m*3 5.9 C 4.8 km/h
1155 25-03-2017 00:10:00 5.9 C 6.13 g/m*3 5.9 C 4.8 km/h
1156 25-03-2017 00:15:00 5.8 C 6.09 g/m*3 5.8 C 4.8 km/h
1157 25-03-2017 00:20:00 5.7 C 6.12 g/m*3 5.7 C 3.2 km/h
1158 25-03-2017 00:25:00 5.7 C 6.12 g/m*3 5.7 C 0 km/h
1159 25-03-2017 00:30:00 5.6 C 6.08 g/m*3 5.6 C 1.6 km/h
1160 25-03-2017 00:35:00 5.5 C 6.04 g/m*3 5.5 C 0 km/h
1161 25-03-2017 00:40:00 5.4 C 6 g/m*3 5.4 C 0 km/h
1162 25-03-2017 00:45:00 5.4 C 6.07 g/m*3 5.4 C 0 km/h
1163 25-03-2017 00:50:00 5.4 C 6.07 g/m*3 5.4 C 1.6 km/h
1164 25-03-2017 00:55:00 5.4 C 6 g/m*3 5.4 C 1.6 km/h
1165 25-03-2017 01:00:00 5.3 C 5.96 g/m*3 5.3 C 1.6 km/h
1166 25-03-2017 01:05:00 5.3 C 5.96 g/m*3 5.3 C 1.6 km/h
1167 25-03-2017 01:10:00 5.3 C 6.03 g/m*3 5.3 C 3.2 km/h
1168 25-03-2017 01:15:00 5.2 C 5.99 g/m*3 5.2 C 3.2 km/h
1169 25-03-2017 01:20:00 5.2 C 5.99 g/m*3 5.2 C 4.8 km/h
1170 25-03-2017 01:25:00 5.2 C 5.99 g/m*3 5.2 C 4.8 km/h
1171 25-03-2017 01:30:00 5.1 C 5.95 g/m*3 5.1 C 3.2 km/h
1172 25-03-2017 01:35:00 5.1 C 6.02 g/m*3 5.1 C 3.2 km/h
1173 25-03-2017 01:40:00 5.1 C 6.02 g/m*3 5.1 C 1.6 km/h
1174 25-03-2017 01:45:00 5.1 C 5.95 g/m*3 5.1 C 3.2 km/h
1175 25-03-2017 01:50:00 5 C 5.91 g/m*3 5 C 4.8 km/h
Sensor: Nr:Datum:Temp:Abs-Feuchte:Windchill:Wind:
Aussen-T/F 1176 25-03-2017 01:55:00 5 C 5.91 g/m*3 5 C 1.6 km/h
1177 25-03-2017 02:00:00 4.9 C 5.87 g/m*3 4.9 C 1.6 km/h
1178 25-03-2017 02:05:00 4.8 C 5.9 g/m*3 4.8 C 4.8 km/h
1179 25-03-2017 02:10:00 4.8 C 5.9 g/m*3 4.8 C 1.6 km/h
1180 25-03-2017 02:15:00 4.8 C 5.9 g/m*3 4.8 C 3.2 km/h
1181 25-03-2017 02:20:00 4.7 C 5.86 g/m*3 4.7 C 3.2 km/h
1182 25-03-2017 02:25:00 4.7 C 5.86 g/m*3 4.7 C 4.8 km/h
1183 25-03-2017 02:30:00 4.6 C 5.89 g/m*3 4.6 C 1.6 km/h
1184 25-03-2017 02:35:00 4.7 C 5.86 g/m*3 4.7 C 3.2 km/h
1185 25-03-2017 02:40:00 4.7 C 5.93 g/m*3 4.7 C 1.6 km/h
1186 25-03-2017 02:45:00 4.6 C 5.89 g/m*3 4.6 C 4.8 km/h
1187 25-03-2017 02:50:00 4.6 C 5.82 g/m*3 4.6 C 4.8 km/h
1188 25-03-2017 02:55:00 4.6 C 5.89 g/m*3 4.6 C 3.2 km/h
1189 25-03-2017 03:00:00 4.5 C 5.78 g/m*3 4.5 C 3.2 km/h
1190 25-03-2017 03:05:00 4.5 C 5.85 g/m*3 4.5 C 3.2 km/h
1191 25-03-2017 03:10:00 4.4 C 5.75 g/m*3 4.4 C 0 km/h
1192 25-03-2017 03:15:00 4.4 C 5.81 g/m*3 4.4 C 3.2 km/h
1193 25-03-2017 03:20:00 4.3 C 5.77 g/m*3 4.3 C 0 km/h
1194 25-03-2017 03:25:00 4.3 C 5.77 g/m*3 4.3 C 3.2 km/h
1195 25-03-2017 03:30:00 4.3 C 5.77 g/m*3 4.3 C 3.2 km/h
1196 25-03-2017 03:35:00 4.3 C 5.77 g/m*3 4.3 C 1.6 km/h
1197 25-03-2017 03:40:00 4.3 C 5.77 g/m*3 4.3 C 4.8 km/h
1198 25-03-2017 03:45:00 4.2 C 5.73 g/m*3 4.2 C 0 km/h
1199 25-03-2017 03:50:00 4.2 C 5.67 g/m*3 4.2 C 0 km/h
1200 25-03-2017 03:55:00 4 C 5.66 g/m*3 4 C 0 km/h
Sensor: Nr:Datum:Temp:Abs-Feuchte:Windchill:Wind:
Aussen-T/F 1201 25-03-2017 04:00:00 3.9 C 5.62 g/m*3 3.9 C 0 km/h
1202 25-03-2017 04:05:00 3.7 C 5.55 g/m*3 3.7 C 1.6 km/h
1203 25-03-2017 04:10:00 3.7 C 5.61 g/m*3 3.7 C 3.2 km/h
1204 25-03-2017 04:15:00 3.6 C 5.57 g/m*3 3.6 C 0 km/h
1205 25-03-2017 04:20:00 3.4 C 5.44 g/m*3 3.4 C 0 km/h
1206 25-03-2017 04:25:00 3.3 C 5.46 g/m*3 3.3 C 0 km/h
1207 25-03-2017 04:30:00 3.3 C 5.46 g/m*3 3.3 C 1.6 km/h
1208 25-03-2017 04:35:00 3.3 C 5.52 g/m*3 3.3 C 0 km/h
1209 25-03-2017 04:40:00 3.3 C 5.52 g/m*3 3.3 C 1.6 km/h
1210 25-03-2017 04:45:00 3.3 C 5.52 g/m*3 3.3 C 1.6 km/h
1211 25-03-2017 04:50:00 3.3 C 5.52 g/m*3 3.3 C 0 km/h
1212 25-03-2017 04:55:00 3.2 C 5.48 g/m*3 3.2 C 0 km/h
1213 25-03-2017 05:00:00 3.2 C 5.48 g/m*3 3.2 C 0 km/h
1214 25-03-2017 05:05:00 3.2 C 5.48 g/m*3 3.2 C 0 km/h
1215 25-03-2017 05:10:00 3.2 C 5.48 g/m*3 3.2 C 0 km/h
1216 25-03-2017 05:15:00 3.1 C 5.45 g/m*3 3.1 C 0 km/h
1217 25-03-2017 05:20:00 3.1 C 5.45 g/m*3 3.1 C 1.6 km/h
1218 25-03-2017 05:25:00 3 C 5.41 g/m*3 3 C 0 km/h
1219 25-03-2017 05:30:00 3 C 5.41 g/m*3 3 C 0 km/h
1220 25-03-2017 05:35:00 2.9 C 5.37 g/m*3 2.9 C 0 km/h
1221 25-03-2017 05:40:00 3 C 5.41 g/m*3 3 C 0 km/h
1222 25-03-2017 05:45:00 3.1 C 5.51 g/m*3 3.1 C 0 km/h
1223 25-03-2017 05:50:00 3.2 C 5.54 g/m*3 3.2 C 0 km/h
1224 25-03-2017 05:55:00 3.2 C 5.48 g/m*3 3.2 C 0 km/h
1225 25-03-2017 06:00:00 3.2 C 5.48 g/m*3 3.2 C 4.8 km/h
Sensor: Nr:Datum:Temp:Abs-Feuchte:Windchill:Wind:
Aussen-T/F 1226 25-03-2017 06:05:00 3.3 C 5.52 g/m*3 3.3 C 3.2 km/h
1227 25-03-2017 06:10:00 3.3 C 5.52 g/m*3 3.3 C 3.2 km/h
1228 25-03-2017 06:15:00 3.3 C 5.52 g/m*3 3.3 C 1.6 km/h
1229 25-03-2017 06:20:00 3.3 C 5.46 g/m*3 3.3 C 0 km/h
1230 25-03-2017 06:25:00 3.3 C 5.46 g/m*3 3.3 C 1.6 km/h
1231 25-03-2017 06:30:00 3.3 C 5.52 g/m*3 3.3 C 1.6 km/h
1232 25-03-2017 06:35:00 3.3 C 5.52 g/m*3 3.3 C 1.6 km/h
1233 25-03-2017 06:40:00 3.3 C 5.52 g/m*3 3.3 C 0 km/h
1234 25-03-2017 06:45:00 3.3 C 5.46 g/m*3 3.3 C 0 km/h
1235 25-03-2017 06:50:00 3.2 C 5.42 g/m*3 3.2 C 0 km/h
1236 25-03-2017 06:55:00 3.2 C 5.48 g/m*3 3.2 C 0 km/h
1237 25-03-2017 07:00:00 3.2 C 5.48 g/m*3 3.2 C 0 km/h
1238 25-03-2017 07:05:00 3.1 C 5.45 g/m*3 3.1 C 0 km/h
1239 25-03-2017 07:10:00 3.2 C 5.48 g/m*3 3.2 C 1.6 km/h
1240 25-03-2017 07:15:00 3.2 C 5.48 g/m*3 3.2 C 0 km/h
1241 25-03-2017 07:20:00 3.3 C 5.52 g/m*3 3.3 C 1.6 km/h
1242 25-03-2017 07:25:00 3.3 C 5.58 g/m*3 3.3 C 3.2 km/h
1243 25-03-2017 07:30:00 3.4 C 5.62 g/m*3 3.4 C 1.6 km/h
1244 25-03-2017 07:35:00 3.5 C 5.6 g/m*3 3.5 C 0 km/h
1245 25-03-2017 07:40:00 3.5 C 5.6 g/m*3 3.5 C 0 km/h
1246 25-03-2017 07:45:00 3.5 C 5.6 g/m*3 3.5 C 3.2 km/h
1247 25-03-2017 07:50:00 3.6 C 5.63 g/m*3 3.6 C 1.6 km/h
1248 25-03-2017 07:55:00 3.6 C 5.63 g/m*3 3.6 C 3.2 km/h
1249 25-03-2017 08:00:00 3.7 C 5.67 g/m*3 3.7 C 1.6 km/h
1250 25-03-2017 08:05:00 3.8 C 5.71 g/m*3 3.8 C 3.2 km/h
Sensor: Nr:Datum:Temp:Abs-Feuchte:Windchill:Wind:
Aussen-T/F 1251 25-03-2017 08:10:00 3.8 C 5.71 g/m*3 3.8 C 3.2 km/h
1252 25-03-2017 08:15:00 3.9 C 5.75 g/m*3 3.9 C 3.2 km/h
1253 25-03-2017 08:20:00 3.9 C 5.75 g/m*3 3.9 C 1.6 km/h
1254 25-03-2017 08:25:00 4 C 5.79 g/m*3 4 C 1.6 km/h
1255 25-03-2017 08:30:00 4.1 C 5.82 g/m*3 4.1 C 1.6 km/h
1256 25-03-2017 08:35:00 4.1 C 5.82 g/m*3 4.1 C 1.6 km/h
1257 25-03-2017 08:40:00 4.2 C 5.86 g/m*3 4.2 C 0 km/h
1258 25-03-2017 08:45:00 4.3 C 5.9 g/m*3 4.3 C 3.2 km/h
1259 25-03-2017 08:50:00 4.4 C 5.94 g/m*3 4.4 C 1.6 km/h
1260 25-03-2017 08:55:00 4.6 C 6.02 g/m*3 4.6 C 3.2 km/h
1261 25-03-2017 09:00:00 4.8 C 6.1 g/m*3 4.8 C 1.6 km/h
1262 25-03-2017 09:05:00 4.9 C 6.08 g/m*3 4.9 C 3.2 km/h
1263 25-03-2017 09:10:00 5.1 C 6.16 g/m*3 5.1 C 1.6 km/h
1264 25-03-2017 09:15:00 5.3 C 6.24 g/m*3 5.3 C 1.6 km/h
1265 25-03-2017 09:20:00 5.5 C 6.25 g/m*3 5.5 C 3.2 km/h
1266 25-03-2017 09:25:00 5.7 C 6.26 g/m*3 5.7 C 1.6 km/h
1267 25-03-2017 09:30:00 6 C 6.31 g/m*3 6 C 3.2 km/h
1268 25-03-2017 09:35:00 6.3 C 6.44 g/m*3 6.3 C 4.8 km/h
1269 25-03-2017 09:40:00 6.6 C 6.42 g/m*3 6.6 C 3.2 km/h
1270 25-03-2017 09:45:00 6.8 C 6.42 g/m*3 6.8 C 3.2 km/h
1271 25-03-2017 09:50:00 7.1 C 6.47 g/m*3 7.1 C 3.2 km/h
1272 25-03-2017 09:55:00 7.4 C 6.52 g/m*3 7.4 C 4.8 km/h
1273 25-03-2017 10:00:00 7.8 C 6.61 g/m*3 6.83 C 6.4 km/h
1274 25-03-2017 10:05:00 8.2 C 6.62 g/m*3 8.2 C 3.2 km/h
1275 25-03-2017 10:10:00 8.4 C 6.79 g/m*3 8.4 C 1.6 km/h
Sensor: Nr:Datum:Temp:Abs-Feuchte:Windchill:Wind:
Aussen-T/F 1276 25-03-2017 10:15:00 8.8 C 6.79 g/m*3 6.97 C 11.3 km/h
1277 25-03-2017 10:20:00 9.1 C 6.74 g/m*3 9.1 C 4.8 km/h
1278 25-03-2017 10:25:00 9.3 C 6.74 g/m*3 8.56 C 6.4 km/h
1279 25-03-2017 10:30:00 9.7 C 6.64 g/m*3 8.33 C 9.7 km/h
1280 25-03-2017 10:35:00 10 C 6.77 g/m*3 10 C 4.8 km/h
1281 25-03-2017 10:40:00 10.2 C 6.76 g/m*3 8.66 C 11.3 km/h
1282 25-03-2017 10:45:00 10.4 C 6.46 g/m*3 8.47 C 14.5 km/h
1283 25-03-2017 10:50:00 10.7 C 6.38 g/m*3 9.26 C 11.3 km/h
1284 25-03-2017 10:55:00 11.1 C 6.35 g/m*3 11.1 C 9.7 km/h
1285 25-03-2017 11:00:00 11.3 C 6.43 g/m*3 11.3 C 11.3 km/h
1286 25-03-2017 11:05:00 11.6 C 6.44 g/m*3 11.6 C 8.1 km/h
1287 25-03-2017 11:10:00 11.7 C 6.59 g/m*3 11.7 C 1.6 km/h
1288 25-03-2017 11:15:00 11.9 C 6.25 g/m*3 11.9 C 11.3 km/h
1289 25-03-2017 11:20:00 12.1 C 6.54 g/m*3 12.1 C 9.7 km/h
1290 25-03-2017 11:25:00 12.3 C 6.52 g/m*3 12.3 C 9.7 km/h
1291 25-03-2017 11:30:00 12.4 C 6.01 g/m*3 12.4 C 9.7 km/h
1292 25-03-2017 11:35:00 12.6 C 6.08 g/m*3 12.6 C 8.1 km/h
1293 25-03-2017 11:40:00 12.7 C 6.12 g/m*3 12.7 C 9.7 km/h
1294 25-03-2017 11:45:00 12.8 C 5.82 g/m*3 12.8 C 11.3 km/h
1295 25-03-2017 11:50:00 12.9 C 5.97 g/m*3 12.9 C 11.3 km/h
1296 25-03-2017 11:55:00 13.1 C 5.71 g/m*3 13.1 C 11.3 km/h
1297 25-03-2017 12:00:00 13.4 C 5.46 g/m*3 13.4 C 16.1 km/h
1298 25-03-2017 12:05:00 13.5 C 5.26 g/m*3 13.5 C 20.9 km/h
1299 25-03-2017 12:10:00 13.6 C 5.06 g/m*3 13.6 C 22.5 km/h
1300 25-03-2017 12:15:00 13.7 C 4.86 g/m*3 13.7 C 22.5 km/h
Sensor: Nr:Datum:Temp:Abs-Feuchte:Windchill:Wind:
Aussen-T/F 1301 25-03-2017 12:20:00 13.7 C 4.62 g/m*3 13.7 C 22.5 km/h
1302 25-03-2017 12:25:00 13.8 C 4.89 g/m*3 13.8 C 11.3 km/h
1303 25-03-2017 12:30:00 14 C 5.07 g/m*3 14 C 9.7 km/h
1304 25-03-2017 12:35:00 14.2 C 4.88 g/m*3 14.2 C 19.3 km/h
1305 25-03-2017 12:40:00 14.2 C 4.52 g/m*3 14.2 C 29 km/h
1306 25-03-2017 12:45:00 14.2 C 4.64 g/m*3 14.2 C 29 km/h
1307 25-03-2017 12:50:00 14.2 C 4.76 g/m*3 14.2 C 20.9 km/h
1308 25-03-2017 12:55:00 14.3 C 4.79 g/m*3 14.3 C 20.9 km/h
1309 25-03-2017 13:00:00 14.3 C 4.79 g/m*3 14.3 C 19.3 km/h
1310 25-03-2017 13:05:00 14.4 C 4.94 g/m*3 14.4 C 12.9 km/h
1311 25-03-2017 13:10:00 14.7 C 4.91 g/m*3 14.7 C 16.1 km/h
1312 25-03-2017 13:15:00 14.7 C 5.04 g/m*3 14.7 C 14.5 km/h
1313 25-03-2017 13:20:00 14.8 C 5.32 g/m*3 14.8 C 8.1 km/h
1314 25-03-2017 13:25:00 14.9 C 5.23 g/m*3 14.9 C 19.3 km/h
1315 25-03-2017 13:30:00 14.8 C 5.07 g/m*3 14.8 C 19.3 km/h
1316 25-03-2017 13:35:00 14.8 C 5.19 g/m*3 14.8 C 17.7 km/h
1317 25-03-2017 13:40:00 14.9 C 5.23 g/m*3 14.9 C 17.7 km/h
1318 25-03-2017 13:45:00 15.1 C 5.16 g/m*3 15.1 C 20.9 km/h
1319 25-03-2017 13:50:00 15.1 C 5.03 g/m*3 15.1 C 24.1 km/h
1320 25-03-2017 13:55:00 15.1 C 4.77 g/m*3 15.1 C 24.1 km/h
1321 25-03-2017 14:00:00 15.1 C 4.77 g/m*3 15.1 C 14.5 km/h
1322 25-03-2017 14:05:00 15.1 C 4.9 g/m*3 15.1 C 14.5 km/h
1323 25-03-2017 14:10:00 15.2 C 4.93 g/m*3 15.2 C 9.7 km/h
1324 25-03-2017 14:15:00 15.3 C 5.09 g/m*3 15.3 C 8.1 km/h
1325 25-03-2017 14:20:00 15.4 C 4.99 g/m*3 15.4 C 16.1 km/h
Sensor: Nr:Datum:Temp:Abs-Feuchte:Windchill:Wind:
Aussen-T/F 1326 25-03-2017 14:25:00 15.4 C 5.12 g/m*3 15.4 C 19.3 km/h
1327 25-03-2017 14:30:00 15.4 C 5.12 g/m*3 15.4 C 16.1 km/h
1328 25-03-2017 14:35:00 15.4 C 5.26 g/m*3 15.4 C 22.5 km/h
1329 25-03-2017 14:40:00 15.5 C 5.02 g/m*3 15.5 C 19.3 km/h
1330 25-03-2017 14:45:00 15.6 C 4.92 g/m*3 15.6 C 19.3 km/h
1331 25-03-2017 14:50:00 15.6 C 4.92 g/m*3 15.6 C 16.1 km/h
1332 25-03-2017 14:55:00 15.7 C 4.68 g/m*3 15.7 C 14.5 km/h
1333 25-03-2017 15:00:00 15.8 C 4.85 g/m*3 15.8 C 17.7 km/h
1334 25-03-2017 15:05:00 15.9 C 4.88 g/m*3 15.9 C 14.5 km/h
1335 25-03-2017 15:10:00 15.9 C 4.88 g/m*3 15.9 C 17.7 km/h
1336 25-03-2017 15:15:00 15.9 C 4.74 g/m*3 15.9 C 20.9 km/h
1337 25-03-2017 15:20:00 15.9 C 4.74 g/m*3 15.9 C 14.5 km/h
1338 25-03-2017 15:25:00 16.1 C 4.93 g/m*3 16.1 C 16.1 km/h
1339 25-03-2017 15:30:00 16 C 5.04 g/m*3 16 C 17.7 km/h
1340 25-03-2017 15:35:00 16 C 4.77 g/m*3 16 C 22.5 km/h
1341 25-03-2017 15:40:00 16 C 4.77 g/m*3 16 C 16.1 km/h
1342 25-03-2017 15:45:00 16.1 C 4.8 g/m*3 16.1 C 19.3 km/h
1343 25-03-2017 15:50:00 16.1 C 4.8 g/m*3 16.1 C 16.1 km/h
1344 25-03-2017 15:55:00 16.1 C 4.8 g/m*3 16.1 C 17.7 km/h
1345 25-03-2017 16:00:00 16.1 C 4.66 g/m*3 16.1 C 16.1 km/h
1346 25-03-2017 16:05:00 16.2 C 4.69 g/m*3 16.2 C 14.5 km/h
1347 25-03-2017 16:10:00 16.3 C 4.72 g/m*3 16.3 C 12.9 km/h
1348 25-03-2017 16:15:00 16.3 C 4.44 g/m*3 16.3 C 22.5 km/h
1349 25-03-2017 16:20:00 16.3 C 4.58 g/m*3 16.3 C 12.9 km/h
1350 25-03-2017 16:25:00 16.4 C 4.33 g/m*3 16.4 C 17.7 km/h
Sensor: Nr:Datum:Temp:Abs-Feuchte:Windchill:Wind:
Aussen-T/F 1351 25-03-2017 16:30:00 16.4 C 4.33 g/m*3 16.4 C 16.1 km/h
1352 25-03-2017 16:35:00 16.4 C 4.61 g/m*3 16.4 C 12.9 km/h
1353 25-03-2017 16:40:00 16.6 C 4.52 g/m*3 16.6 C 11.3 km/h
1354 25-03-2017 16:45:00 16.8 C 4.72 g/m*3 16.8 C 12.9 km/h
1355 25-03-2017 16:50:00 16.8 C 4.58 g/m*3 16.8 C 11.3 km/h
1356 25-03-2017 16:55:00 16.7 C 4.55 g/m*3 16.7 C 17.7 km/h
1357 25-03-2017 17:00:00 16.5 C 4.77 g/m*3 16.5 C 16.1 km/h
1358 25-03-2017 17:05:00 16.6 C 4.8 g/m*3 16.6 C 11.3 km/h
1359 25-03-2017 17:10:00 16.6 C 4.8 g/m*3 16.6 C 16.1 km/h
1360 25-03-2017 17:15:00 16.5 C 4.63 g/m*3 16.5 C 16.1 km/h
1361 25-03-2017 17:20:00 16.4 C 4.75 g/m*3 16.4 C 14.5 km/h
1362 25-03-2017 17:25:00 16.5 C 4.91 g/m*3 16.5 C 14.5 km/h
1363 25-03-2017 17:30:00 16.6 C 5.23 g/m*3 16.6 C 6.4 km/h
1364 25-03-2017 17:35:00 16.8 C 5 g/m*3 16.8 C 9.7 km/h
1365 25-03-2017 17:40:00 16.8 C 4.72 g/m*3 16.8 C 16.1 km/h
1366 25-03-2017 17:45:00 16.7 C 4.55 g/m*3 16.7 C 11.3 km/h
1367 25-03-2017 17:50:00 16.7 C 4.97 g/m*3 16.7 C 11.3 km/h
1368 25-03-2017 17:55:00 16.7 C 4.69 g/m*3 16.7 C 9.7 km/h
1369 25-03-2017 18:00:00 16.7 C 4.83 g/m*3 16.7 C 9.7 km/h
1370 25-03-2017 18:05:00 16.8 C 4.72 g/m*3 16.8 C 3.2 km/h
1371 25-03-2017 18:10:00 16.8 C 4.43 g/m*3 16.8 C 8.1 km/h
1372 25-03-2017 18:15:00 16.7 C 4.69 g/m*3 16.7 C 1.6 km/h
1373 25-03-2017 18:20:00 16.6 C 4.66 g/m*3 16.6 C 11.3 km/h
1374 25-03-2017 18:25:00 16.3 C 5.13 g/m*3 16.3 C 4.8 km/h
1375 25-03-2017 18:30:00 16 C 4.9 g/m*3 16 C 4.8 km/h
Sensor: Nr:Datum:Temp:Abs-Feuchte:Windchill:Wind:
Aussen-T/F 1376 25-03-2017 18:35:00 15.7 C 4.95 g/m*3 15.7 C 0 km/h
1377 25-03-2017 18:40:00 15.3 C 4.96 g/m*3 15.3 C 1.6 km/h
1378 25-03-2017 18:45:00 14.8 C 4.81 g/m*3 14.8 C 1.6 km/h
1379 25-03-2017 18:50:00 14.3 C 5.04 g/m*3 14.3 C 3.2 km/h
1380 25-03-2017 18:55:00 13.7 C 5.45 g/m*3 13.7 C 3.2 km/h
1381 25-03-2017 19:00:00 13.2 C 5.51 g/m*3 13.2 C 3.2 km/h
1382 25-03-2017 19:05:00 12.7 C 5.45 g/m*3 12.7 C 1.6 km/h
1383 25-03-2017 19:10:00 12.3 C 5.54 g/m*3 12.3 C 3.2 km/h
1384 25-03-2017 19:15:00 11.9 C 5.51 g/m*3 11.9 C 1.6 km/h
1385 25-03-2017 19:20:00 11.7 C 5.54 g/m*3 11.7 C 1.6 km/h
1386 25-03-2017 19:25:00 11.4 C 5.44 g/m*3 11.4 C 3.2 km/h
1387 25-03-2017 19:30:00 11.2 C 5.37 g/m*3 11.2 C 4.8 km/h
1388 25-03-2017 19:35:00 11.1 C 5.44 g/m*3 11.1 C 4.8 km/h
1389 25-03-2017 19:40:00 10.9 C 5.37 g/m*3 10.9 C 3.2 km/h
1390 25-03-2017 19:45:00 10.8 C 5.44 g/m*3 10.8 C 4.8 km/h
1391 25-03-2017 19:50:00 10.7 C 5.4 g/m*3 10.7 C 3.2 km/h
1392 25-03-2017 19:55:00 10.6 C 5.37 g/m*3 10.6 C 3.2 km/h
1393 25-03-2017 20:00:00 10.4 C 5.4 g/m*3 10.4 C 4.8 km/h
1394 25-03-2017 20:05:00 10.3 C 5.36 g/m*3 10.3 C 1.6 km/h
1395 25-03-2017 20:10:00 10.2 C 5.42 g/m*3 10.2 C 3.2 km/h
1396 25-03-2017 20:15:00 10.2 C 5.33 g/m*3 10.2 C 3.2 km/h
1397 25-03-2017 20:20:00 10.1 C 5.3 g/m*3 10.1 C 4.8 km/h
1398 25-03-2017 20:25:00 10.1 C 5.39 g/m*3 10.1 C 4.8 km/h
1399 25-03-2017 20:30:00 9.9 C 5.32 g/m*3 9.9 C 3.2 km/h
1400 25-03-2017 20:35:00 9.8 C 5.29 g/m*3 9.8 C 4.8 km/h
Sensor: Nr:Datum:Temp:Abs-Feuchte:Windchill:Wind:
Aussen-T/F 1401 25-03-2017 20:40:00 9.8 C 5.01 g/m*3 9.14 C 6.4 km/h
1402 25-03-2017 20:45:00 9.7 C 5.35 g/m*3 9.02 C 6.4 km/h
1403 25-03-2017 20:50:00 9.7 C 5.25 g/m*3 9.02 C 6.4 km/h
1404 25-03-2017 20:55:00 9.6 C 5.22 g/m*3 9.6 C 4.8 km/h
1405 25-03-2017 21:00:00 9.6 C 5.22 g/m*3 9.6 C 4.8 km/h
1406 25-03-2017 21:05:00 9.6 C 5.22 g/m*3 8.91 C 6.4 km/h
1407 25-03-2017 21:10:00 9.6 C 5.22 g/m*3 9.6 C 4.8 km/h
1408 25-03-2017 21:15:00 9.5 C 5.28 g/m*3 9.5 C 4.8 km/h
1409 25-03-2017 21:20:00 9.4 C 5.34 g/m*3 9.4 C 4.8 km/h
1410 25-03-2017 21:25:00 9.3 C 5.3 g/m*3 8.56 C 6.4 km/h
1411 25-03-2017 21:30:00 9.2 C 5.36 g/m*3 9.2 C 3.2 km/h
1412 25-03-2017 21:35:00 9.1 C 5.41 g/m*3 8.33 C 6.4 km/h
1413 25-03-2017 21:40:00 9.1 C 5.32 g/m*3 8.33 C 6.4 km/h
1414 25-03-2017 21:45:00 9.1 C 5.41 g/m*3 8.33 C 6.4 km/h
1415 25-03-2017 21:50:00 9 C 5.38 g/m*3 9 C 3.2 km/h
1416 25-03-2017 21:55:00 9 C 5.47 g/m*3 9 C 3.2 km/h
1417 25-03-2017 22:00:00 8.9 C 5.43 g/m*3 8.9 C 4.8 km/h
1418 25-03-2017 22:05:00 8.8 C 5.48 g/m*3 8.8 C 4.8 km/h
1419 25-03-2017 22:10:00 8.7 C 5.53 g/m*3 8.7 C 3.2 km/h
1420 25-03-2017 22:15:00 8.7 C 5.53 g/m*3 8.7 C 4.8 km/h
1421 25-03-2017 22:20:00 8.7 C 5.45 g/m*3 8.7 C 3.2 km/h
1422 25-03-2017 22:25:00 8.8 C 5.48 g/m*3 8.8 C 3.2 km/h
1423 25-03-2017 22:30:00 8.7 C 5.28 g/m*3 8.7 C 4.8 km/h
1424 25-03-2017 22:35:00 8.7 C 5.45 g/m*3 8.7 C 3.2 km/h
1425 25-03-2017 22:40:00 8.7 C 5.36 g/m*3 8.7 C 3.2 km/h
Sensor: Nr:Datum:Temp:Abs-Feuchte:Windchill:Wind:
Aussen-T/F 1426 25-03-2017 22:45:00 8.6 C 5.24 g/m*3 8.6 C 3.2 km/h
1427 25-03-2017 22:50:00 8.6 C 5.07 g/m*3 8.6 C 3.2 km/h
1428 25-03-2017 22:55:00 8.5 C 5.21 g/m*3 8.5 C 4.8 km/h
1429 25-03-2017 23:00:00 8.4 C 5.26 g/m*3 8.4 C 4.8 km/h
1430 25-03-2017 23:05:00 8.3 C 5.23 g/m*3 8.3 C 4.8 km/h
1431 25-03-2017 23:10:00 8.2 C 5.28 g/m*3 8.2 C 4.8 km/h
1432 25-03-2017 23:15:00 8.1 C 5.24 g/m*3 8.1 C 4.8 km/h
1433 25-03-2017 23:20:00 8.1 C 5.24 g/m*3 8.1 C 4.8 km/h
1434 25-03-2017 23:25:00 7.9 C 5.34 g/m*3 7.9 C 4.8 km/h
1435 25-03-2017 23:30:00 7.9 C 5.26 g/m*3 7.9 C 4.8 km/h
1436 25-03-2017 23:35:00 7.8 C 5.22 g/m*3 6.83 C 6.4 km/h
1437 25-03-2017 23:40:00 7.7 C 5.19 g/m*3 7.7 C 4.8 km/h
1438 25-03-2017 23:45:00 7.6 C 5.24 g/m*3 7.6 C 0 km/h
1439 25-03-2017 23:50:00 7.5 C 5.12 g/m*3 7.5 C 0 km/h
1440 25-03-2017 23:55:00 7.4 C 5.17 g/m*3 7.4 C 0 km/h
1441 26-03-2017 00:00:00 7.4 C 5.17 g/m*3 7.4 C 0 km/h
1442 26-03-2017 00:05:00 7.3 C 4.98 g/m*3 7.3 C 0 km/h
1443 26-03-2017 00:10:00 7.2 C 5.1 g/m*3 7.2 C 1.6 km/h
1444 26-03-2017 00:15:00 7.2 C 5.1 g/m*3 7.2 C 0 km/h
1445 26-03-2017 00:20:00 7.1 C 5.15 g/m*3 7.1 C 0 km/h
1446 26-03-2017 00:25:00 7.1 C 5.15 g/m*3 7.1 C 0 km/h
1447 26-03-2017 00:30:00 7 C 5.04 g/m*3 7 C 0 km/h
1448 26-03-2017 00:35:00 6.9 C 4.93 g/m*3 6.9 C 0 km/h
1449 26-03-2017 00:40:00 6.9 C 5 g/m*3 6.9 C 0 km/h
1450 26-03-2017 00:45:00 6.9 C 5.08 g/m*3 6.9 C 0 km/h
Sensor: Nr:Datum:Temp:Abs-Feuchte:Windchill:Wind:
Aussen-T/F 1451 26-03-2017 00:50:00 6.8 C 5.12 g/m*3 6.8 C 0 km/h
1452 26-03-2017 00:55:00 6.7 C 5.01 g/m*3 6.7 C 0 km/h
1453 26-03-2017 01:00:00 6.6 C 4.98 g/m*3 6.6 C 0 km/h
1454 26-03-2017 01:05:00 6.6 C 4.98 g/m*3 6.6 C 0 km/h
1455 26-03-2017 01:10:00 6.5 C 4.95 g/m*3 6.5 C 0 km/h
1456 26-03-2017 01:15:00 6.5 C 5.02 g/m*3 6.5 C 0 km/h
1457 26-03-2017 01:20:00 6.4 C 4.99 g/m*3 6.4 C 0 km/h
1458 26-03-2017 01:25:00 6.5 C 5.02 g/m*3 6.5 C 0 km/h
1459 26-03-2017 01:30:00 6.4 C 4.99 g/m*3 6.4 C 0 km/h
1460 26-03-2017 01:35:00 6.4 C 5.07 g/m*3 6.4 C 0 km/h
1461 26-03-2017 01:40:00 6.4 C 5.14 g/m*3 6.4 C 0 km/h
1462 26-03-2017 01:45:00 6.3 C 5.11 g/m*3 6.3 C 0 km/h
1463 26-03-2017 01:50:00 6.2 C 5.15 g/m*3 6.2 C 0 km/h
1464 26-03-2017 01:55:00 6.1 C 5.11 g/m*3 6.1 C 0 km/h
1465 26-03-2017 02:00:00 5.8 C 5.09 g/m*3 5.8 C 0 km/h
1466 26-03-2017 02:05:00 5.6 C 5.09 g/m*3 5.6 C 0 km/h
1467 26-03-2017 02:10:00 5.3 C 5.13 g/m*3 5.3 C 0 km/h
1468 26-03-2017 02:15:00 5.1 C 5.13 g/m*3 5.1 C 0 km/h
1469 26-03-2017 02:20:00 4.8 C 5.1 g/m*3 4.8 C 0 km/h
1470 26-03-2017 02:25:00 4.7 C 5.06 g/m*3 4.7 C 0 km/h
1471 26-03-2017 02:30:00 4.6 C 5.1 g/m*3 4.6 C 0 km/h
1472 26-03-2017 02:35:00 4.4 C 5.03 g/m*3 4.4 C 0 km/h
1473 26-03-2017 02:40:00 4.4 C 5.09 g/m*3 4.4 C 0 km/h
1474 26-03-2017 02:45:00 4.4 C 5.09 g/m*3 4.4 C 0 km/h
1475 26-03-2017 02:50:00 4.4 C 5.09 g/m*3 4.4 C 0 km/h
Sensor: Nr:Datum:Temp:Abs-Feuchte:Windchill:Wind:
Aussen-T/F 1476 26-03-2017 02:55:00 4.4 C 5.09 g/m*3 4.4 C 0 km/h
1477 26-03-2017 04:00:00 4.4 C 5.09 g/m*3 4.4 C 0 km/h
1478 26-03-2017 04:05:00 4.4 C 5.09 g/m*3 4.4 C 0 km/h
1479 26-03-2017 04:10:00 4.4 C 5.09 g/m*3 4.4 C 0 km/h
1480 26-03-2017 04:15:00 4.5 C 5.13 g/m*3 4.5 C 0 km/h
1481 26-03-2017 04:20:00 4.5 C 5.19 g/m*3 4.5 C 0 km/h
1482 26-03-2017 04:25:00 4.5 C 5.13 g/m*3 4.5 C 0 km/h
1483 26-03-2017 04:30:00 4.5 C 5.13 g/m*3 4.5 C 0 km/h
1484 26-03-2017 04:35:00 4.6 C 5.16 g/m*3 4.6 C 0 km/h
1485 26-03-2017 04:40:00 4.7 C 5.2 g/m*3 4.7 C 0 km/h
1486 26-03-2017 04:45:00 4.8 C 5.23 g/m*3 4.8 C 0 km/h
1487 26-03-2017 04:50:00 4.9 C 5.27 g/m*3 4.9 C 0 km/h
1488 26-03-2017 04:55:00 5 C 5.3 g/m*3 5 C 0 km/h
1489 26-03-2017 05:00:00 5 C 5.23 g/m*3 5 C 0 km/h
1490 26-03-2017 05:05:00 5.1 C 5.27 g/m*3 5.1 C 0 km/h
1491 26-03-2017 05:10:00 5.1 C 5.34 g/m*3 5.1 C 0 km/h
1492 26-03-2017 05:15:00 5 C 5.3 g/m*3 5 C 0 km/h
1493 26-03-2017 05:20:00 4.8 C 5.23 g/m*3 4.8 C 0 km/h
1494 26-03-2017 05:25:00 4.7 C 5.26 g/m*3 4.7 C 0 km/h
1495 26-03-2017 05:30:00 4.6 C 5.29 g/m*3 4.6 C 0 km/h
1496 26-03-2017 05:35:00 4.6 C 5.23 g/m*3 4.6 C 0 km/h
1497 26-03-2017 05:40:00 4.5 C 5.13 g/m*3 4.5 C 0 km/h
1498 26-03-2017 05:45:00 4.4 C 5.16 g/m*3 4.4 C 0 km/h
1499 26-03-2017 05:50:00 4.4 C 5.22 g/m*3 4.4 C 0 km/h
1500 26-03-2017 05:55:00 4.3 C 5.19 g/m*3 4.3 C 0 km/h
Sensor: Nr:Datum:Temp:Abs-Feuchte:Windchill:Wind:
Aussen-T/F 1501 26-03-2017 06:00:00 4.2 C 5.15 g/m*3 4.2 C 0 km/h
1502 26-03-2017 06:05:00 4.2 C 5.15 g/m*3 4.2 C 0 km/h
1503 26-03-2017 06:10:00 4.1 C 5.12 g/m*3 4.1 C 0 km/h
1504 26-03-2017 06:15:00 3.8 C 5.02 g/m*3 3.8 C 0 km/h
1505 26-03-2017 06:20:00 3.8 C 5.02 g/m*3 3.8 C 0 km/h
1506 26-03-2017 06:25:00 3.7 C 4.99 g/m*3 3.7 C 0 km/h
1507 26-03-2017 06:30:00 3.6 C 5.01 g/m*3 3.6 C 0 km/h
1508 26-03-2017 06:35:00 3.6 C 5.08 g/m*3 3.6 C 0 km/h
1509 26-03-2017 06:40:00 3.5 C 5.1 g/m*3 3.5 C 0 km/h
1510 26-03-2017 06:45:00 3.4 C 5.07 g/m*3 3.4 C 0 km/h
1511 26-03-2017 06:50:00 3.4 C 5.07 g/m*3 3.4 C 0 km/h
1512 26-03-2017 06:55:00 3.3 C 4.97 g/m*3 3.3 C 0 km/h
1513 26-03-2017 07:00:00 3.4 C 5.07 g/m*3 3.4 C 0 km/h
1514 26-03-2017 07:05:00 3.5 C 5.16 g/m*3 3.5 C 0 km/h
1515 26-03-2017 07:10:00 3.6 C 5.2 g/m*3 3.6 C 0 km/h
1516 26-03-2017 07:15:00 3.7 C 5.23 g/m*3 3.7 C 0 km/h
1517 26-03-2017 07:20:00 3.7 C 5.17 g/m*3 3.7 C 0 km/h
1518 26-03-2017 07:25:00 3.6 C 5.14 g/m*3 3.6 C 0 km/h
1519 26-03-2017 07:30:00 3.6 C 5.2 g/m*3 3.6 C 0 km/h
1520 26-03-2017 07:35:00 3.5 C 5.23 g/m*3 3.5 C 0 km/h
1521 26-03-2017 07:40:00 3.5 C 5.16 g/m*3 3.5 C 0 km/h
1522 26-03-2017 07:45:00 3.5 C 5.23 g/m*3 3.5 C 0 km/h
1523 26-03-2017 07:50:00 3.6 C 5.26 g/m*3 3.6 C 0 km/h
1524 26-03-2017 07:55:00 3.6 C 5.26 g/m*3 3.6 C 0 km/h
1525 26-03-2017 08:00:00 3.6 C 5.2 g/m*3 3.6 C 0 km/h
Sensor: Nr:Datum:Temp:Abs-Feuchte:Windchill:Wind:
Aussen-T/F 1526 26-03-2017 08:05:00 3.7 C 5.23 g/m*3 3.7 C 0 km/h
1527 26-03-2017 08:10:00 3.7 C 5.23 g/m*3 3.7 C 0 km/h
1528 26-03-2017 08:15:00 3.7 C 5.23 g/m*3 3.7 C 0 km/h
1529 26-03-2017 08:20:00 3.7 C 5.23 g/m*3 3.7 C 0 km/h
1530 26-03-2017 08:25:00 3.7 C 5.23 g/m*3 3.7 C 0 km/h
1531 26-03-2017 08:30:00 3.8 C 5.33 g/m*3 3.8 C 0 km/h
1532 26-03-2017 08:35:00 3.8 C 5.4 g/m*3 3.8 C 0 km/h
1533 26-03-2017 08:40:00 3.8 C 5.33 g/m*3 3.8 C 0 km/h
1534 26-03-2017 08:45:00 3.9 C 5.31 g/m*3 3.9 C 0 km/h
1535 26-03-2017 08:50:00 4 C 5.4 g/m*3 4 C 0 km/h
1536 26-03-2017 08:55:00 4.1 C 5.44 g/m*3 4.1 C 0 km/h
1537 26-03-2017 09:00:00 4.2 C 5.48 g/m*3 4.2 C 0 km/h
1538 26-03-2017 09:05:00 4.3 C 5.45 g/m*3 4.3 C 0 km/h
1539 26-03-2017 09:10:00 4.4 C 5.48 g/m*3 4.4 C 0 km/h
1540 26-03-2017 09:15:00 4.6 C 5.56 g/m*3 4.6 C 0 km/h
1541 26-03-2017 09:20:00 4.7 C 5.66 g/m*3 4.7 C 0 km/h
1542 26-03-2017 09:25:00 4.8 C 5.63 g/m*3 4.8 C 0 km/h
1543 26-03-2017 09:30:00 5 C 5.64 g/m*3 5 C 0 km/h
1544 26-03-2017 09:35:00 5.2 C 5.78 g/m*3 5.2 C 0 km/h
1545 26-03-2017 09:40:00 5.3 C 5.75 g/m*3 5.3 C 0 km/h
1546 26-03-2017 09:45:00 5.4 C 5.79 g/m*3 5.4 C 0 km/h
1547 26-03-2017 09:50:00 5.7 C 5.69 g/m*3 5.7 C 0 km/h
1548 26-03-2017 09:55:00 6.1 C 5.7 g/m*3 6.1 C 0 km/h
1549 26-03-2017 10:00:00 6.4 C 5.74 g/m*3 6.4 C 0 km/h
1550 26-03-2017 10:05:00 6.7 C 5.85 g/m*3 6.7 C 0 km/h
Sensor: Nr:Datum:Temp:Abs-Feuchte:Windchill:Wind:
Aussen-T/F 1551 26-03-2017 10:10:00 7 C 6.04 g/m*3 7 C 0 km/h
1552 26-03-2017 10:15:00 7.2 C 5.81 g/m*3 7.2 C 0 km/h
1553 26-03-2017 10:20:00 7.4 C 5.73 g/m*3 7.4 C 0 km/h
1554 26-03-2017 10:25:00 7.6 C 5.72 g/m*3 7.6 C 0 km/h
1555 26-03-2017 10:30:00 7.9 C 5.75 g/m*3 7.9 C 0 km/h
1556 26-03-2017 10:35:00 8.2 C 6.03 g/m*3 8.2 C 0 km/h
1557 26-03-2017 10:40:00 8.3 C 6.07 g/m*3 8.3 C 0 km/h
1558 26-03-2017 10:45:00 8.4 C 5.94 g/m*3 8.4 C 0 km/h
1559 26-03-2017 10:50:00 8.7 C 5.79 g/m*3 8.7 C 0 km/h
1560 26-03-2017 10:55:00 9 C 5.91 g/m*3 9 C 0 km/h
1561 26-03-2017 11:00:00 9.2 C 5.89 g/m*3 9.2 C 0 km/h
1562 26-03-2017 11:05:00 9.4 C 5.88 g/m*3 9.4 C 0 km/h
1563 26-03-2017 11:10:00 9.6 C 5.77 g/m*3 8.52 C 8.1 km/h
1564 26-03-2017 11:15:00 9.8 C 5.85 g/m*3 9.8 C 3.2 km/h
1565 26-03-2017 11:20:00 9.9 C 5.7 g/m*3 9.25 C 6.4 km/h
1566 26-03-2017 11:25:00 10.2 C 6 g/m*3 9.22 C 8.1 km/h
1567 26-03-2017 11:30:00 10.3 C 5.75 g/m*3 10.3 C 4.8 km/h
1568 26-03-2017 11:35:00 10.4 C 5.49 g/m*3 9.16 C 9.7 km/h
1569 26-03-2017 11:40:00 10.6 C 5.47 g/m*3 9.4 C 9.7 km/h
1570 26-03-2017 11:45:00 10.8 C 5.54 g/m*3 9.38 C 11.3 km/h
1571 26-03-2017 11:50:00 10.9 C 5.47 g/m*3 9.76 C 9.7 km/h
1572 26-03-2017 11:55:00 11.1 C 5.64 g/m*3 11.1 C 8.1 km/h
1573 26-03-2017 12:00:00 11.2 C 5.47 g/m*3 11.2 C 9.7 km/h
1574 26-03-2017 12:05:00 11.4 C 5.75 g/m*3 11.4 C 9.7 km/h
1575 26-03-2017 12:10:00 11.5 C 5.68 g/m*3 11.5 C 8.1 km/h
Sensor: Nr:Datum:Temp:Abs-Feuchte:Windchill:Wind:
Aussen-T/F 1576 26-03-2017 12:15:00 11.6 C 5.51 g/m*3 11.6 C 4.8 km/h
1577 26-03-2017 12:20:00 11.8 C 5.58 g/m*3 11.8 C 4.8 km/h
1578 26-03-2017 12:25:00 11.9 C 5.61 g/m*3 11.9 C 8.1 km/h
1579 26-03-2017 12:30:00 12 C 5.65 g/m*3 12 C 3.2 km/h
1580 26-03-2017 12:35:00 12.1 C 5.47 g/m*3 12.1 C 8.1 km/h
1581 26-03-2017 12:40:00 12.1 C 5.58 g/m*3 12.1 C 4.8 km/h
1582 26-03-2017 12:45:00 12.2 C 5.61 g/m*3 12.2 C 11.3 km/h
1583 26-03-2017 12:50:00 12.2 C 5.61 g/m*3 12.2 C 4.8 km/h
1584 26-03-2017 12:55:00 12.3 C 5.54 g/m*3 12.3 C 3.2 km/h
1585 26-03-2017 13:00:00 12.4 C 5.57 g/m*3 12.4 C 9.7 km/h
1586 26-03-2017 13:05:00 12.6 C 5.75 g/m*3 12.6 C 4.8 km/h
1587 26-03-2017 13:10:00 12.7 C 5.57 g/m*3 12.7 C 11.3 km/h
1588 26-03-2017 13:15:00 12.7 C 5.45 g/m*3 12.7 C 8.1 km/h
1589 26-03-2017 13:20:00 12.8 C 5.6 g/m*3 12.8 C 6.4 km/h
1590 26-03-2017 13:25:00 12.9 C 5.64 g/m*3 12.9 C 16.1 km/h
1591 26-03-2017 13:30:00 13.1 C 5.59 g/m*3 13.1 C 16.1 km/h
1592 26-03-2017 13:35:00 13.3 C 5.55 g/m*3 13.3 C 12.9 km/h
1593 26-03-2017 13:40:00 13.3 C 5.55 g/m*3 13.3 C 4.8 km/h
1594 26-03-2017 13:45:00 13.4 C 5.58 g/m*3 13.4 C 11.3 km/h
1595 26-03-2017 13:50:00 13.6 C 5.77 g/m*3 13.6 C 12.9 km/h
1596 26-03-2017 13:55:00 13.8 C 5.84 g/m*3 13.8 C 6.4 km/h
1597 26-03-2017 14:00:00 13.9 C 5.63 g/m*3 13.9 C 11.3 km/h
1598 26-03-2017 14:05:00 14 C 5.67 g/m*3 14 C 12.9 km/h
1599 26-03-2017 14:10:00 14.1 C 5.58 g/m*3 14.1 C 14.5 km/h
1600 26-03-2017 14:15:00 14.2 C 5.86 g/m*3 14.2 C 12.9 km/h
Sensor: Nr:Datum:Temp:Abs-Feuchte:Windchill:Wind:
Aussen-T/F 1601 26-03-2017 14:20:00 14.3 C 5.65 g/m*3 14.3 C 9.7 km/h
1602 26-03-2017 14:25:00 14.4 C 5.56 g/m*3 14.4 C 8.1 km/h
1603 26-03-2017 14:30:00 14.4 C 5.69 g/m*3 14.4 C 6.4 km/h
1604 26-03-2017 14:35:00 14.6 C 5.63 g/m*3 14.6 C 11.3 km/h
1605 26-03-2017 14:40:00 14.7 C 5.67 g/m*3 14.7 C 6.4 km/h
1606 26-03-2017 14:45:00 14.7 C 5.54 g/m*3 14.7 C 11.3 km/h
1607 26-03-2017 14:50:00 14.7 C 5.41 g/m*3 14.7 C 6.4 km/h
1608 26-03-2017 14:55:00 14.8 C 5.57 g/m*3 14.8 C 6.4 km/h
1609 26-03-2017 15:00:00 14.9 C 5.48 g/m*3 14.9 C 12.9 km/h
1610 26-03-2017 15:05:00 15.1 C 5.55 g/m*3 15.1 C 6.4 km/h
1611 26-03-2017 15:10:00 15.2 C 5.71 g/m*3 15.2 C 6.4 km/h
1612 26-03-2017 15:15:00 15.4 C 5.65 g/m*3 15.4 C 6.4 km/h
1613 26-03-2017 15:20:00 15.5 C 5.55 g/m*3 15.5 C 8.1 km/h
1614 26-03-2017 15:25:00 15.6 C 5.59 g/m*3 15.6 C 8.1 km/h
1615 26-03-2017 15:30:00 15.7 C 5.35 g/m*3 15.7 C 4.8 km/h
1616 26-03-2017 15:35:00 15.8 C 5.65 g/m*3 15.8 C 9.7 km/h
1617 26-03-2017 15:40:00 15.9 C 5.42 g/m*3 15.9 C 4.8 km/h
1618 26-03-2017 15:45:00 15.9 C 5.28 g/m*3 15.9 C 6.4 km/h
1619 26-03-2017 15:50:00 15.9 C 5.28 g/m*3 15.9 C 8.1 km/h
1620 26-03-2017 15:55:00 16 C 5.18 g/m*3 16 C 6.4 km/h
1621 26-03-2017 16:00:00 16 C 5.18 g/m*3 16 C 4.8 km/h
1622 26-03-2017 16:05:00 16.2 C 5.24 g/m*3 16.2 C 12.9 km/h
1623 26-03-2017 16:10:00 16.3 C 4.99 g/m*3 16.3 C 12.9 km/h
1624 26-03-2017 16:15:00 16.2 C 5.1 g/m*3 16.2 C 12.9 km/h
1625 26-03-2017 16:20:00 16.3 C 5.13 g/m*3 16.3 C 14.5 km/h
Sensor: Nr:Datum:Temp:Abs-Feuchte:Windchill:Wind:
Aussen-T/F 1626 26-03-2017 16:25:00 16.4 C 5.02 g/m*3 16.4 C 16.1 km/h
1627 26-03-2017 16:30:00 16.6 C 4.94 g/m*3 16.6 C 19.3 km/h
1628 26-03-2017 16:35:00 16.6 C 5.09 g/m*3 16.6 C 19.3 km/h
1629 26-03-2017 16:40:00 16.9 C 5.18 g/m*3 16.9 C 8.1 km/h
1630 26-03-2017 16:45:00 16.9 C 4.89 g/m*3 16.9 C 11.3 km/h
1631 26-03-2017 16:50:00 16.8 C 4.72 g/m*3 16.8 C 9.7 km/h
1632 26-03-2017 16:55:00 16.8 C 4.86 g/m*3 16.8 C 12.9 km/h
1633 26-03-2017 17:00:00 16.7 C 4.69 g/m*3 16.7 C 9.7 km/h
1634 26-03-2017 17:05:00 16.8 C 4.86 g/m*3 16.8 C 16.1 km/h
1635 26-03-2017 17:10:00 16.7 C 4.83 g/m*3 16.7 C 14.5 km/h
1636 26-03-2017 17:15:00 16.9 C 4.75 g/m*3 16.9 C 12.9 km/h
1637 26-03-2017 17:20:00 17.1 C 4.95 g/m*3 17.1 C 11.3 km/h
1638 26-03-2017 17:25:00 17.1 C 4.8 g/m*3 17.1 C 14.5 km/h
1639 26-03-2017 17:30:00 17.1 C 5.09 g/m*3 17.1 C 11.3 km/h
1640 26-03-2017 17:35:00 17.3 C 4.86 g/m*3 17.3 C 14.5 km/h
1641 26-03-2017 17:40:00 17.1 C 4.95 g/m*3 17.1 C 14.5 km/h
1642 26-03-2017 17:45:00 17 C 4.92 g/m*3 17 C 12.9 km/h
1643 26-03-2017 17:50:00 17 C 4.77 g/m*3 17 C 11.3 km/h
1644 26-03-2017 17:55:00 17.1 C 5.09 g/m*3 17.1 C 8.1 km/h
1645 26-03-2017 18:00:00 17.1 C 4.8 g/m*3 17.1 C 12.9 km/h
1646 26-03-2017 18:05:00 17 C 5.21 g/m*3 17 C 8.1 km/h
1647 26-03-2017 18:10:00 17.1 C 5.24 g/m*3 17.1 C 6.4 km/h
1648 26-03-2017 18:15:00 17.1 C 5.24 g/m*3 17.1 C 8.1 km/h
1649 26-03-2017 18:20:00 16.9 C 5.18 g/m*3 16.9 C 12.9 km/h
1650 26-03-2017 18:25:00 16.9 C 5.18 g/m*3 16.9 C 9.7 km/h
Sensor: Nr:Datum:Temp:Abs-Feuchte:Windchill:Wind:
Aussen-T/F 1651 26-03-2017 18:30:00 16.8 C 5.15 g/m*3 16.8 C 8.1 km/h
1652 26-03-2017 18:35:00 16.7 C 5.26 g/m*3 16.7 C 3.2 km/h
1653 26-03-2017 18:40:00 16.7 C 5.4 g/m*3 16.7 C 1.6 km/h
1654 26-03-2017 18:45:00 16.5 C 5.76 g/m*3 16.5 C 8.1 km/h
1655 26-03-2017 18:50:00 16.3 C 5.27 g/m*3 16.3 C 1.6 km/h
1656 26-03-2017 18:55:00 16.2 C 5.65 g/m*3 16.2 C 3.2 km/h
1657 26-03-2017 19:00:00 16.1 C 5.62 g/m*3 16.1 C 3.2 km/h
1658 26-03-2017 19:05:00 15.9 C 5.96 g/m*3 15.9 C 1.6 km/h
1659 26-03-2017 19:10:00 15.5 C 6.08 g/m*3 15.5 C 0 km/h
1660 26-03-2017 19:15:00 15.1 C 6.32 g/m*3 15.1 C 1.6 km/h
1661 26-03-2017 19:20:00 14.4 C 6.3 g/m*3 14.4 C 1.6 km/h
1662 26-03-2017 19:25:00 13.8 C 6.31 g/m*3 13.8 C 3.2 km/h
1663 26-03-2017 19:30:00 13.3 C 6.35 g/m*3 13.3 C 3.2 km/h
1664 26-03-2017 19:35:00 12.9 C 6.31 g/m*3 12.9 C 3.2 km/h
1665 26-03-2017 19:40:00 12.6 C 6.42 g/m*3 12.6 C 4.8 km/h
1666 26-03-2017 19:45:00 12.2 C 6.37 g/m*3 12.2 C 4.8 km/h
1667 26-03-2017 19:50:00 11.8 C 6.21 g/m*3 11.8 C 6.4 km/h
1668 26-03-2017 19:55:00 11.6 C 6.13 g/m*3 11.6 C 6.4 km/h
1669 26-03-2017 20:00:00 11.3 C 6.22 g/m*3 11.3 C 6.4 km/h
1670 26-03-2017 20:05:00 11.1 C 6.25 g/m*3 11.1 C 6.4 km/h
1671 26-03-2017 20:10:00 10.9 C 6.17 g/m*3 10.41 C 6.4 km/h
1672 26-03-2017 20:15:00 10.8 C 6.23 g/m*3 10.29 C 6.4 km/h
1673 26-03-2017 20:20:00 10.7 C 6.19 g/m*3 10.18 C 6.4 km/h
1674 26-03-2017 20:25:00 10.6 C 6.15 g/m*3 10.06 C 6.4 km/h
1675 26-03-2017 20:30:00 10.5 C 6.21 g/m*3 9.95 C 6.4 km/h
Sensor: Nr:Datum:Temp:Abs-Feuchte:Windchill:Wind:
Aussen-T/F 1676 26-03-2017 20:35:00 10.4 C 6.17 g/m*3 9.83 C 6.4 km/h
1677 26-03-2017 20:40:00 10.3 C 6.22 g/m*3 9.72 C 6.4 km/h
1678 26-03-2017 20:45:00 10.2 C 6.19 g/m*3 9.6 C 6.4 km/h
1679 26-03-2017 20:50:00 10.1 C 6.24 g/m*3 9.48 C 6.4 km/h
1680 26-03-2017 20:55:00 9.9 C 6.26 g/m*3 9.25 C 6.4 km/h
1681 26-03-2017 21:00:00 9.8 C 6.31 g/m*3 9.14 C 6.4 km/h
1682 26-03-2017 21:05:00 9.7 C 6.27 g/m*3 9.7 C 0 km/h
1683 26-03-2017 21:10:00 9.6 C 6.32 g/m*3 9.6 C 0 km/h
1684 26-03-2017 21:15:00 9.4 C 6.33 g/m*3 9.4 C 0 km/h
1685 26-03-2017 21:20:00 9.3 C 6.38 g/m*3 9.3 C 0 km/h
1686 26-03-2017 21:25:00 9.1 C 6.3 g/m*3 9.1 C 0 km/h
1687 26-03-2017 21:30:00 8.9 C 6.31 g/m*3 8.9 C 0 km/h
1688 26-03-2017 21:35:00 8.8 C 6.35 g/m*3 8.8 C 0 km/h
1689 26-03-2017 21:40:00 8.7 C 6.31 g/m*3 8.7 C 0 km/h
1690 26-03-2017 21:45:00 8.6 C 6.36 g/m*3 8.6 C 0 km/h
1691 26-03-2017 21:50:00 8.6 C 6.27 g/m*3 8.6 C 0 km/h
1692 26-03-2017 21:55:00 8.7 C 6.4 g/m*3 8.7 C 0 km/h
1693 26-03-2017 22:00:00 8.7 C 6.31 g/m*3 8.7 C 0 km/h
1694 26-03-2017 22:05:00 8.7 C 6.31 g/m*3 8.7 C 0 km/h
1695 26-03-2017 22:10:00 8.6 C 6.36 g/m*3 8.6 C 0 km/h
1696 26-03-2017 22:15:00 8.6 C 6.36 g/m*3 8.6 C 0 km/h
1697 26-03-2017 22:20:00 8.5 C 6.32 g/m*3 8.5 C 0 km/h
1698 26-03-2017 22:25:00 8.4 C 6.28 g/m*3 8.4 C 0 km/h
1699 26-03-2017 22:30:00 8.3 C 6.24 g/m*3 8.3 C 0 km/h
1700 26-03-2017 22:35:00 8.2 C 6.36 g/m*3 8.2 C 0 km/h
Sensor: Nr:Datum:Temp:Abs-Feuchte:Windchill:Wind:
Aussen-T/F 1701 26-03-2017 22:40:00 8.1 C 6.32 g/m*3 8.1 C 0 km/h
1702 26-03-2017 22:45:00 7.9 C 6.32 g/m*3 7.9 C 0 km/h
1703 26-03-2017 22:50:00 7.7 C 6.16 g/m*3 7.7 C 0 km/h
1704 26-03-2017 22:55:00 7.6 C 6.12 g/m*3 7.6 C 0 km/h
1705 26-03-2017 23:00:00 7.5 C 6.16 g/m*3 7.5 C 0 km/h
1706 26-03-2017 23:05:00 7.4 C 6.12 g/m*3 7.4 C 0 km/h
1707 26-03-2017 23:10:00 7.4 C 6.2 g/m*3 7.4 C 0 km/h
1708 26-03-2017 23:15:00 7.3 C 6.16 g/m*3 7.3 C 0 km/h
1709 26-03-2017 23:20:00 7.1 C 6.08 g/m*3 7.1 C 0 km/h
1710 26-03-2017 23:25:00 7 C 6.12 g/m*3 7 C 0 km/h
1711 26-03-2017 23:30:00 6.9 C 6.16 g/m*3 6.9 C 0 km/h
1712 26-03-2017 23:35:00 6.9 C 6.16 g/m*3 6.9 C 0 km/h
1713 26-03-2017 23:40:00 6.8 C 6.04 g/m*3 6.8 C 0 km/h
1714 26-03-2017 23:45:00 6.7 C 6.08 g/m*3 6.7 C 0 km/h
1715 26-03-2017 23:50:00 6.6 C 6.11 g/m*3 6.6 C 0 km/h
1716 26-03-2017 23:55:00 6.5 C 6.07 g/m*3 6.5 C 0 km/h
1717 27-03-2017 00:00:00 6.4 C 6.04 g/m*3 6.4 C 0 km/h
1718 27-03-2017 00:05:00 6.3 C 6.07 g/m*3 6.3 C 0 km/h
1719 27-03-2017 00:10:00 6.1 C 5.92 g/m*3 6.1 C 0 km/h
1720 27-03-2017 00:15:00 5.9 C 5.91 g/m*3 5.9 C 0 km/h
1721 27-03-2017 00:20:00 5.8 C 5.95 g/m*3 5.8 C 0 km/h
1722 27-03-2017 00:25:00 5.7 C 5.91 g/m*3 5.7 C 0 km/h
1723 27-03-2017 00:30:00 5.7 C 5.91 g/m*3 5.7 C 0 km/h
1724 27-03-2017 00:35:00 5.6 C 5.8 g/m*3 5.6 C 0 km/h
1725 27-03-2017 00:40:00 5.6 C 5.8 g/m*3 5.6 C 0 km/h
Sensor: Nr:Datum:Temp:Abs-Feuchte:Windchill:Wind:
Aussen-T/F 1726 27-03-2017 00:45:00 5.5 C 5.76 g/m*3 5.5 C 0 km/h
1727 27-03-2017 00:50:00 5.4 C 5.79 g/m*3 5.4 C 0 km/h
1728 27-03-2017 00:55:00 5.3 C 5.82 g/m*3 5.3 C 0 km/h
1729 27-03-2017 01:00:00 5.2 C 5.85 g/m*3 5.2 C 0 km/h
1730 27-03-2017 01:05:00 5.1 C 5.81 g/m*3 5.1 C 0 km/h
1731 27-03-2017 01:10:00 5.1 C 5.81 g/m*3 5.1 C 0 km/h
1732 27-03-2017 01:15:00 5 C 5.78 g/m*3 5 C 0 km/h
1733 27-03-2017 01:20:00 5 C 5.78 g/m*3 5 C 0 km/h
1734 27-03-2017 01:25:00 5.1 C 5.88 g/m*3 5.1 C 0 km/h
1735 27-03-2017 01:30:00 4.9 C 5.74 g/m*3 4.9 C 0 km/h
1736 27-03-2017 01:35:00 4.9 C 5.81 g/m*3 4.9 C 0 km/h
1737 27-03-2017 01:40:00 4.9 C 5.74 g/m*3 4.9 C 0 km/h
1738 27-03-2017 01:45:00 4.8 C 5.77 g/m*3 4.8 C 0 km/h
1739 27-03-2017 01:50:00 4.7 C 5.73 g/m*3 4.7 C 0 km/h
1740 27-03-2017 01:55:00 4.6 C 5.69 g/m*3 4.6 C 0 km/h
1741 27-03-2017 02:00:00 4.5 C 5.65 g/m*3 4.5 C 0 km/h
1742 27-03-2017 02:05:00 4.4 C 5.68 g/m*3 4.4 C 0 km/h
1743 27-03-2017 02:10:00 4.4 C 5.62 g/m*3 4.4 C 0 km/h
1744 27-03-2017 02:15:00 4.4 C 5.62 g/m*3 4.4 C 0 km/h
1745 27-03-2017 02:20:00 4.2 C 5.54 g/m*3 4.2 C 0 km/h
1746 27-03-2017 02:25:00 4.1 C 5.57 g/m*3 4.1 C 0 km/h
1747 27-03-2017 02:30:00 3.9 C 5.49 g/m*3 3.9 C 0 km/h
1748 27-03-2017 02:35:00 3.9 C 5.56 g/m*3 3.9 C 0 km/h
1749 27-03-2017 02:40:00 3.9 C 5.56 g/m*3 3.9 C 0 km/h
1750 27-03-2017 02:45:00 3.9 C 5.49 g/m*3 3.9 C 0 km/h
Sensor: Nr:Datum:Temp:Abs-Feuchte:Windchill:Wind:
Aussen-T/F 1751 27-03-2017 02:50:00 4 C 5.59 g/m*3 4 C 0 km/h
1752 27-03-2017 02:55:00 4 C 5.53 g/m*3 4 C 0 km/h
1753 27-03-2017 03:00:00 3.9 C 5.43 g/m*3 3.9 C 0 km/h
1754 27-03-2017 03:05:00 3.8 C 5.4 g/m*3 3.8 C 0 km/h
1755 27-03-2017 03:10:00 3.8 C 5.46 g/m*3 3.8 C 0 km/h
1756 27-03-2017 03:15:00 3.8 C 5.46 g/m*3 3.8 C 0 km/h
1757 27-03-2017 03:20:00 3.8 C 5.4 g/m*3 3.8 C 0 km/h
1758 27-03-2017 03:25:00 3.6 C 5.32 g/m*3 3.6 C 0 km/h
1759 27-03-2017 03:30:00 3.6 C 5.39 g/m*3 3.6 C 0 km/h
1760 27-03-2017 03:35:00 3.5 C 5.35 g/m*3 3.5 C 0 km/h
1761 27-03-2017 03:40:00 3.3 C 5.28 g/m*3 3.3 C 0 km/h
1762 27-03-2017 03:45:00 3.2 C 5.24 g/m*3 3.2 C 0 km/h
1763 27-03-2017 03:50:00 3.2 C 5.3 g/m*3 3.2 C 0 km/h
1764 27-03-2017 03:55:00 3.2 C 5.3 g/m*3 3.2 C 0 km/h
1765 27-03-2017 04:00:00 3.1 C 5.27 g/m*3 3.1 C 0 km/h
1766 27-03-2017 04:05:00 2.9 C 5.2 g/m*3 2.9 C 0 km/h
1767 27-03-2017 04:10:00 2.8 C 5.16 g/m*3 2.8 C 0 km/h
1768 27-03-2017 04:15:00 2.7 C 5.13 g/m*3 2.7 C 0 km/h
1769 27-03-2017 04:20:00 2.6 C 5.09 g/m*3 2.6 C 0 km/h
1770 27-03-2017 04:25:00 2.5 C 5.12 g/m*3 2.5 C 0 km/h
1771 27-03-2017 04:30:00 2.4 C 5.08 g/m*3 2.4 C 0 km/h
1772 27-03-2017 04:35:00 2.4 C 5.08 g/m*3 2.4 C 0 km/h
1773 27-03-2017 04:40:00 2.4 C 5.08 g/m*3 2.4 C 0 km/h
1774 27-03-2017 04:45:00 2.5 C 5.12 g/m*3 2.5 C 0 km/h
1775 27-03-2017 04:50:00 2.4 C 5.08 g/m*3 2.4 C 0 km/h
Sensor: Nr:Datum:Temp:Abs-Feuchte:Windchill:Wind:
Aussen-T/F 1776 27-03-2017 04:55:00 2.4 C 5.08 g/m*3 2.4 C 0 km/h
1777 27-03-2017 05:00:00 2.3 C 4.99 g/m*3 2.3 C 0 km/h
1778 27-03-2017 05:05:00 2.2 C 5.01 g/m*3 2.2 C 0 km/h
1779 27-03-2017 05:10:00 2.3 C 5.05 g/m*3 2.3 C 0 km/h
1780 27-03-2017 05:15:00 2.3 C 5.05 g/m*3 2.3 C 0 km/h
1781 27-03-2017 05:20:00 2.2 C 5.01 g/m*3 2.2 C 0 km/h
1782 27-03-2017 05:25:00 2.1 C 4.98 g/m*3 2.1 C 0 km/h
1783 27-03-2017 05:30:00 2.1 C 4.98 g/m*3 2.1 C 0 km/h
1784 27-03-2017 05:35:00 2.1 C 4.98 g/m*3 2.1 C 0 km/h
1785 27-03-2017 05:40:00 1.9 C 4.91 g/m*3 1.9 C 0 km/h
1786 27-03-2017 05:45:00 1.8 C 4.88 g/m*3 1.8 C 0 km/h
1787 27-03-2017 05:50:00 1.8 C 4.93 g/m*3 1.8 C 0 km/h
1788 27-03-2017 05:55:00 1.8 C 4.93 g/m*3 1.8 C 0 km/h
1789 27-03-2017 06:00:00 1.8 C 4.93 g/m*3 1.8 C 0 km/h
1790 27-03-2017 06:05:00 1.7 C 4.9 g/m*3 1.7 C 0 km/h
1791 27-03-2017 06:10:00 1.6 C 4.87 g/m*3 1.6 C 0 km/h
1792 27-03-2017 06:15:00 1.6 C 4.87 g/m*3 1.6 C 0 km/h
1793 27-03-2017 06:20:00 1.5 C 4.83 g/m*3 1.5 C 0 km/h
1794 27-03-2017 06:25:00 1.4 C 4.85 g/m*3 1.4 C 0 km/h
1795 27-03-2017 06:30:00 1.4 C 4.85 g/m*3 1.4 C 0 km/h
1796 27-03-2017 06:35:00 1.5 C 4.89 g/m*3 1.5 C 0 km/h
1797 27-03-2017 06:40:00 1.4 C 4.91 g/m*3 1.4 C 0 km/h
1798 27-03-2017 06:45:00 1.5 C 4.94 g/m*3 1.5 C 0 km/h
1799 27-03-2017 06:50:00 1.3 C 4.82 g/m*3 1.3 C 0 km/h
1800 27-03-2017 06:55:00 1.3 C 4.87 g/m*3 1.3 C 0 km/h
Sensor: Nr:Datum:Temp:Abs-Feuchte:Windchill:Wind:
Aussen-T/F 1801 27-03-2017 07:00:00 1.3 C 4.87 g/m*3 1.3 C 0 km/h
1802 27-03-2017 07:05:00 1.2 C 4.79 g/m*3 1.2 C 0 km/h
1803 27-03-2017 07:10:00 1 C 4.72 g/m*3 1 C 0 km/h
1804 27-03-2017 07:15:00 0.8 C 4.66 g/m*3 0.8 C 0 km/h
1805 27-03-2017 07:20:00 0.8 C 4.71 g/m*3 0.8 C 0 km/h
1806 27-03-2017 07:25:00 0.9 C 4.79 g/m*3 0.9 C 0 km/h
1807 27-03-2017 07:30:00 1 C 4.83 g/m*3 1 C 0 km/h
1808 27-03-2017 07:35:00 1 C 4.83 g/m*3 1 C 0 km/h
1809 27-03-2017 07:40:00 1.1 C 4.86 g/m*3 1.1 C 0 km/h
1810 27-03-2017 07:45:00 1.1 C 4.86 g/m*3 1.1 C 0 km/h
1811 27-03-2017 07:50:00 0.9 C 4.74 g/m*3 0.9 C 0 km/h
1812 27-03-2017 07:55:00 0.9 C 4.79 g/m*3 0.9 C 0 km/h
1813 27-03-2017 08:00:00 0.9 C 4.79 g/m*3 0.9 C 0 km/h
1814 27-03-2017 08:05:00 0.9 C 4.79 g/m*3 0.9 C 0 km/h
1815 27-03-2017 08:10:00 0.9 C 4.79 g/m*3 0.9 C 0 km/h
1816 27-03-2017 08:15:00 1 C 4.83 g/m*3 1 C 0 km/h
1817 27-03-2017 08:20:00 1.1 C 4.86 g/m*3 1.1 C 0 km/h
1818 27-03-2017 08:25:00 1.1 C 4.86 g/m*3 1.1 C 0 km/h
1819 27-03-2017 08:30:00 1.2 C 4.89 g/m*3 1.2 C 0 km/h
1820 27-03-2017 08:35:00 1.3 C 4.93 g/m*3 1.3 C 0 km/h
1821 27-03-2017 08:40:00 1.3 C 4.93 g/m*3 1.3 C 0 km/h
1822 27-03-2017 08:45:00 1.3 C 4.93 g/m*3 1.3 C 0 km/h
1823 27-03-2017 08:50:00 1.4 C 4.96 g/m*3 1.4 C 0 km/h
1824 27-03-2017 08:55:00 1.4 C 4.96 g/m*3 1.4 C 0 km/h
1825 27-03-2017 09:00:00 1.5 C 4.99 g/m*3 1.5 C 0 km/h
Sensor: Nr:Datum:Temp:Abs-Feuchte:Windchill:Wind:
Aussen-T/F 1826 27-03-2017 09:05:00 1.6 C 5.03 g/m*3 1.6 C 0 km/h
1827 27-03-2017 09:10:00 1.7 C 5.06 g/m*3 1.7 C 0 km/h
1828 27-03-2017 09:15:00 1.7 C 5.06 g/m*3 1.7 C 0 km/h
1829 27-03-2017 09:20:00 1.8 C 5.1 g/m*3 1.8 C 0 km/h
1830 27-03-2017 09:25:00 1.9 C 5.13 g/m*3 1.9 C 0 km/h
1831 27-03-2017 09:30:00 1.9 C 5.13 g/m*3 1.9 C 0 km/h
1832 27-03-2017 09:35:00 2.1 C 5.2 g/m*3 2.1 C 0 km/h
1833 27-03-2017 09:40:00 2.2 C 5.24 g/m*3 2.2 C 0 km/h
1834 27-03-2017 09:45:00 2.3 C 5.27 g/m*3 2.3 C 0 km/h
1835 27-03-2017 09:50:00 2.4 C 5.31 g/m*3 2.4 C 0 km/h
1836 27-03-2017 09:55:00 2.6 C 5.38 g/m*3 2.6 C 0 km/h
1837 27-03-2017 10:00:00 2.7 C 5.42 g/m*3 2.7 C 0 km/h
1838 27-03-2017 10:05:00 2.9 C 5.49 g/m*3 2.9 C 0 km/h
1839 27-03-2017 10:10:00 3.2 C 5.54 g/m*3 3.2 C 0 km/h
1840 27-03-2017 10:15:00 3.3 C 5.52 g/m*3 3.3 C 0 km/h
1841 27-03-2017 10:20:00 3.6 C 5.63 g/m*3 3.6 C 0 km/h
1842 27-03-2017 10:25:00 3.9 C 5.68 g/m*3 3.9 C 0 km/h
1843 27-03-2017 10:30:00 4.2 C 5.73 g/m*3 4.2 C 0 km/h
1844 27-03-2017 10:35:00 4.6 C 5.82 g/m*3 4.6 C 0 km/h
1845 27-03-2017 10:40:00 4.9 C 5.81 g/m*3 4.9 C 0 km/h
1846 27-03-2017 10:45:00 5.3 C 5.89 g/m*3 5.3 C 0 km/h
1847 27-03-2017 10:50:00 5.8 C 5.95 g/m*3 5.8 C 0 km/h
1848 27-03-2017 10:55:00 6.3 C 6 g/m*3 6.3 C 0 km/h
1849 27-03-2017 11:00:00 6.8 C 5.89 g/m*3 6.8 C 0 km/h
1850 27-03-2017 11:05:00 7.3 C 6.08 g/m*3 7.3 C 0 km/h
Sensor: Nr:Datum:Temp:Abs-Feuchte:Windchill:Wind:
Aussen-T/F 1851 27-03-2017 11:10:00 7.7 C 6.16 g/m*3 7.7 C 0 km/h
1852 27-03-2017 11:15:00 8 C 6.04 g/m*3 8 C 0 km/h
1853 27-03-2017 11:20:00 8.3 C 6.07 g/m*3 8.3 C 0 km/h
1854 27-03-2017 11:25:00 8.6 C 6.19 g/m*3 8.6 C 0 km/h
1855 27-03-2017 11:30:00 8.8 C 6.18 g/m*3 8.8 C 0 km/h
1856 27-03-2017 11:35:00 9 C 5.91 g/m*3 9 C 0 km/h
1857 27-03-2017 11:40:00 9.3 C 5.75 g/m*3 9.3 C 4.8 km/h
1858 27-03-2017 11:45:00 9.8 C 5.85 g/m*3 9.8 C 4.8 km/h
1859 27-03-2017 11:50:00 10.2 C 6.09 g/m*3 10.2 C 3.2 km/h
1860 27-03-2017 11:55:00 10.4 C 5.59 g/m*3 10.4 C 3.2 km/h
1861 27-03-2017 12:00:00 10.8 C 5.63 g/m*3 10.8 C 3.2 km/h
1862 27-03-2017 12:05:00 11 C 5.51 g/m*3 11 C 1.6 km/h
1863 27-03-2017 12:10:00 11.3 C 5.51 g/m*3 11.3 C 1.6 km/h
1864 27-03-2017 12:15:00 11.6 C 5.82 g/m*3 11.6 C 3.2 km/h
1865 27-03-2017 12:20:00 11.9 C 5.72 g/m*3 11.9 C 6.4 km/h
1866 27-03-2017 12:25:00 12.2 C 5.72 g/m*3 12.2 C 4.8 km/h
1867 27-03-2017 12:30:00 12.3 C 5.43 g/m*3 12.3 C 3.2 km/h
1868 27-03-2017 12:35:00 12.7 C 5.12 g/m*3 12.7 C 12.9 km/h
1869 27-03-2017 12:40:00 13 C 5.33 g/m*3 13 C 12.9 km/h
1870 27-03-2017 12:45:00 13.3 C 4.85 g/m*3 13.3 C 8.1 km/h
1871 27-03-2017 12:50:00 13.7 C 4.62 g/m*3 13.7 C 11.3 km/h
1872 27-03-2017 12:55:00 14 C 4.7 g/m*3 14 C 14.5 km/h
1873 27-03-2017 13:00:00 14.2 C 4.4 g/m*3 14.2 C 17.7 km/h
1874 27-03-2017 13:05:00 14.3 C 4.18 g/m*3 14.3 C 12.9 km/h
1875 27-03-2017 13:10:00 14.4 C 4.33 g/m*3 14.4 C 11.3 km/h
Sensor: Nr:Datum:Temp:Abs-Feuchte:Windchill:Wind:
Aussen-T/F 1876 27-03-2017 13:15:00 14.7 C 4.28 g/m*3 14.7 C 12.9 km/h
1877 27-03-2017 13:20:00 14.8 C 4.05 g/m*3 14.8 C 11.3 km/h
1878 27-03-2017 13:25:00 14.9 C 4.21 g/m*3 14.9 C 14.5 km/h
1879 27-03-2017 13:30:00 15 C 4.23 g/m*3 15 C 11.3 km/h
1880 27-03-2017 13:35:00 15 C 4.1 g/m*3 15 C 12.9 km/h
1881 27-03-2017 13:40:00 15.1 C 4.39 g/m*3 15.1 C 17.7 km/h
1882 27-03-2017 13:45:00 15.1 C 4 g/m*3 15.1 C 8.1 km/h
1883 27-03-2017 13:50:00 15.2 C 4.41 g/m*3 15.2 C 6.4 km/h
1884 27-03-2017 13:55:00 15.3 C 3.92 g/m*3 15.3 C 17.7 km/h
1885 27-03-2017 14:00:00 15.3 C 3.92 g/m*3 15.3 C 12.9 km/h
1886 27-03-2017 14:05:00 15.4 C 3.94 g/m*3 15.4 C 14.5 km/h
1887 27-03-2017 14:10:00 15.5 C 4.1 g/m*3 15.5 C 12.9 km/h
1888 27-03-2017 14:15:00 15.7 C 4.01 g/m*3 15.7 C 8.1 km/h
1889 27-03-2017 14:20:00 15.8 C 3.9 g/m*3 15.8 C 12.9 km/h
1890 27-03-2017 14:25:00 15.8 C 4.04 g/m*3 15.8 C 14.5 km/h
1891 27-03-2017 14:30:00 15.9 C 4.06 g/m*3 15.9 C 11.3 km/h
1892 27-03-2017 14:35:00 16.1 C 4.11 g/m*3 16.1 C 17.7 km/h
1893 27-03-2017 14:40:00 16.2 C 4.14 g/m*3 16.2 C 12.9 km/h
1894 27-03-2017 14:45:00 16.4 C 4.05 g/m*3 16.4 C 11.3 km/h
1895 27-03-2017 14:50:00 16.5 C 4.07 g/m*3 16.5 C 11.3 km/h
1896 27-03-2017 14:55:00 16.7 C 4.12 g/m*3 16.7 C 8.1 km/h
1897 27-03-2017 15:00:00 16.8 C 4 g/m*3 16.8 C 11.3 km/h
1898 27-03-2017 15:05:00 16.8 C 4.29 g/m*3 16.8 C 11.3 km/h
1899 27-03-2017 15:10:00 16.9 C 4.17 g/m*3 16.9 C 12.9 km/h
1900 27-03-2017 15:15:00 16.8 C 4 g/m*3 16.8 C 16.1 km/h
Sensor: Nr:Datum:Temp:Abs-Feuchte:Windchill:Wind:
Aussen-T/F 1901 27-03-2017 15:20:00 16.8 C 4 g/m*3 16.8 C 9.7 km/h
1902 27-03-2017 15:25:00 16.9 C 4.03 g/m*3 16.9 C 12.9 km/h
1903 27-03-2017 15:30:00 17 C 3.91 g/m*3 17 C 16.1 km/h
1904 27-03-2017 15:35:00 17.1 C 4.08 g/m*3 17.1 C 11.3 km/h
1905 27-03-2017 15:40:00 17.2 C 3.81 g/m*3 17.2 C 8.1 km/h
1906 27-03-2017 15:45:00 17.3 C 4.12 g/m*3 17.3 C 9.7 km/h
1907 27-03-2017 15:50:00 17.2 C 3.81 g/m*3 17.2 C 12.9 km/h
1908 27-03-2017 15:55:00 17.3 C 3.83 g/m*3 17.3 C 8.1 km/h
1909 27-03-2017 16:00:00 17.4 C 3.85 g/m*3 17.4 C 6.4 km/h
1910 27-03-2017 16:05:00 17.6 C 4.2 g/m*3 17.6 C 6.4 km/h
1911 27-03-2017 16:10:00 17.8 C 4.1 g/m*3 17.8 C 9.7 km/h
1912 27-03-2017 16:15:00 17.9 C 4.12 g/m*3 17.9 C 9.7 km/h
1913 27-03-2017 16:20:00 17.9 C 4.12 g/m*3 17.9 C 16.1 km/h
1914 27-03-2017 16:25:00 18 C 3.99 g/m*3 18 C 6.4 km/h
1915 27-03-2017 16:30:00 18.2 C 4.04 g/m*3 18.2 C 8.1 km/h
1916 27-03-2017 16:35:00 18.3 C 4.07 g/m*3 18.3 C 8.1 km/h
1917 27-03-2017 16:40:00 18.5 C 4.11 g/m*3 18.5 C 11.3 km/h
1918 27-03-2017 16:45:00 18.6 C 4.14 g/m*3 18.6 C 6.4 km/h
1919 27-03-2017 16:50:00 18.7 C 4 g/m*3 18.7 C 11.3 km/h
1920 27-03-2017 16:55:00 18.9 C 4.05 g/m*3 18.9 C 9.7 km/h
1921 27-03-2017 17:00:00 19.1 C 4.26 g/m*3 19.1 C 8.1 km/h
1922 27-03-2017 17:05:00 19.3 C 4.15 g/m*3 19.3 C 8.1 km/h
1923 27-03-2017 17:10:00 19.5 C 4.03 g/m*3 19.5 C 12.9 km/h
1924 27-03-2017 17:15:00 19.5 C 4.2 g/m*3 19.5 C 8.1 km/h
1925 27-03-2017 17:20:00 19.6 C 4.39 g/m*3 19.6 C 8.1 km/h
Sensor: Nr:Datum:Temp:Abs-Feuchte:Windchill:Wind:
Aussen-T/F 1926 27-03-2017 17:25:00 19.9 C 4.3 g/m*3 19.9 C 6.4 km/h
1927 27-03-2017 17:30:00 20.2 C 4.37 g/m*3 20.2 C 8.1 km/h
1928 27-03-2017 17:35:00 20.2 C 4.2 g/m*3 20.2 C 8.1 km/h
1929 27-03-2017 17:40:00 20.3 C 4.05 g/m*3 20.3 C 9.7 km/h
1930 27-03-2017 17:45:00 20.2 C 3.85 g/m*3 20.2 C 4.8 km/h
1931 27-03-2017 17:50:00 20.1 C 4.52 g/m*3 20.1 C 8.1 km/h
1932 27-03-2017 17:55:00 20.3 C 4.75 g/m*3 20.3 C 6.4 km/h
1933 27-03-2017 18:00:00 20.4 C 4.6 g/m*3 20.4 C 3.2 km/h
1934 27-03-2017 18:05:00 20.7 C 4.68 g/m*3 20.7 C 8.1 km/h
1935 27-03-2017 18:10:00 20.7 C 4.32 g/m*3 20.7 C 8.1 km/h
1936 27-03-2017 18:15:00 20.4 C 4.07 g/m*3 20.4 C 6.4 km/h
1937 27-03-2017 18:20:00 20.3 C 4.22 g/m*3 20.3 C 4.8 km/h
1938 27-03-2017 18:25:00 20.2 C 4.55 g/m*3 20.2 C 8.1 km/h
1939 27-03-2017 18:30:00 20.3 C 4.75 g/m*3 20.3 C 6.4 km/h
1940 27-03-2017 18:35:00 20.3 C 4.4 g/m*3 20.3 C 6.4 km/h
1941 27-03-2017 18:40:00 20.3 C 4.4 g/m*3 20.3 C 6.4 km/h
1942 27-03-2017 18:45:00 20.3 C 5.1 g/m*3 20.3 C 4.8 km/h
1943 27-03-2017 18:50:00 20.1 C 5.56 g/m*3 20.1 C 6.4 km/h
1944 27-03-2017 18:55:00 19.7 C 5.6 g/m*3 19.7 C 0 km/h
1945 27-03-2017 19:00:00 19.3 C 5.81 g/m*3 19.3 C 6.4 km/h
1946 27-03-2017 19:05:00 18.8 C 5.48 g/m*3 18.8 C 4.8 km/h
1947 27-03-2017 19:10:00 18.4 C 5.82 g/m*3 18.4 C 4.8 km/h
1948 27-03-2017 19:15:00 18 C 5.84 g/m*3 18 C 1.6 km/h
1949 27-03-2017 19:20:00 17.6 C 5.85 g/m*3 17.6 C 4.8 km/h
1950 27-03-2017 19:25:00 17 C 5.64 g/m*3 17 C 4.8 km/h
Sensor: Nr:Datum:Temp:Abs-Feuchte:Windchill:Wind:
Aussen-T/F 1951 27-03-2017 19:30:00 16.3 C 5.55 g/m*3 16.3 C 3.2 km/h
1952 27-03-2017 19:35:00 15.7 C 5.75 g/m*3 15.7 C 4.8 km/h
1953 27-03-2017 19:40:00 15.1 C 5.68 g/m*3 15.1 C 6.4 km/h
1954 27-03-2017 19:45:00 14.3 C 5.53 g/m*3 14.3 C 6.4 km/h
1955 27-03-2017 19:50:00 13.7 C 5.8 g/m*3 13.7 C 6.4 km/h
1956 27-03-2017 19:55:00 13.1 C 5.48 g/m*3 13.1 C 4.8 km/h
1957 27-03-2017 20:00:00 12.6 C 5.64 g/m*3 12.6 C 6.4 km/h
1958 27-03-2017 20:05:00 12.1 C 5.58 g/m*3 12.1 C 6.4 km/h
1959 27-03-2017 20:10:00 11.7 C 5.65 g/m*3 11.7 C 6.4 km/h
1960 27-03-2017 20:15:00 11.4 C 5.44 g/m*3 11.4 C 6.4 km/h
1961 27-03-2017 20:20:00 11.3 C 5.51 g/m*3 11.3 C 6.4 km/h
1962 27-03-2017 20:25:00 11.1 C 5.54 g/m*3 11.1 C 6.4 km/h
1963 27-03-2017 20:30:00 10.9 C 5.27 g/m*3 10.04 C 8.1 km/h
1964 27-03-2017 20:35:00 10.9 C 5.37 g/m*3 10.04 C 8.1 km/h
1965 27-03-2017 20:40:00 10.9 C 5.27 g/m*3 10.04 C 8.1 km/h
1966 27-03-2017 20:45:00 10.8 C 5.34 g/m*3 9.93 C 8.1 km/h
1967 27-03-2017 20:50:00 10.8 C 5.44 g/m*3 9.93 C 8.1 km/h
1968 27-03-2017 20:55:00 10.7 C 5.7 g/m*3 10.7 C 4.8 km/h
1969 27-03-2017 21:00:00 10.5 C 5.63 g/m*3 10.5 C 1.6 km/h
1970 27-03-2017 21:05:00 10.3 C 5.75 g/m*3 10.3 C 0 km/h
1971 27-03-2017 21:10:00 10.1 C 5.77 g/m*3 9.48 C 6.4 km/h
1972 27-03-2017 21:15:00 9.9 C 5.51 g/m*3 8.87 C 8.1 km/h
1973 27-03-2017 21:20:00 10.1 C 5.58 g/m*3 10.1 C 4.8 km/h
1974 27-03-2017 21:25:00 9.9 C 5.7 g/m*3 9.9 C 1.6 km/h
1975 27-03-2017 21:30:00 9.8 C 5.66 g/m*3 9.8 C 3.2 km/h
Sensor: Nr:Datum:Temp:Abs-Feuchte:Windchill:Wind:
Aussen-T/F 1976 27-03-2017 21:35:00 9.6 C 5.5 g/m*3 9.6 C 4.8 km/h
1977 27-03-2017 21:40:00 9.6 C 5.59 g/m*3 9.6 C 0 km/h
1978 27-03-2017 21:45:00 9.4 C 5.7 g/m*3 9.4 C 0 km/h
1979 27-03-2017 21:50:00 9.2 C 5.71 g/m*3 9.2 C 0 km/h
1980 27-03-2017 21:55:00 8.9 C 5.52 g/m*3 8.9 C 0 km/h
1981 27-03-2017 22:00:00 8.8 C 5.57 g/m*3 8.8 C 4.8 km/h
1982 27-03-2017 22:05:00 8.8 C 5.57 g/m*3 8.8 C 0 km/h
1983 27-03-2017 22:10:00 8.7 C 5.62 g/m*3 8.7 C 0 km/h
1984 27-03-2017 22:15:00 8.6 C 5.59 g/m*3 8.6 C 0 km/h
1985 27-03-2017 22:20:00 8.3 C 5.56 g/m*3 8.3 C 1.6 km/h
1986 27-03-2017 22:25:00 8.1 C 5.57 g/m*3 8.1 C 0 km/h
1987 27-03-2017 22:30:00 7.8 C 5.47 g/m*3 7.8 C 0 km/h
1988 27-03-2017 22:35:00 7.7 C 5.35 g/m*3 7.7 C 0 km/h
1989 27-03-2017 22:40:00 7.5 C 5.28 g/m*3 7.5 C 0 km/h
1990 27-03-2017 22:45:00 7.4 C 5.33 g/m*3 7.4 C 0 km/h
1991 27-03-2017 22:50:00 7.3 C 5.29 g/m*3 7.3 C 0 km/h
1992 27-03-2017 22:55:00 7.2 C 5.18 g/m*3 7.2 C 0 km/h
1993 27-03-2017 23:00:00 7.1 C 5.23 g/m*3 7.1 C 0 km/h
1994 27-03-2017 23:05:00 6.9 C 5.23 g/m*3 6.9 C 0 km/h
1995 27-03-2017 23:10:00 6.9 C 5.23 g/m*3 6.9 C 0 km/h
1996 27-03-2017 23:15:00 6.8 C 5.2 g/m*3 6.8 C 0 km/h
1997 27-03-2017 23:20:00 6.8 C 5.2 g/m*3 6.8 C 0 km/h
1998 27-03-2017 23:25:00 6.6 C 5.28 g/m*3 6.6 C 0 km/h
1999 27-03-2017 23:30:00 6.3 C 5.18 g/m*3 6.3 C 0 km/h
2000 27-03-2017 23:35:00 6.2 C 5.22 g/m*3 6.2 C 0 km/h
Sensor: Nr:Datum:Temp:Abs-Feuchte:Windchill:Wind:
Aussen-T/F 2001 27-03-2017 23:40:00 6.1 C 5.26 g/m*3 6.1 C 0 km/h
2002 27-03-2017 23:45:00 6 C 5.23 g/m*3 6 C 0 km/h
2003 27-03-2017 23:50:00 5.9 C 5.41 g/m*3 5.9 C 0 km/h
2004 27-03-2017 23:55:00 5.8 C 5.37 g/m*3 5.8 C 0 km/h
2005 28-03-2017 00:00:00 5.8 C 5.37 g/m*3 5.8 C 0 km/h
2006 28-03-2017 00:05:00 5.9 C 5.26 g/m*3 5.9 C 1.6 km/h
2007 28-03-2017 00:10:00 6.3 C 5.33 g/m*3 6.3 C 0 km/h
2008 28-03-2017 00:15:00 6.5 C 5.32 g/m*3 6.5 C 1.6 km/h
2009 28-03-2017 00:20:00 6.5 C 5.4 g/m*3 6.5 C 1.6 km/h
2010 28-03-2017 00:25:00 6.4 C 5.36 g/m*3 6.4 C 0 km/h
2011 28-03-2017 00:30:00 6.2 C 5.29 g/m*3 6.2 C 0 km/h
2012 28-03-2017 00:35:00 5.8 C 5.23 g/m*3 5.8 C 0 km/h
2013 28-03-2017 00:40:00 5.6 C 5.3 g/m*3 5.6 C 0 km/h
2014 28-03-2017 00:45:00 5.3 C 5.2 g/m*3 5.3 C 0 km/h
2015 28-03-2017 00:50:00 5.1 C 5.2 g/m*3 5.1 C 0 km/h
2016 28-03-2017 00:55:00 4.9 C 5.2 g/m*3 4.9 C 0 km/h
2017 28-03-2017 01:00:00 4.8 C 5.23 g/m*3 4.8 C 0 km/h
2018 28-03-2017 01:05:00 4.7 C 5.2 g/m*3 4.7 C 0 km/h
2019 28-03-2017 01:10:00 4.6 C 5.16 g/m*3 4.6 C 1.6 km/h
2020 28-03-2017 01:15:00 4.6 C 5.23 g/m*3 4.6 C 0 km/h
2021 28-03-2017 01:20:00 4.7 C 5.33 g/m*3 4.7 C 0 km/h
2022 28-03-2017 01:25:00 4.6 C 5.29 g/m*3 4.6 C 0 km/h
2023 28-03-2017 01:30:00 4.5 C 5.26 g/m*3 4.5 C 0 km/h
2024 28-03-2017 01:35:00 4.4 C 5.29 g/m*3 4.4 C 0 km/h
2025 28-03-2017 01:40:00 4.4 C 5.22 g/m*3 4.4 C 0 km/h
Sensor: Nr:Datum:Temp:Abs-Feuchte:Windchill:Wind:
Aussen-T/F 2026 28-03-2017 01:45:00 4.3 C 5.19 g/m*3 4.3 C 0 km/h
2027 28-03-2017 01:50:00 4.3 C 5.19 g/m*3 4.3 C 0 km/h
2028 28-03-2017 01:55:00 4.3 C 5.19 g/m*3 4.3 C 0 km/h
2029 28-03-2017 02:00:00 4.2 C 5.15 g/m*3 4.2 C 0 km/h
2030 28-03-2017 02:05:00 4.3 C 5.19 g/m*3 4.3 C 0 km/h
2031 28-03-2017 02:10:00 4.3 C 5.12 g/m*3 4.3 C 0 km/h
2032 28-03-2017 02:15:00 4.2 C 5.15 g/m*3 4.2 C 0 km/h
2033 28-03-2017 02:20:00 4.2 C 5.22 g/m*3 4.2 C 0 km/h
2034 28-03-2017 02:25:00 4.2 C 5.22 g/m*3 4.2 C 0 km/h
2035 28-03-2017 02:30:00 4.1 C 5.18 g/m*3 4.1 C 0 km/h
2036 28-03-2017 02:35:00 4 C 5.15 g/m*3 4 C 0 km/h
2037 28-03-2017 02:40:00 3.9 C 5.12 g/m*3 3.9 C 0 km/h
2038 28-03-2017 02:45:00 3.9 C 5.12 g/m*3 3.9 C 0 km/h
2039 28-03-2017 02:50:00 3.7 C 5.05 g/m*3 3.7 C 0 km/h
2040 28-03-2017 02:55:00 3.7 C 5.17 g/m*3 3.7 C 0 km/h
2041 28-03-2017 03:00:00 3.7 C 5.17 g/m*3 3.7 C 0 km/h
2042 28-03-2017 03:05:00 3.6 C 5.14 g/m*3 3.6 C 0 km/h
2043 28-03-2017 03:10:00 3.5 C 5.1 g/m*3 3.5 C 0 km/h
2044 28-03-2017 03:15:00 3.4 C 5.07 g/m*3 3.4 C 0 km/h
2045 28-03-2017 03:20:00 3.3 C 5.1 g/m*3 3.3 C 0 km/h
2046 28-03-2017 03:25:00 3.2 C 5 g/m*3 3.2 C 0 km/h
2047 28-03-2017 03:30:00 3.1 C 4.97 g/m*3 3.1 C 0 km/h
2048 28-03-2017 03:35:00 3 C 4.93 g/m*3 3 C 0 km/h
2049 28-03-2017 03:40:00 3 C 4.99 g/m*3 3 C 0 km/h
2050 28-03-2017 03:45:00 2.9 C 4.96 g/m*3 2.9 C 0 km/h
Sensor: Nr:Datum:Temp:Abs-Feuchte:Windchill:Wind:
Aussen-T/F 2051 28-03-2017 03:50:00 3 C 5.05 g/m*3 3 C 0 km/h
2052 28-03-2017 03:55:00 3 C 4.99 g/m*3 3 C 0 km/h
2053 28-03-2017 04:00:00 2.9 C 4.96 g/m*3 2.9 C 0 km/h
2054 28-03-2017 04:05:00 2.8 C 4.93 g/m*3 2.8 C 0 km/h
2055 28-03-2017 04:10:00 2.7 C 4.89 g/m*3 2.7 C 0 km/h
2056 28-03-2017 04:15:00 2.6 C 4.86 g/m*3 2.6 C 0 km/h
2057 28-03-2017 04:20:00 2.6 C 4.92 g/m*3 2.6 C 0 km/h
2058 28-03-2017 04:25:00 2.5 C 4.89 g/m*3 2.5 C 0 km/h
2059 28-03-2017 04:30:00 2.6 C 5.03 g/m*3 2.6 C 0 km/h
2060 28-03-2017 04:35:00 2.7 C 5.07 g/m*3 2.7 C 0 km/h
2061 28-03-2017 04:40:00 2.8 C 5.04 g/m*3 2.8 C 0 km/h
2062 28-03-2017 04:45:00 2.7 C 5.01 g/m*3 2.7 C 0 km/h
2063 28-03-2017 04:50:00 2.8 C 5.04 g/m*3 2.8 C 0 km/h
2064 28-03-2017 04:55:00 2.7 C 5.01 g/m*3 2.7 C 0 km/h
2065 28-03-2017 05:00:00 2.7 C 5.01 g/m*3 2.7 C 0 km/h
2066 28-03-2017 05:05:00 2.7 C 5.01 g/m*3 2.7 C 0 km/h
2067 28-03-2017 05:10:00 2.8 C 5.04 g/m*3 2.8 C 0 km/h
2068 28-03-2017 05:15:00 2.9 C 5.08 g/m*3 2.9 C 0 km/h
2069 28-03-2017 05:20:00 2.9 C 5.02 g/m*3 2.9 C 0 km/h
2070 28-03-2017 05:25:00 2.8 C 4.99 g/m*3 2.8 C 0 km/h
2071 28-03-2017 05:30:00 2.7 C 4.95 g/m*3 2.7 C 0 km/h
2072 28-03-2017 05:35:00 2.6 C 4.92 g/m*3 2.6 C 0 km/h
2073 28-03-2017 05:40:00 2.6 C 4.92 g/m*3 2.6 C 0 km/h
2074 28-03-2017 05:45:00 2.4 C 4.91 g/m*3 2.4 C 0 km/h
2075 28-03-2017 05:50:00 2.3 C 4.88 g/m*3 2.3 C 0 km/h
Sensor: Nr:Datum:Temp:Abs-Feuchte:Windchill:Wind:
Aussen-T/F 2076 28-03-2017 05:55:00 2.3 C 4.88 g/m*3 2.3 C 0 km/h
2077 28-03-2017 06:00:00 2.4 C 4.97 g/m*3 2.4 C 0 km/h
2078 28-03-2017 06:05:00 2.6 C 5.03 g/m*3 2.6 C 0 km/h
2079 28-03-2017 06:10:00 2.7 C 5.07 g/m*3 2.7 C 0 km/h
2080 28-03-2017 06:15:00 2.7 C 5.07 g/m*3 2.7 C 0 km/h
2081 28-03-2017 06:20:00 2.8 C 5.04 g/m*3 2.8 C 0 km/h
2082 28-03-2017 06:25:00 2.6 C 4.92 g/m*3 2.6 C 0 km/h
2083 28-03-2017 06:30:00 2.4 C 4.85 g/m*3 2.4 C 0 km/h
2084 28-03-2017 06:35:00 2.2 C 4.79 g/m*3 2.2 C 0 km/h
2085 28-03-2017 06:40:00 2.1 C 4.81 g/m*3 2.1 C 0 km/h
2086 28-03-2017 06:45:00 1.9 C 4.8 g/m*3 1.9 C 0 km/h
2087 28-03-2017 06:50:00 1.8 C 4.77 g/m*3 1.8 C 0 km/h
2088 28-03-2017 06:55:00 1.8 C 4.82 g/m*3 1.8 C 0 km/h
2089 28-03-2017 07:00:00 1.8 C 4.82 g/m*3 1.8 C 0 km/h
2090 28-03-2017 07:05:00 1.8 C 4.82 g/m*3 1.8 C 0 km/h
2091 28-03-2017 07:10:00 1.7 C 4.79 g/m*3 1.7 C 0 km/h
2092 28-03-2017 07:15:00 1.7 C 4.85 g/m*3 1.7 C 0 km/h
2093 28-03-2017 07:20:00 1.7 C 4.9 g/m*3 1.7 C 0 km/h
2094 28-03-2017 07:25:00 1.7 C 4.85 g/m*3 1.7 C 0 km/h
2095 28-03-2017 07:30:00 1.6 C 4.81 g/m*3 1.6 C 0 km/h
2096 28-03-2017 07:35:00 1.6 C 4.81 g/m*3 1.6 C 0 km/h
2097 28-03-2017 07:40:00 1.6 C 4.81 g/m*3 1.6 C 0 km/h
2098 28-03-2017 07:45:00 1.6 C 4.87 g/m*3 1.6 C 0 km/h
2099 28-03-2017 07:50:00 1.6 C 4.87 g/m*3 1.6 C 0 km/h
2100 28-03-2017 07:55:00 1.6 C 4.87 g/m*3 1.6 C 0 km/h
Sensor: Nr:Datum:Temp:Abs-Feuchte:Windchill:Wind:
Aussen-T/F 2101 28-03-2017 08:00:00 1.6 C 4.87 g/m*3 1.6 C 0 km/h
2102 28-03-2017 08:05:00 1.8 C 4.99 g/m*3 1.8 C 0 km/h
2103 28-03-2017 08:10:00 1.9 C 5.02 g/m*3 1.9 C 0 km/h
2104 28-03-2017 08:15:00 2.1 C 5.04 g/m*3 2.1 C 0 km/h
2105 28-03-2017 08:20:00 2.1 C 5.04 g/m*3 2.1 C 0 km/h
2106 28-03-2017 08:25:00 2.2 C 5.07 g/m*3 2.2 C 0 km/h
2107 28-03-2017 08:30:00 2.2 C 5.07 g/m*3 2.2 C 0 km/h
2108 28-03-2017 08:35:00 2.3 C 5.1 g/m*3 2.3 C 0 km/h
2109 28-03-2017 08:40:00 2.5 C 5.12 g/m*3 2.5 C 0 km/h
2110 28-03-2017 08:45:00 2.6 C 5.15 g/m*3 2.6 C 0 km/h
2111 28-03-2017 08:50:00 2.6 C 5.15 g/m*3 2.6 C 0 km/h
2112 28-03-2017 08:55:00 2.6 C 5.15 g/m*3 2.6 C 0 km/h
2113 28-03-2017 09:00:00 2.7 C 5.19 g/m*3 2.7 C 0 km/h
2114 28-03-2017 09:05:00 2.7 C 5.24 g/m*3 2.7 C 0 km/h
2115 28-03-2017 09:10:00 2.8 C 5.28 g/m*3 2.8 C 0 km/h
2116 28-03-2017 09:15:00 2.9 C 5.26 g/m*3 2.9 C 0 km/h
2117 28-03-2017 09:20:00 3 C 5.29 g/m*3 3 C 0 km/h
2118 28-03-2017 09:25:00 3.1 C 5.33 g/m*3 3.1 C 0 km/h
2119 28-03-2017 09:30:00 3.2 C 5.36 g/m*3 3.2 C 0 km/h
2120 28-03-2017 09:35:00 3.3 C 5.4 g/m*3 3.3 C 0 km/h
2121 28-03-2017 09:40:00 3.4 C 5.44 g/m*3 3.4 C 0 km/h
2122 28-03-2017 09:45:00 3.6 C 5.51 g/m*3 3.6 C 0 km/h
2123 28-03-2017 09:50:00 3.7 C 5.55 g/m*3 3.7 C 0 km/h
2124 28-03-2017 09:55:00 3.8 C 5.58 g/m*3 3.8 C 0 km/h
2125 28-03-2017 10:00:00 4 C 5.59 g/m*3 4 C 0 km/h
Sensor: Nr:Datum:Temp:Abs-Feuchte:Windchill:Wind:
Aussen-T/F 2126 28-03-2017 10:05:00 4.2 C 5.61 g/m*3 4.2 C 0 km/h
2127 28-03-2017 10:10:00 4.4 C 5.68 g/m*3 4.4 C 0 km/h
2128 28-03-2017 10:15:00 4.7 C 5.73 g/m*3 4.7 C 0 km/h
2129 28-03-2017 10:20:00 4.9 C 5.81 g/m*3 4.9 C 0 km/h
2130 28-03-2017 10:25:00 5.2 C 5.92 g/m*3 5.2 C 0 km/h
2131 28-03-2017 10:30:00 5.4 C 5.93 g/m*3 5.4 C 0 km/h
2132 28-03-2017 10:35:00 5.7 C 5.98 g/m*3 5.7 C 0 km/h
2133 28-03-2017 10:40:00 6.2 C 6.18 g/m*3 6.2 C 0 km/h
2134 28-03-2017 10:45:00 6.5 C 6.15 g/m*3 6.5 C 0 km/h
2135 28-03-2017 10:50:00 6.9 C 6.24 g/m*3 6.9 C 0 km/h
2136 28-03-2017 10:55:00 7.4 C 6.28 g/m*3 7.4 C 0 km/h
2137 28-03-2017 11:00:00 8 C 6.45 g/m*3 8 C 0 km/h
2138 28-03-2017 11:05:00 8.5 C 6.49 g/m*3 8.5 C 0 km/h
2139 28-03-2017 11:10:00 8.8 C 6.44 g/m*3 8.8 C 0 km/h
2140 28-03-2017 11:15:00 9.2 C 6.52 g/m*3 9.2 C 0 km/h
2141 28-03-2017 11:20:00 9.6 C 6.69 g/m*3 9.6 C 0 km/h
2142 28-03-2017 11:25:00 9.8 C 6.77 g/m*3 9.8 C 0 km/h
2143 28-03-2017 11:30:00 10.2 C 6.95 g/m*3 10.2 C 0 km/h
2144 28-03-2017 11:35:00 10.5 C 7.08 g/m*3 10.5 C 0 km/h
2145 28-03-2017 11:40:00 10.8 C 7.12 g/m*3 10.8 C 0 km/h
2146 28-03-2017 11:45:00 11.1 C 7.25 g/m*3 11.1 C 0 km/h
2147 28-03-2017 11:50:00 11.3 C 7.24 g/m*3 11.3 C 0 km/h
2148 28-03-2017 11:55:00 11.8 C 7.47 g/m*3 11.8 C 0 km/h
2149 28-03-2017 12:00:00 12.2 C 7.45 g/m*3 12.2 C 0 km/h
2150 28-03-2017 12:05:00 12.7 C 7.9 g/m*3 12.7 C 1.6 km/h
Sensor: Nr:Datum:Temp:Abs-Feuchte:Windchill:Wind:
Aussen-T/F 2151 28-03-2017 12:10:00 13.2 C 7.92 g/m*3 13.2 C 6.4 km/h
2152 28-03-2017 12:15:00 13.8 C 8.1 g/m*3 13.8 C 4.8 km/h
2153 28-03-2017 12:20:00 14.4 C 8.16 g/m*3 14.4 C 6.4 km/h
2154 28-03-2017 12:25:00 14.8 C 8.23 g/m*3 14.8 C 3.2 km/h
2155 28-03-2017 12:30:00 15.3 C 8.23 g/m*3 15.3 C 4.8 km/h
2156 28-03-2017 12:35:00 15.7 C 8.16 g/m*3 15.7 C 8.1 km/h
2157 28-03-2017 12:40:00 16.1 C 8.22 g/m*3 16.1 C 8.1 km/h
2158 28-03-2017 12:45:00 16.6 C 8.19 g/m*3 16.6 C 12.9 km/h
2159 28-03-2017 12:50:00 16.9 C 8.2 g/m*3 16.9 C 14.5 km/h
2160 28-03-2017 12:55:00 17.2 C 8.2 g/m*3 17.2 C 11.3 km/h
2161 28-03-2017 13:00:00 17.4 C 8.15 g/m*3 17.4 C 12.9 km/h
2162 28-03-2017 13:05:00 17.7 C 8.45 g/m*3 17.7 C 9.7 km/h
2163 28-03-2017 13:10:00 17.9 C 8.24 g/m*3 17.9 C 14.5 km/h
2164 28-03-2017 13:15:00 18.2 C 8.08 g/m*3 18.2 C 12.9 km/h
2165 28-03-2017 13:20:00 18.3 C 7.97 g/m*3 18.3 C 12.9 km/h
2166 28-03-2017 13:25:00 18.5 C 7.91 g/m*3 18.5 C 12.9 km/h
2167 28-03-2017 13:30:00 18.7 C 8.01 g/m*3 18.7 C 12.9 km/h
2168 28-03-2017 13:35:00 18.7 C 8.01 g/m*3 18.7 C 11.3 km/h
2169 28-03-2017 13:40:00 18.8 C 7.89 g/m*3 18.8 C 14.5 km/h
2170 28-03-2017 13:45:00 18.9 C 7.94 g/m*3 18.9 C 9.7 km/h
2171 28-03-2017 13:50:00 19.1 C 7.87 g/m*3 19.1 C 12.9 km/h
2172 28-03-2017 13:55:00 19.3 C 8.13 g/m*3 19.3 C 16.1 km/h
2173 28-03-2017 14:00:00 19.4 C 8.01 g/m*3 19.4 C 12.9 km/h
2174 28-03-2017 14:05:00 19.6 C 7.77 g/m*3 19.6 C 16.1 km/h
2175 28-03-2017 14:10:00 19.7 C 8.15 g/m*3 19.7 C 12.9 km/h
Sensor: Nr:Datum:Temp:Abs-Feuchte:Windchill:Wind:
Aussen-T/F 2176 28-03-2017 14:15:00 19.8 C 8.03 g/m*3 19.8 C 11.3 km/h
2177 28-03-2017 14:20:00 20 C 7.95 g/m*3 20 C 24.1 km/h
2178 28-03-2017 14:25:00 20 C 8.12 g/m*3 20 C 11.3 km/h
2179 28-03-2017 14:30:00 20.1 C 7.82 g/m*3 20.1 C 17.7 km/h
2180 28-03-2017 14:35:00 20.1 C 8 g/m*3 20.1 C 12.9 km/h
2181 28-03-2017 14:40:00 20.3 C 8.09 g/m*3 20.3 C 12.9 km/h
2182 28-03-2017 14:45:00 20.4 C 7.96 g/m*3 20.4 C 17.7 km/h
2183 28-03-2017 14:50:00 20.6 C 7.87 g/m*3 20.6 C 11.3 km/h
2184 28-03-2017 14:55:00 20.8 C 7.79 g/m*3 20.8 C 19.3 km/h
2185 28-03-2017 15:00:00 20.9 C 7.65 g/m*3 20.9 C 16.1 km/h
2186 28-03-2017 15:05:00 20.9 C 7.65 g/m*3 20.9 C 17.7 km/h
2187 28-03-2017 15:10:00 20.8 C 7.79 g/m*3 20.8 C 16.1 km/h
2188 28-03-2017 15:15:00 20.9 C 7.83 g/m*3 20.9 C 16.1 km/h
2189 28-03-2017 15:20:00 20.9 C 7.83 g/m*3 20.9 C 14.5 km/h
2190 28-03-2017 15:25:00 21 C 7.51 g/m*3 21 C 19.3 km/h
2191 28-03-2017 15:30:00 20.9 C 7.65 g/m*3 20.9 C 14.5 km/h
2192 28-03-2017 15:35:00 20.9 C 7.83 g/m*3 20.9 C 16.1 km/h
2193 28-03-2017 15:40:00 21 C 7.88 g/m*3 21 C 17.7 km/h
2194 28-03-2017 15:45:00 21.1 C 7.74 g/m*3 21.1 C 14.5 km/h
2195 28-03-2017 15:50:00 21.1 C 7.74 g/m*3 21.1 C 11.3 km/h
2196 28-03-2017 15:55:00 21.2 C 7.78 g/m*3 21.2 C 12.9 km/h
2197 28-03-2017 16:00:00 21.2 C 7.6 g/m*3 21.2 C 22.5 km/h
2198 28-03-2017 16:05:00 21.2 C 7.78 g/m*3 21.2 C 17.7 km/h
2199 28-03-2017 16:10:00 21.2 C 7.78 g/m*3 21.2 C 14.5 km/h
2200 28-03-2017 16:15:00 21.2 C 7.78 g/m*3 21.2 C 14.5 km/h
Sensor: Nr:Datum:Temp:Abs-Feuchte:Windchill:Wind:
Aussen-T/F 2201 28-03-2017 16:20:00 21.3 C 7.64 g/m*3 21.3 C 17.7 km/h
2202 28-03-2017 16:25:00 21.3 C 7.83 g/m*3 21.3 C 14.5 km/h
2203 28-03-2017 16:30:00 21.4 C 7.87 g/m*3 21.4 C 12.9 km/h
2204 28-03-2017 16:35:00 21.4 C 7.87 g/m*3 21.4 C 14.5 km/h
2205 28-03-2017 16:40:00 21.2 C 7.97 g/m*3 21.2 C 9.7 km/h
2206 28-03-2017 16:45:00 21.4 C 8.06 g/m*3 21.4 C 20.9 km/h
2207 28-03-2017 16:50:00 21.8 C 8.06 g/m*3 21.8 C 14.5 km/h
2208 28-03-2017 16:55:00 22.1 C 7.81 g/m*3 22.1 C 9.7 km/h
2209 28-03-2017 17:00:00 22.3 C 8.1 g/m*3 22.3 C 12.9 km/h
2210 28-03-2017 17:05:00 22.5 C 7.99 g/m*3 22.5 C 12.9 km/h
2211 28-03-2017 17:10:00 22.5 C 7.99 g/m*3 22.5 C 17.7 km/h
2212 28-03-2017 17:15:00 22.3 C 7.7 g/m*3 22.3 C 14.5 km/h
2213 28-03-2017 17:20:00 21.9 C 7.91 g/m*3 21.9 C 9.7 km/h
2214 28-03-2017 17:25:00 21.4 C 7.87 g/m*3 21.4 C 11.3 km/h
2215 28-03-2017 17:30:00 21 C 7.69 g/m*3 21 C 11.3 km/h
2216 28-03-2017 17:35:00 20.7 C 8.1 g/m*3 20.7 C 9.7 km/h
2217 28-03-2017 17:40:00 20.4 C 8.14 g/m*3 20.4 C 3.2 km/h
2218 28-03-2017 17:45:00 20.1 C 8.17 g/m*3 20.1 C 4.8 km/h
2219 28-03-2017 17:50:00 19.8 C 8.2 g/m*3 19.8 C 3.2 km/h
2220 28-03-2017 17:55:00 20.5 C 8.01 g/m*3 20.5 C 14.5 km/h
2221 28-03-2017 18:00:00 21.2 C 8.15 g/m*3 21.2 C 14.5 km/h
2222 28-03-2017 18:05:00 21.2 C 7.97 g/m*3 21.2 C 11.3 km/h
2223 28-03-2017 18:10:00 20.9 C 8.01 g/m*3 20.9 C 9.7 km/h
2224 28-03-2017 18:15:00 20.6 C 8.05 g/m*3 20.6 C 4.8 km/h
2225 28-03-2017 18:20:00 20.1 C 7.65 g/m*3 20.1 C 8.1 km/h
Sensor: Nr:Datum:Temp:Abs-Feuchte:Windchill:Wind:
Aussen-T/F 2226 28-03-2017 18:25:00 19.8 C 7.86 g/m*3 19.8 C 4.8 km/h
2227 28-03-2017 18:30:00 19.5 C 8.06 g/m*3 19.5 C 4.8 km/h
2228 28-03-2017 18:35:00 19.3 C 8.13 g/m*3 19.3 C 3.2 km/h
2229 28-03-2017 18:40:00 19.1 C 8.52 g/m*3 19.1 C 3.2 km/h
2230 28-03-2017 18:45:00 19 C 8.47 g/m*3 19 C 3.2 km/h
2231 28-03-2017 18:50:00 19.2 C 8.41 g/m*3 19.2 C 6.4 km/h
2232 28-03-2017 18:55:00 19.2 C 8.57 g/m*3 19.2 C 4.8 km/h
2233 28-03-2017 19:00:00 19.2 C 8.57 g/m*3 19.2 C 6.4 km/h
2234 28-03-2017 19:05:00 19.1 C 8.52 g/m*3 19.1 C 3.2 km/h
2235 28-03-2017 19:10:00 19.1 C 8.36 g/m*3 19.1 C 4.8 km/h
2236 28-03-2017 19:15:00 19.1 C 8.2 g/m*3 19.1 C 9.7 km/h
2237 28-03-2017 19:20:00 19.1 C 8.03 g/m*3 19.1 C 6.4 km/h
2238 28-03-2017 19:25:00 18.9 C 8.1 g/m*3 18.9 C 4.8 km/h
2239 28-03-2017 19:30:00 18.8 C 8.21 g/m*3 18.8 C 4.8 km/h
2240 28-03-2017 19:35:00 18.4 C 8.18 g/m*3 18.4 C 4.8 km/h
2241 28-03-2017 19:40:00 18.1 C 7.88 g/m*3 18.1 C 4.8 km/h
2242 28-03-2017 19:45:00 17.8 C 8.04 g/m*3 17.8 C 6.4 km/h
2243 28-03-2017 19:50:00 17.5 C 7.9 g/m*3 17.5 C 3.2 km/h
2244 28-03-2017 19:55:00 17.2 C 8.05 g/m*3 17.2 C 4.8 km/h
2245 28-03-2017 20:00:00 16.8 C 7.86 g/m*3 16.8 C 4.8 km/h
2246 28-03-2017 20:05:00 16.5 C 8 g/m*3 16.5 C 3.2 km/h
2247 28-03-2017 20:10:00 16.1 C 8.09 g/m*3 16.1 C 4.8 km/h
2248 28-03-2017 20:15:00 15.7 C 8.03 g/m*3 15.7 C 4.8 km/h
2249 28-03-2017 20:20:00 15.3 C 8.1 g/m*3 15.3 C 4.8 km/h
2250 28-03-2017 20:25:00 15 C 8.08 g/m*3 15 C 4.8 km/h
Sensor: Nr:Datum:Temp:Abs-Feuchte:Windchill:Wind:
Aussen-T/F 2251 28-03-2017 20:30:00 14.8 C 8.11 g/m*3 14.8 C 4.8 km/h
2252 28-03-2017 20:35:00 14.6 C 8.13 g/m*3 14.6 C 4.8 km/h
2253 28-03-2017 20:40:00 14.5 C 8.08 g/m*3 14.5 C 4.8 km/h
2254 28-03-2017 20:45:00 14.4 C 8.03 g/m*3 14.4 C 6.4 km/h
2255 28-03-2017 20:50:00 14.3 C 8.11 g/m*3 14.3 C 6.4 km/h
2256 28-03-2017 20:55:00 14.2 C 8.06 g/m*3 14.2 C 6.4 km/h
2257 28-03-2017 21:00:00 14.1 C 8.01 g/m*3 14.1 C 3.2 km/h
2258 28-03-2017 21:05:00 14.1 C 8.13 g/m*3 14.1 C 4.8 km/h
2259 28-03-2017 21:10:00 13.9 C 8.03 g/m*3 13.9 C 4.8 km/h
2260 28-03-2017 21:15:00 13.8 C 8.1 g/m*3 13.8 C 4.8 km/h
2261 28-03-2017 21:20:00 13.7 C 8.05 g/m*3 13.7 C 4.8 km/h
2262 28-03-2017 21:25:00 13.6 C 8.12 g/m*3 13.6 C 4.8 km/h
2263 28-03-2017 21:30:00 13.6 C 8.12 g/m*3 13.6 C 3.2 km/h
2264 28-03-2017 21:35:00 13.6 C 8.12 g/m*3 13.6 C 3.2 km/h
2265 28-03-2017 21:40:00 13.7 C 8.05 g/m*3 13.7 C 3.2 km/h
2266 28-03-2017 21:45:00 13.7 C 8.05 g/m*3 13.7 C 3.2 km/h
2267 28-03-2017 21:50:00 13.7 C 8.05 g/m*3 13.7 C 4.8 km/h
2268 28-03-2017 21:55:00 13.7 C 8.05 g/m*3 13.7 C 3.2 km/h
2269 28-03-2017 22:00:00 13.6 C 8.12 g/m*3 13.6 C 4.8 km/h
2270 28-03-2017 22:05:00 13.5 C 8.07 g/m*3 13.5 C 4.8 km/h
2271 28-03-2017 22:10:00 13.4 C 8.02 g/m*3 13.4 C 4.8 km/h
2272 28-03-2017 22:15:00 13.3 C 8.09 g/m*3 13.3 C 6.4 km/h
2273 28-03-2017 22:20:00 13.3 C 8.09 g/m*3 13.3 C 3.2 km/h
2274 28-03-2017 22:25:00 13.2 C 8.15 g/m*3 13.2 C 3.2 km/h
2275 28-03-2017 22:30:00 13.2 C 8.15 g/m*3 13.2 C 4.8 km/h
Sensor: Nr:Datum:Temp:Abs-Feuchte:Windchill:Wind:
Aussen-T/F 2276 28-03-2017 22:35:00 13.2 C 8.27 g/m*3 13.2 C 1.6 km/h
2277 28-03-2017 22:40:00 13.2 C 8.27 g/m*3 13.2 C 1.6 km/h
2278 28-03-2017 22:45:00 13.1 C 8.22 g/m*3 13.1 C 1.6 km/h
2279 28-03-2017 22:50:00 13.1 C 8.1 g/m*3 13.1 C 1.6 km/h
2280 28-03-2017 22:55:00 12.9 C 8 g/m*3 12.9 C 1.6 km/h
2281 28-03-2017 23:00:00 12.9 C 8 g/m*3 12.9 C 3.2 km/h
2282 28-03-2017 23:05:00 12.8 C 8.06 g/m*3 12.8 C 1.6 km/h
2283 28-03-2017 23:10:00 12.6 C 7.97 g/m*3 12.6 C 1.6 km/h
2284 28-03-2017 23:15:00 12.5 C 8.03 g/m*3 12.5 C 1.6 km/h
2285 28-03-2017 23:20:00 12.3 C 7.93 g/m*3 12.3 C 1.6 km/h
2286 28-03-2017 23:25:00 12.2 C 7.88 g/m*3 12.2 C 1.6 km/h
2287 28-03-2017 23:30:00 12.1 C 7.94 g/m*3 12.1 C 1.6 km/h
2288 28-03-2017 23:35:00 11.9 C 7.84 g/m*3 11.9 C 1.6 km/h
2289 28-03-2017 23:40:00 11.8 C 7.89 g/m*3 11.8 C 1.6 km/h
2290 28-03-2017 23:45:00 11.7 C 7.84 g/m*3 11.7 C 0 km/h
2291 28-03-2017 23:50:00 11.7 C 7.95 g/m*3 11.7 C 1.6 km/h
2292 28-03-2017 23:55:00 11.6 C 7.9 g/m*3 11.6 C 4.8 km/h
2293 29-03-2017 00:00:00 11.4 C 7.8 g/m*3 11.4 C 4.8 km/h
2294 29-03-2017 00:05:00 11.3 C 7.85 g/m*3 11.3 C 1.6 km/h
2295 29-03-2017 00:10:00 11.2 C 7.8 g/m*3 11.2 C 1.6 km/h
2296 29-03-2017 00:15:00 11.1 C 7.76 g/m*3 11.1 C 4.8 km/h
2297 29-03-2017 00:20:00 11 C 7.81 g/m*3 11 C 0 km/h
2298 29-03-2017 00:25:00 10.9 C 7.76 g/m*3 10.41 C 6.4 km/h
2299 29-03-2017 00:30:00 10.8 C 7.71 g/m*3 10.29 C 6.4 km/h
2300 29-03-2017 00:35:00 10.7 C 7.76 g/m*3 10.7 C 1.6 km/h
Sensor: Nr:Datum:Temp:Abs-Feuchte:Windchill:Wind:
Aussen-T/F 2301 29-03-2017 00:40:00 10.6 C 7.71 g/m*3 10.6 C 3.2 km/h
2302 29-03-2017 00:45:00 10.6 C 7.71 g/m*3 10.6 C 4.8 km/h
2303 29-03-2017 00:50:00 10.5 C 7.76 g/m*3 10.5 C 3.2 km/h
2304 29-03-2017 00:55:00 10.4 C 7.71 g/m*3 10.4 C 3.2 km/h
2305 29-03-2017 01:00:00 10.4 C 7.71 g/m*3 10.4 C 3.2 km/h
2306 29-03-2017 01:05:00 10.4 C 7.71 g/m*3 10.4 C 3.2 km/h
2307 29-03-2017 01:10:00 10.3 C 7.66 g/m*3 10.3 C 3.2 km/h
2308 29-03-2017 01:15:00 10.2 C 7.61 g/m*3 9.6 C 6.4 km/h
2309 29-03-2017 01:20:00 10.1 C 7.56 g/m*3 10.1 C 3.2 km/h
2310 29-03-2017 01:25:00 10.1 C 7.66 g/m*3 10.1 C 3.2 km/h
2311 29-03-2017 01:30:00 9.9 C 7.56 g/m*3 9.9 C 1.6 km/h
2312 29-03-2017 01:35:00 9.9 C 7.56 g/m*3 9.9 C 4.8 km/h
2313 29-03-2017 01:40:00 9.9 C 7.56 g/m*3 9.9 C 1.6 km/h
2314 29-03-2017 01:45:00 9.9 C 7.56 g/m*3 9.9 C 3.2 km/h
2315 29-03-2017 01:50:00 9.9 C 7.56 g/m*3 9.9 C 4.8 km/h
2316 29-03-2017 01:55:00 9.8 C 7.61 g/m*3 9.8 C 3.2 km/h
2317 29-03-2017 02:00:00 9.9 C 7.66 g/m*3 9.9 C 4.8 km/h
2318 29-03-2017 02:05:00 10.1 C 7.75 g/m*3 10.1 C 4.8 km/h
2319 29-03-2017 02:10:00 10.1 C 7.75 g/m*3 10.1 C 4.8 km/h
2320 29-03-2017 02:15:00 10.1 C 7.75 g/m*3 10.1 C 1.6 km/h
2321 29-03-2017 02:20:00 10.2 C 7.8 g/m*3 9.6 C 6.4 km/h
2322 29-03-2017 02:25:00 10.3 C 7.76 g/m*3 9.72 C 6.4 km/h
2323 29-03-2017 02:30:00 10.3 C 7.76 g/m*3 10.3 C 4.8 km/h
2324 29-03-2017 02:35:00 10.4 C 7.81 g/m*3 9.83 C 6.4 km/h
2325 29-03-2017 02:40:00 10.6 C 7.81 g/m*3 10.6 C 4.8 km/h
Sensor: Nr:Datum:Temp:Abs-Feuchte:Windchill:Wind:
Aussen-T/F 2326 29-03-2017 02:45:00 10.7 C 7.86 g/m*3 10.7 C 3.2 km/h
2327 29-03-2017 02:50:00 10.7 C 7.86 g/m*3 10.7 C 3.2 km/h
2328 29-03-2017 02:55:00 10.7 C 7.86 g/m*3 10.18 C 6.4 km/h
2329 29-03-2017 03:00:00 10.6 C 7.81 g/m*3 10.6 C 3.2 km/h
2330 29-03-2017 03:05:00 10.4 C 7.71 g/m*3 10.4 C 4.8 km/h
2331 29-03-2017 03:10:00 10.2 C 7.61 g/m*3 10.2 C 1.6 km/h
2332 29-03-2017 03:15:00 9.9 C 7.56 g/m*3 9.9 C 1.6 km/h
2333 29-03-2017 03:20:00 9.7 C 7.56 g/m*3 9.7 C 0 km/h
2334 29-03-2017 03:25:00 9.4 C 7.51 g/m*3 9.4 C 1.6 km/h
2335 29-03-2017 03:30:00 9.3 C 7.55 g/m*3 9.3 C 3.2 km/h
2336 29-03-2017 03:35:00 9.2 C 7.5 g/m*3 9.2 C 0 km/h
2337 29-03-2017 03:40:00 9.1 C 7.54 g/m*3 9.1 C 3.2 km/h
2338 29-03-2017 03:45:00 8.9 C 7.45 g/m*3 8.9 C 3.2 km/h
2339 29-03-2017 03:50:00 8.8 C 7.4 g/m*3 8.8 C 4.8 km/h
2340 29-03-2017 03:55:00 8.6 C 7.39 g/m*3 8.6 C 3.2 km/h
2341 29-03-2017 04:00:00 8.5 C 7.34 g/m*3 8.5 C 3.2 km/h
2342 29-03-2017 04:05:00 8.4 C 7.3 g/m*3 8.4 C 1.6 km/h
2343 29-03-2017 04:10:00 8.3 C 7.33 g/m*3 8.3 C 0 km/h
2344 29-03-2017 04:15:00 8.2 C 7.29 g/m*3 8.2 C 0 km/h
2345 29-03-2017 04:20:00 8.2 C 7.37 g/m*3 8.2 C 0 km/h
2346 29-03-2017 04:25:00 8.2 C 7.37 g/m*3 8.2 C 4.8 km/h
2347 29-03-2017 04:30:00 8.2 C 7.37 g/m*3 8.2 C 0 km/h
2348 29-03-2017 04:35:00 8.3 C 7.42 g/m*3 8.3 C 0 km/h
2349 29-03-2017 04:40:00 8.3 C 7.42 g/m*3 8.3 C 1.6 km/h
2350 29-03-2017 04:45:00 8.2 C 7.37 g/m*3 8.2 C 1.6 km/h
Sensor: Nr:Datum:Temp:Abs-Feuchte:Windchill:Wind:
Aussen-T/F 2351 29-03-2017 04:50:00 8.2 C 7.37 g/m*3 8.2 C 3.2 km/h
2352 29-03-2017 04:55:00 8.2 C 7.37 g/m*3 8.2 C 4.8 km/h
2353 29-03-2017 05:00:00 8.1 C 7.32 g/m*3 7.17 C 6.4 km/h
2354 29-03-2017 05:05:00 8.2 C 7.45 g/m*3 8.2 C 4.8 km/h
2355 29-03-2017 05:10:00 8.2 C 7.45 g/m*3 7.29 C 6.4 km/h
2356 29-03-2017 05:15:00 8.2 C 7.37 g/m*3 7.29 C 6.4 km/h
2357 29-03-2017 05:20:00 8.1 C 7.32 g/m*3 8.1 C 4.8 km/h
2358 29-03-2017 05:25:00 8.1 C 7.41 g/m*3 6.75 C 8.1 km/h
2359 29-03-2017 05:30:00 8 C 7.28 g/m*3 8 C 3.2 km/h
2360 29-03-2017 05:35:00 7.9 C 7.23 g/m*3 6.52 C 8.1 km/h
2361 29-03-2017 05:40:00 7.9 C 7.39 g/m*3 6.52 C 8.1 km/h
2362 29-03-2017 05:45:00 8.1 C 7.49 g/m*3 8.1 C 4.8 km/h
2363 29-03-2017 05:50:00 8.1 C 7.41 g/m*3 7.17 C 6.4 km/h
2364 29-03-2017 05:55:00 8 C 7.36 g/m*3 8 C 3.2 km/h
2365 29-03-2017 06:00:00 8 C 7.36 g/m*3 8 C 4.8 km/h
2366 29-03-2017 06:05:00 7.9 C 7.31 g/m*3 7.9 C 4.8 km/h
2367 29-03-2017 06:10:00 7.9 C 7.39 g/m*3 7.9 C 1.6 km/h
2368 29-03-2017 06:15:00 7.8 C 7.35 g/m*3 7.8 C 1.6 km/h
2369 29-03-2017 06:20:00 7.8 C 7.35 g/m*3 7.8 C 3.2 km/h
2370 29-03-2017 06:25:00 7.8 C 7.35 g/m*3 7.8 C 4.8 km/h
2371 29-03-2017 06:30:00 7.8 C 7.35 g/m*3 7.8 C 4.8 km/h
2372 29-03-2017 06:35:00 7.9 C 7.47 g/m*3 7.9 C 3.2 km/h
2373 29-03-2017 06:40:00 7.9 C 7.39 g/m*3 7.9 C 4.8 km/h
2374 29-03-2017 06:45:00 7.9 C 7.47 g/m*3 6.94 C 6.4 km/h
2375 29-03-2017 06:50:00 7.9 C 7.47 g/m*3 7.9 C 3.2 km/h
Sensor: Nr:Datum:Temp:Abs-Feuchte:Windchill:Wind:
Aussen-T/F 2376 29-03-2017 06:55:00 7.9 C 7.47 g/m*3 7.9 C 4.8 km/h
2377 29-03-2017 07:00:00 7.9 C 7.47 g/m*3 6.94 C 6.4 km/h
2378 29-03-2017 07:05:00 8 C 7.52 g/m*3 7.06 C 6.4 km/h
2379 29-03-2017 07:10:00 8 C 7.52 g/m*3 6.64 C 8.1 km/h
2380 29-03-2017 07:15:00 8 C 7.44 g/m*3 6.3 C 9.7 km/h
2381 29-03-2017 07:20:00 7.9 C 7.39 g/m*3 6.18 C 9.7 km/h
2382 29-03-2017 07:25:00 7.9 C 7.39 g/m*3 6.52 C 8.1 km/h
2383 29-03-2017 07:30:00 7.9 C 7.39 g/m*3 7.9 C 4.8 km/h
2384 29-03-2017 07:35:00 7.8 C 7.35 g/m*3 7.8 C 3.2 km/h
2385 29-03-2017 07:40:00 7.9 C 7.47 g/m*3 7.9 C 4.8 km/h
2386 29-03-2017 07:45:00 7.9 C 7.47 g/m*3 6.94 C 6.4 km/h
2387 29-03-2017 07:50:00 7.9 C 7.47 g/m*3 6.94 C 6.4 km/h
2388 29-03-2017 07:55:00 7.9 C 7.47 g/m*3 6.94 C 6.4 km/h
2389 29-03-2017 08:00:00 8 C 7.52 g/m*3 8 C 4.8 km/h
2390 29-03-2017 08:05:00 8 C 7.52 g/m*3 8 C 3.2 km/h
2391 29-03-2017 08:10:00 8 C 7.52 g/m*3 8 C 4.8 km/h
2392 29-03-2017 08:15:00 8 C 7.52 g/m*3 8 C 4.8 km/h
2393 29-03-2017 08:20:00 8.1 C 7.57 g/m*3 8.1 C 4.8 km/h
2394 29-03-2017 08:25:00 8.1 C 7.57 g/m*3 8.1 C 3.2 km/h
2395 29-03-2017 08:30:00 8.2 C 7.62 g/m*3 8.2 C 4.8 km/h
2396 29-03-2017 08:35:00 8.3 C 7.67 g/m*3 6.66 C 9.7 km/h
2397 29-03-2017 08:40:00 8.3 C 7.67 g/m*3 7.41 C 6.4 km/h
2398 29-03-2017 08:45:00 8.4 C 7.72 g/m*3 8.4 C 4.8 km/h
2399 29-03-2017 08:50:00 8.5 C 7.77 g/m*3 8.5 C 4.8 km/h
2400 29-03-2017 08:55:00 8.7 C 7.87 g/m*3 7.87 C 6.4 km/h
Sensor: Nr:Datum:Temp:Abs-Feuchte:Windchill:Wind:
Aussen-T/F 2401 29-03-2017 09:00:00 8.8 C 7.92 g/m*3 8.8 C 4.8 km/h
2402 29-03-2017 09:05:00 8.9 C 7.97 g/m*3 7.69 C 8.1 km/h
2403 29-03-2017 09:10:00 9 C 8.02 g/m*3 9 C 4.8 km/h
2404 29-03-2017 09:15:00 9.1 C 7.99 g/m*3 9.1 C 4.8 km/h
2405 29-03-2017 09:20:00 9.1 C 7.99 g/m*3 9.1 C 3.2 km/h
2406 29-03-2017 09:25:00 9.2 C 8.13 g/m*3 7.73 C 9.7 km/h
2407 29-03-2017 09:30:00 9.4 C 8.14 g/m*3 7.97 C 9.7 km/h
2408 29-03-2017 09:35:00 9.7 C 8.3 g/m*3 8.63 C 8.1 km/h
2409 29-03-2017 09:40:00 9.9 C 8.31 g/m*3 9.25 C 6.4 km/h
2410 29-03-2017 09:45:00 10.1 C 8.32 g/m*3 9.1 C 8.1 km/h
2411 29-03-2017 09:50:00 10.2 C 8.37 g/m*3 8.92 C 9.7 km/h
2412 29-03-2017 09:55:00 10.3 C 8.33 g/m*3 9.34 C 8.1 km/h
2413 29-03-2017 10:00:00 10.4 C 8.38 g/m*3 9.46 C 8.1 km/h
2414 29-03-2017 10:05:00 10.6 C 8.39 g/m*3 10.06 C 6.4 km/h
2415 29-03-2017 10:10:00 10.8 C 8.5 g/m*3 9.16 C 12.9 km/h
2416 29-03-2017 10:15:00 10.9 C 8.45 g/m*3 10.04 C 8.1 km/h
2417 29-03-2017 10:20:00 11.2 C 8.51 g/m*3 11.2 C 9.7 km/h
2418 29-03-2017 10:25:00 11.4 C 8.52 g/m*3 11.4 C 9.7 km/h
2419 29-03-2017 10:30:00 11.6 C 8.63 g/m*3 11.6 C 6.4 km/h
2420 29-03-2017 10:35:00 11.8 C 8.63 g/m*3 11.8 C 12.9 km/h
2421 29-03-2017 10:40:00 11.9 C 8.58 g/m*3 11.9 C 9.7 km/h
2422 29-03-2017 10:45:00 12.2 C 8.63 g/m*3 12.2 C 6.4 km/h
2423 29-03-2017 10:50:00 12.4 C 8.63 g/m*3 12.4 C 6.4 km/h
2424 29-03-2017 10:55:00 12.7 C 8.57 g/m*3 12.7 C 9.7 km/h
2425 29-03-2017 11:00:00 13 C 8.62 g/m*3 13 C 9.7 km/h
Sensor: Nr:Datum:Temp:Abs-Feuchte:Windchill:Wind:
Aussen-T/F 2426 29-03-2017 11:05:00 13.2 C 8.5 g/m*3 13.2 C 9.7 km/h
2427 29-03-2017 11:10:00 13.4 C 8.6 g/m*3 13.4 C 14.5 km/h
2428 29-03-2017 11:15:00 13.6 C 8.59 g/m*3 13.6 C 14.5 km/h
2429 29-03-2017 11:20:00 13.8 C 8.58 g/m*3 13.8 C 8.1 km/h
2430 29-03-2017 11:25:00 14 C 8.68 g/m*3 14 C 3.2 km/h
2431 29-03-2017 11:30:00 14.2 C 8.67 g/m*3 14.2 C 9.7 km/h
2432 29-03-2017 11:35:00 14.4 C 8.65 g/m*3 14.4 C 14.5 km/h
2433 29-03-2017 11:40:00 14.7 C 8.81 g/m*3 14.7 C 9.7 km/h
2434 29-03-2017 11:45:00 14.9 C 8.67 g/m*3 14.9 C 14.5 km/h
2435 29-03-2017 11:50:00 15.1 C 8.77 g/m*3 15.1 C 9.7 km/h
2436 29-03-2017 11:55:00 15.2 C 8.83 g/m*3 15.2 C 9.7 km/h
2437 29-03-2017 12:00:00 15.4 C 8.67 g/m*3 15.4 C 12.9 km/h
2438 29-03-2017 12:05:00 15.5 C 8.46 g/m*3 15.5 C 14.5 km/h
2439 29-03-2017 12:10:00 15.6 C 8.51 g/m*3 15.6 C 16.1 km/h
2440 29-03-2017 12:15:00 15.7 C 8.3 g/m*3 15.7 C 16.1 km/h
2441 29-03-2017 12:20:00 15.7 C 8.3 g/m*3 15.7 C 9.7 km/h
2442 29-03-2017 12:25:00 15.7 C 8.3 g/m*3 15.7 C 12.9 km/h
2443 29-03-2017 12:30:00 15.7 C 8.43 g/m*3 15.7 C 17.7 km/h
2444 29-03-2017 12:35:00 15.9 C 8.4 g/m*3 15.9 C 12.9 km/h
2445 29-03-2017 12:40:00 16.1 C 8.36 g/m*3 16.1 C 11.3 km/h
2446 29-03-2017 12:45:00 16.3 C 8.32 g/m*3 16.3 C 14.5 km/h
2447 29-03-2017 12:50:00 16.6 C 8.33 g/m*3 16.6 C 11.3 km/h
2448 29-03-2017 12:55:00 16.8 C 8.44 g/m*3 16.8 C 16.1 km/h
2449 29-03-2017 13:00:00 17.2 C 8.35 g/m*3 17.2 C 16.1 km/h
2450 29-03-2017 13:05:00 17.3 C 8.25 g/m*3 17.3 C 19.3 km/h
Sensor: Nr:Datum:Temp:Abs-Feuchte:Windchill:Wind:
Aussen-T/F 2451 29-03-2017 13:10:00 17.3 C 8.25 g/m*3 17.3 C 19.3 km/h
2452 29-03-2017 13:15:00 17.3 C 8.25 g/m*3 17.3 C 12.9 km/h
2453 29-03-2017 13:20:00 17.5 C 8.35 g/m*3 17.5 C 14.5 km/h
2454 29-03-2017 13:25:00 17.8 C 8.2 g/m*3 17.8 C 19.3 km/h
2455 29-03-2017 13:30:00 17.9 C 7.94 g/m*3 17.9 C 12.9 km/h
2456 29-03-2017 13:35:00 17.9 C 7.94 g/m*3 17.9 C 16.1 km/h
2457 29-03-2017 13:40:00 18 C 7.99 g/m*3 18 C 16.1 km/h
2458 29-03-2017 13:45:00 17.9 C 8.09 g/m*3 17.9 C 17.7 km/h
2459 29-03-2017 13:50:00 17.9 C 8.24 g/m*3 17.9 C 12.9 km/h
2460 29-03-2017 13:55:00 17.8 C 8.2 g/m*3 17.8 C 17.7 km/h
2461 29-03-2017 14:00:00 17.9 C 8.24 g/m*3 17.9 C 9.7 km/h
2462 29-03-2017 14:05:00 17.9 C 8.09 g/m*3 17.9 C 12.9 km/h
2463 29-03-2017 14:10:00 17.8 C 8.2 g/m*3 17.8 C 9.7 km/h
2464 29-03-2017 14:15:00 17.8 C 8.35 g/m*3 17.8 C 8.1 km/h
2465 29-03-2017 14:20:00 17.8 C 8.2 g/m*3 17.8 C 12.9 km/h
2466 29-03-2017 14:25:00 17.9 C 7.94 g/m*3 17.9 C 19.3 km/h
2467 29-03-2017 14:30:00 17.9 C 8.09 g/m*3 17.9 C 17.7 km/h
2468 29-03-2017 14:35:00 18 C 8.29 g/m*3 18 C 12.9 km/h
2469 29-03-2017 14:40:00 18 C 8.29 g/m*3 18 C 14.5 km/h
2470 29-03-2017 14:45:00 18.1 C 8.19 g/m*3 18.1 C 11.3 km/h
2471 29-03-2017 14:50:00 18.2 C 8.24 g/m*3 18.2 C 12.9 km/h
2472 29-03-2017 14:55:00 18.2 C 8.24 g/m*3 18.2 C 11.3 km/h
2473 29-03-2017 15:00:00 18.3 C 8.44 g/m*3 18.3 C 9.7 km/h
2474 29-03-2017 15:05:00 18.4 C 8.34 g/m*3 18.4 C 14.5 km/h
2475 29-03-2017 15:10:00 18.3 C 8.29 g/m*3 18.3 C 12.9 km/h
Sensor: Nr:Datum:Temp:Abs-Feuchte:Windchill:Wind:
Aussen-T/F 2476 29-03-2017 15:15:00 18.2 C 8.24 g/m*3 18.2 C 14.5 km/h
2477 29-03-2017 15:20:00 17.9 C 8.24 g/m*3 17.9 C 12.9 km/h
2478 29-03-2017 15:25:00 17.8 C 8.2 g/m*3 17.8 C 11.3 km/h
2479 29-03-2017 15:30:00 17.7 C 8.3 g/m*3 17.7 C 14.5 km/h
2480 29-03-2017 15:35:00 17.6 C 8.4 g/m*3 17.6 C 14.5 km/h
2481 29-03-2017 15:40:00 17.6 C 8.4 g/m*3 17.6 C 12.9 km/h
2482 29-03-2017 15:45:00 17.6 C 8.4 g/m*3 17.6 C 12.9 km/h
2483 29-03-2017 15:50:00 17.6 C 8.55 g/m*3 17.6 C 8.1 km/h
2484 29-03-2017 15:55:00 17.6 C 8.4 g/m*3 17.6 C 12.9 km/h
2485 29-03-2017 16:00:00 17.6 C 8.55 g/m*3 17.6 C 9.7 km/h
2486 29-03-2017 16:05:00 17.6 C 8.55 g/m*3 17.6 C 14.5 km/h
2487 29-03-2017 16:10:00 17.6 C 8.55 g/m*3 17.6 C 14.5 km/h
2488 29-03-2017 16:15:00 17.7 C 8.6 g/m*3 17.7 C 9.7 km/h
2489 29-03-2017 16:20:00 17.7 C 8.6 g/m*3 17.7 C 9.7 km/h
2490 29-03-2017 16:25:00 17.7 C 8.6 g/m*3 17.7 C 11.3 km/h
2491 29-03-2017 16:30:00 17.7 C 8.6 g/m*3 17.7 C 12.9 km/h
2492 29-03-2017 16:35:00 17.7 C 8.6 g/m*3 17.7 C 8.1 km/h
2493 29-03-2017 16:40:00 17.7 C 8.6 g/m*3 17.7 C 11.3 km/h
2494 29-03-2017 16:45:00 17.7 C 8.75 g/m*3 17.7 C 9.7 km/h
2495 29-03-2017 16:50:00 17.7 C 8.75 g/m*3 17.7 C 11.3 km/h
2496 29-03-2017 16:55:00 17.6 C 8.7 g/m*3 17.6 C 12.9 km/h
2497 29-03-2017 17:00:00 17.6 C 8.85 g/m*3 17.6 C 12.9 km/h
2498 29-03-2017 17:05:00 17.6 C 9 g/m*3 17.6 C 11.3 km/h
2499 29-03-2017 17:10:00 17.7 C 8.9 g/m*3 17.7 C 9.7 km/h
2500 29-03-2017 17:15:00 17.9 C 9.16 g/m*3 17.9 C 11.3 km/h
Sensor: Nr:Datum:Temp:Abs-Feuchte:Windchill:Wind:
Aussen-T/F 2501 29-03-2017 17:20:00 17.8 C 8.95 g/m*3 17.8 C 12.9 km/h
2502 29-03-2017 17:25:00 17.7 C 8.9 g/m*3 17.7 C 14.5 km/h
2503 29-03-2017 17:30:00 17.6 C 9 g/m*3 17.6 C 11.3 km/h
2504 29-03-2017 17:35:00 17.4 C 9.04 g/m*3 17.4 C 9.7 km/h
2505 29-03-2017 17:40:00 17.4 C 9.04 g/m*3 17.4 C 6.4 km/h
2506 29-03-2017 17:45:00 17.4 C 9.04 g/m*3 17.4 C 9.7 km/h
2507 29-03-2017 17:50:00 17.3 C 8.99 g/m*3 17.3 C 9.7 km/h
2508 29-03-2017 17:55:00 17.3 C 8.99 g/m*3 17.3 C 14.5 km/h
2509 29-03-2017 18:00:00 17.2 C 9.08 g/m*3 17.2 C 11.3 km/h
2510 29-03-2017 18:05:00 17.2 C 9.08 g/m*3 17.2 C 11.3 km/h
2511 29-03-2017 18:10:00 17.2 C 9.08 g/m*3 17.2 C 8.1 km/h
2512 29-03-2017 18:15:00 17.2 C 9.08 g/m*3 17.2 C 12.9 km/h
2513 29-03-2017 18:20:00 17.2 C 8.93 g/m*3 17.2 C 14.5 km/h
2514 29-03-2017 18:25:00 17.2 C 8.93 g/m*3 17.2 C 12.9 km/h
2515 29-03-2017 18:30:00 17.1 C 8.88 g/m*3 17.1 C 9.7 km/h
2516 29-03-2017 18:35:00 17.1 C 9.03 g/m*3 17.1 C 6.4 km/h
2517 29-03-2017 18:40:00 17 C 8.97 g/m*3 17 C 12.9 km/h
2518 29-03-2017 18:45:00 16.9 C 8.92 g/m*3 16.9 C 11.3 km/h
2519 29-03-2017 18:50:00 16.9 C 8.92 g/m*3 16.9 C 9.7 km/h
2520 29-03-2017 18:55:00 16.9 C 8.92 g/m*3 16.9 C 11.3 km/h
2521 29-03-2017 19:00:00 16.8 C 8.72 g/m*3 16.8 C 11.3 km/h
2522 29-03-2017 19:05:00 16.7 C 8.81 g/m*3 16.7 C 9.7 km/h
2523 29-03-2017 19:10:00 16.6 C 8.62 g/m*3 16.6 C 12.9 km/h
2524 29-03-2017 19:15:00 16.4 C 8.65 g/m*3 16.4 C 9.7 km/h
2525 29-03-2017 19:20:00 16.3 C 8.74 g/m*3 16.3 C 11.3 km/h
Sensor: Nr:Datum:Temp:Abs-Feuchte:Windchill:Wind:
Aussen-T/F 2526 29-03-2017 19:25:00 16.2 C 8.69 g/m*3 16.2 C 8.1 km/h
2527 29-03-2017 19:30:00 16.2 C 8.69 g/m*3 16.2 C 6.4 km/h
2528 29-03-2017 19:35:00 16.1 C 8.77 g/m*3 16.1 C 12.9 km/h
2529 29-03-2017 19:40:00 15.9 C 8.53 g/m*3 15.9 C 11.3 km/h
2530 29-03-2017 19:45:00 15.8 C 8.48 g/m*3 15.8 C 11.3 km/h
2531 29-03-2017 19:50:00 15.8 C 8.48 g/m*3 15.8 C 8.1 km/h
2532 29-03-2017 19:55:00 15.7 C 8.56 g/m*3 15.7 C 6.4 km/h
2533 29-03-2017 20:00:00 15.6 C 8.51 g/m*3 15.6 C 4.8 km/h
2534 29-03-2017 20:05:00 15.5 C 8.46 g/m*3 15.5 C 8.1 km/h
2535 29-03-2017 20:10:00 15.4 C 8.41 g/m*3 15.4 C 6.4 km/h
2536 29-03-2017 20:15:00 15.3 C 8.36 g/m*3 15.3 C 12.9 km/h
2537 29-03-2017 20:20:00 15.3 C 8.49 g/m*3 15.3 C 8.1 km/h
2538 29-03-2017 20:25:00 15.3 C 8.49 g/m*3 15.3 C 8.1 km/h
2539 29-03-2017 20:30:00 15.2 C 8.44 g/m*3 15.2 C 4.8 km/h
2540 29-03-2017 20:35:00 15.2 C 8.44 g/m*3 15.2 C 4.8 km/h
2541 29-03-2017 20:40:00 15.1 C 8.39 g/m*3 15.1 C 3.2 km/h
2542 29-03-2017 20:45:00 15 C 8.46 g/m*3 15 C 4.8 km/h
2543 29-03-2017 20:50:00 15 C 8.33 g/m*3 15 C 3.2 km/h
2544 29-03-2017 20:55:00 14.9 C 8.41 g/m*3 14.9 C 4.8 km/h
2545 29-03-2017 21:00:00 14.9 C 8.41 g/m*3 14.9 C 3.2 km/h
2546 29-03-2017 21:05:00 14.8 C 8.49 g/m*3 14.8 C 3.2 km/h
2547 29-03-2017 21:10:00 14.7 C 8.44 g/m*3 14.7 C 1.6 km/h
2548 29-03-2017 21:15:00 14.7 C 8.56 g/m*3 14.7 C 1.6 km/h
2549 29-03-2017 21:20:00 14.6 C 8.51 g/m*3 14.6 C 3.2 km/h
2550 29-03-2017 21:25:00 14.4 C 8.53 g/m*3 14.4 C 1.6 km/h
Sensor: Nr:Datum:Temp:Abs-Feuchte:Windchill:Wind:
Aussen-T/F 2551 29-03-2017 21:30:00 14.3 C 8.6 g/m*3 14.3 C 1.6 km/h
2552 29-03-2017 21:35:00 14.2 C 8.67 g/m*3 14.2 C 1.6 km/h
2553 29-03-2017 21:40:00 14.1 C 8.74 g/m*3 14.1 C 3.2 km/h
2554 29-03-2017 21:45:00 13.9 C 8.63 g/m*3 13.9 C 3.2 km/h
2555 29-03-2017 21:50:00 13.9 C 8.63 g/m*3 13.9 C 3.2 km/h
2556 29-03-2017 21:55:00 13.8 C 8.58 g/m*3 13.8 C 4.8 km/h
2557 29-03-2017 22:00:00 13.8 C 8.7 g/m*3 13.8 C 1.6 km/h
2558 29-03-2017 22:05:00 13.8 C 8.7 g/m*3 13.8 C 8.1 km/h
2559 29-03-2017 22:10:00 13.8 C 8.7 g/m*3 13.8 C 3.2 km/h
2560 29-03-2017 22:15:00 13.7 C 8.76 g/m*3 13.7 C 1.6 km/h
2561 29-03-2017 22:20:00 13.7 C 8.76 g/m*3 13.7 C 1.6 km/h
2562 29-03-2017 22:25:00 13.6 C 8.71 g/m*3 13.6 C 0 km/h
2563 29-03-2017 22:30:00 13.5 C 8.66 g/m*3 13.5 C 0 km/h
2564 29-03-2017 22:35:00 13.3 C 8.55 g/m*3 13.3 C 1.6 km/h
2565 29-03-2017 22:40:00 13.2 C 8.61 g/m*3 13.2 C 0 km/h
2566 29-03-2017 22:45:00 13.1 C 8.56 g/m*3 13.1 C 1.6 km/h
2567 29-03-2017 22:50:00 13 C 8.62 g/m*3 13 C 1.6 km/h
2568 29-03-2017 22:55:00 12.8 C 8.62 g/m*3 12.8 C 1.6 km/h
2569 29-03-2017 23:00:00 12.8 C 8.74 g/m*3 12.8 C 1.6 km/h
2570 29-03-2017 23:05:00 12.7 C 8.68 g/m*3 12.7 C 0 km/h
2571 29-03-2017 23:10:00 12.6 C 8.63 g/m*3 12.6 C 1.6 km/h
2572 29-03-2017 23:15:00 12.4 C 8.52 g/m*3 12.4 C 3.2 km/h
2573 29-03-2017 23:20:00 12.3 C 8.47 g/m*3 12.3 C 3.2 km/h
2574 29-03-2017 23:25:00 12.2 C 8.52 g/m*3 12.2 C 3.2 km/h
2575 29-03-2017 23:30:00 12.1 C 8.47 g/m*3 12.1 C 1.6 km/h
Sensor: Nr:Datum:Temp:Abs-Feuchte:Windchill:Wind:
Aussen-T/F 2576 29-03-2017 23:35:00 12 C 8.53 g/m*3 12 C 1.6 km/h
2577 29-03-2017 23:40:00 11.8 C 8.42 g/m*3 11.8 C 3.2 km/h
2578 29-03-2017 23:45:00 11.8 C 8.53 g/m*3 11.8 C 3.2 km/h
2579 29-03-2017 23:50:00 11.7 C 8.47 g/m*3 11.7 C 3.2 km/h
2580 29-03-2017 23:55:00 11.7 C 8.47 g/m*3 11.7 C 3.2 km/h
2581 30-03-2017 00:00:00 11.6 C 8.52 g/m*3 11.6 C 3.2 km/h
2582 30-03-2017 00:05:00 11.7 C 8.58 g/m*3 11.7 C 3.2 km/h
2583 30-03-2017 00:10:00 11.8 C 8.63 g/m*3 11.8 C 3.2 km/h
2584 30-03-2017 00:15:00 11.9 C 8.58 g/m*3 11.9 C 3.2 km/h
2585 30-03-2017 00:20:00 12.1 C 8.69 g/m*3 12.1 C 1.6 km/h
2586 30-03-2017 00:25:00 12.2 C 8.74 g/m*3 12.2 C 1.6 km/h
2587 30-03-2017 00:30:00 12.2 C 8.63 g/m*3 12.2 C 0 km/h
2588 30-03-2017 00:35:00 12.3 C 8.69 g/m*3 12.3 C 3.2 km/h
2589 30-03-2017 00:40:00 12.3 C 8.69 g/m*3 12.3 C 4.8 km/h
2590 30-03-2017 00:45:00 12.3 C 8.69 g/m*3 12.3 C 1.6 km/h
2591 30-03-2017 00:50:00 12.3 C 8.58 g/m*3 12.3 C 3.2 km/h
2592 30-03-2017 00:55:00 12.3 C 8.58 g/m*3 12.3 C 3.2 km/h
2593 30-03-2017 01:00:00 12.3 C 8.58 g/m*3 12.3 C 8.1 km/h
2594 30-03-2017 01:05:00 12.3 C 8.69 g/m*3 12.3 C 1.6 km/h
2595 30-03-2017 01:10:00 12.2 C 8.52 g/m*3 12.2 C 4.8 km/h
2596 30-03-2017 01:15:00 12.2 C 8.52 g/m*3 12.2 C 3.2 km/h
2597 30-03-2017 01:20:00 12.2 C 8.52 g/m*3 12.2 C 3.2 km/h
2598 30-03-2017 01:25:00 12.2 C 8.63 g/m*3 12.2 C 1.6 km/h
2599 30-03-2017 01:30:00 12.2 C 8.63 g/m*3 12.2 C 3.2 km/h
2600 30-03-2017 01:35:00 12.3 C 8.69 g/m*3 12.3 C 3.2 km/h
Sensor: Nr:Datum:Temp:Abs-Feuchte:Windchill:Wind:
Aussen-T/F 2601 30-03-2017 01:40:00 12.3 C 8.69 g/m*3 12.3 C 0 km/h
2602 30-03-2017 01:45:00 12.3 C 8.69 g/m*3 12.3 C 1.6 km/h
2603 30-03-2017 01:50:00 12.3 C 8.69 g/m*3 12.3 C 0 km/h
2604 30-03-2017 01:55:00 12.3 C 8.69 g/m*3 12.3 C 3.2 km/h
2605 30-03-2017 02:00:00 12.4 C 8.63 g/m*3 12.4 C 1.6 km/h
2606 30-03-2017 02:05:00 12.4 C 8.63 g/m*3 12.4 C 1.6 km/h
2607 30-03-2017 02:10:00 12.5 C 8.69 g/m*3 12.5 C 1.6 km/h
2608 30-03-2017 02:15:00 12.5 C 8.69 g/m*3 12.5 C 0 km/h
2609 30-03-2017 02:20:00 12.5 C 8.69 g/m*3 12.5 C 1.6 km/h
2610 30-03-2017 02:25:00 12.4 C 8.63 g/m*3 12.4 C 0 km/h
2611 30-03-2017 02:30:00 12.4 C 8.63 g/m*3 12.4 C 0 km/h
2612 30-03-2017 02:35:00 12.4 C 8.63 g/m*3 12.4 C 0 km/h
2613 30-03-2017 02:40:00 12.3 C 8.69 g/m*3 12.3 C 0 km/h
2614 30-03-2017 02:45:00 12.2 C 8.63 g/m*3 12.2 C 0 km/h
2615 30-03-2017 02:50:00 12.2 C 8.63 g/m*3 12.2 C 0 km/h
2616 30-03-2017 02:55:00 12.1 C 8.69 g/m*3 12.1 C 0 km/h
2617 30-03-2017 03:00:00 12.1 C 8.69 g/m*3 12.1 C 0 km/h
2618 30-03-2017 03:05:00 11.9 C 8.58 g/m*3 11.9 C 0 km/h
2619 30-03-2017 03:10:00 11.9 C 8.68 g/m*3 11.9 C 0 km/h
2620 30-03-2017 03:15:00 11.8 C 8.63 g/m*3 11.8 C 0 km/h
2621 30-03-2017 03:20:00 11.8 C 8.63 g/m*3 11.8 C 0 km/h
2622 30-03-2017 03:25:00 11.8 C 8.63 g/m*3 11.8 C 0 km/h
2623 30-03-2017 03:30:00 11.7 C 8.68 g/m*3 11.7 C 0 km/h
2624 30-03-2017 03:35:00 11.7 C 8.68 g/m*3 11.7 C 0 km/h
2625 30-03-2017 03:40:00 11.7 C 8.68 g/m*3 11.7 C 0 km/h
Sensor: Nr:Datum:Temp:Abs-Feuchte:Windchill:Wind:
Aussen-T/F 2626 30-03-2017 03:45:00 11.6 C 8.63 g/m*3 11.6 C 0 km/h
2627 30-03-2017 03:50:00 11.6 C 8.63 g/m*3 11.6 C 0 km/h
2628 30-03-2017 03:55:00 11.5 C 8.57 g/m*3 11.5 C 0 km/h
2629 30-03-2017 04:00:00 11.5 C 8.57 g/m*3 11.5 C 0 km/h
2630 30-03-2017 04:05:00 11.4 C 8.52 g/m*3 11.4 C 0 km/h
2631 30-03-2017 04:10:00 11.4 C 8.52 g/m*3 11.4 C 0 km/h
2632 30-03-2017 04:15:00 11.3 C 8.47 g/m*3 11.3 C 0 km/h
2633 30-03-2017 04:20:00 11.3 C 8.57 g/m*3 11.3 C 0 km/h
2634 30-03-2017 04:25:00 11.2 C 8.51 g/m*3 11.2 C 0 km/h
2635 30-03-2017 04:30:00 11.2 C 8.41 g/m*3 11.2 C 0 km/h
2636 30-03-2017 04:35:00 11.1 C 8.46 g/m*3 11.1 C 0 km/h
2637 30-03-2017 04:40:00 10.9 C 8.36 g/m*3 10.9 C 0 km/h
2638 30-03-2017 04:45:00 10.8 C 8.3 g/m*3 10.8 C 0 km/h
2639 30-03-2017 04:50:00 10.7 C 8.35 g/m*3 10.7 C 0 km/h
2640 30-03-2017 04:55:00 10.6 C 8.3 g/m*3 10.6 C 0 km/h
2641 30-03-2017 05:00:00 10.5 C 8.24 g/m*3 10.5 C 0 km/h
2642 30-03-2017 05:05:00 10.4 C 8.29 g/m*3 10.4 C 0 km/h
2643 30-03-2017 05:10:00 10.4 C 8.29 g/m*3 10.4 C 0 km/h
2644 30-03-2017 05:15:00 10.3 C 8.14 g/m*3 10.3 C 0 km/h
2645 30-03-2017 05:20:00 10.2 C 8.18 g/m*3 10.2 C 0 km/h
2646 30-03-2017 05:25:00 10.2 C 8.18 g/m*3 10.2 C 0 km/h
2647 30-03-2017 05:30:00 10.2 C 8.18 g/m*3 10.2 C 0 km/h
2648 30-03-2017 05:35:00 10.1 C 8.13 g/m*3 10.1 C 0 km/h
2649 30-03-2017 05:40:00 10.1 C 8.13 g/m*3 10.1 C 0 km/h
2650 30-03-2017 05:45:00 10 C 8.17 g/m*3 10 C 0 km/h
Sensor: Nr:Datum:Temp:Abs-Feuchte:Windchill:Wind:
Aussen-T/F 2651 30-03-2017 05:50:00 9.9 C 8.12 g/m*3 9.9 C 0 km/h
2652 30-03-2017 05:55:00 9.8 C 8.07 g/m*3 9.8 C 0 km/h
2653 30-03-2017 06:00:00 9.7 C 8.02 g/m*3 9.7 C 0 km/h
2654 30-03-2017 06:05:00 9.6 C 7.97 g/m*3 9.6 C 0 km/h
2655 30-03-2017 06:10:00 9.5 C 7.92 g/m*3 9.5 C 0 km/h
2656 30-03-2017 06:15:00 9.3 C 7.82 g/m*3 9.3 C 0 km/h
2657 30-03-2017 06:20:00 9.2 C 7.77 g/m*3 9.2 C 0 km/h
2658 30-03-2017 06:25:00 9.1 C 7.81 g/m*3 9.1 C 0 km/h
2659 30-03-2017 06:30:00 8.9 C 7.71 g/m*3 8.9 C 0 km/h
2660 30-03-2017 06:35:00 8.8 C 7.66 g/m*3 8.8 C 0 km/h
2661 30-03-2017 06:40:00 8.7 C 7.7 g/m*3 8.7 C 0 km/h
2662 30-03-2017 06:45:00 8.7 C 7.7 g/m*3 8.7 C 0 km/h
2663 30-03-2017 06:50:00 8.6 C 7.65 g/m*3 8.6 C 0 km/h
2664 30-03-2017 06:55:00 8.6 C 7.65 g/m*3 8.6 C 0 km/h
2665 30-03-2017 07:00:00 8.4 C 7.55 g/m*3 8.4 C 0 km/h
2666 30-03-2017 07:05:00 8.3 C 7.5 g/m*3 8.3 C 0 km/h
2667 30-03-2017 07:10:00 8.2 C 7.45 g/m*3 8.2 C 0 km/h
2668 30-03-2017 07:15:00 8.1 C 7.49 g/m*3 8.1 C 0 km/h
2669 30-03-2017 07:20:00 8.1 C 7.49 g/m*3 8.1 C 0 km/h
2670 30-03-2017 07:25:00 8 C 7.44 g/m*3 8 C 0 km/h
2671 30-03-2017 07:30:00 7.9 C 7.39 g/m*3 7.9 C 0 km/h
2672 30-03-2017 07:35:00 7.8 C 7.35 g/m*3 7.8 C 0 km/h
2673 30-03-2017 07:40:00 7.8 C 7.43 g/m*3 7.8 C 0 km/h
2674 30-03-2017 07:45:00 7.8 C 7.43 g/m*3 7.8 C 0 km/h
2675 30-03-2017 07:50:00 7.8 C 7.43 g/m*3 7.8 C 0 km/h
Sensor: Nr:Datum:Temp:Abs-Feuchte:Windchill:Wind:
Aussen-T/F 2676 30-03-2017 07:55:00 7.8 C 7.43 g/m*3 7.8 C 0 km/h
2677 30-03-2017 08:00:00 7.8 C 7.51 g/m*3 7.8 C 0 km/h
2678 30-03-2017 08:05:00 7.8 C 7.43 g/m*3 7.8 C 0 km/h
2679 30-03-2017 08:10:00 7.9 C 7.56 g/m*3 7.9 C 0 km/h
2680 30-03-2017 08:15:00 7.9 C 7.56 g/m*3 7.9 C 0 km/h
2681 30-03-2017 08:20:00 8.1 C 7.66 g/m*3 8.1 C 0 km/h
2682 30-03-2017 08:25:00 8.2 C 7.79 g/m*3 8.2 C 0 km/h
2683 30-03-2017 08:30:00 8.3 C 7.84 g/m*3 8.3 C 0 km/h
2684 30-03-2017 08:35:00 8.4 C 7.89 g/m*3 8.4 C 1.6 km/h
2685 30-03-2017 08:40:00 8.6 C 7.99 g/m*3 8.6 C 0 km/h
2686 30-03-2017 08:45:00 8.6 C 7.91 g/m*3 8.6 C 0 km/h
2687 30-03-2017 08:50:00 8.6 C 7.91 g/m*3 8.6 C 1.6 km/h
2688 30-03-2017 08:55:00 8.7 C 7.96 g/m*3 8.7 C 0 km/h
2689 30-03-2017 09:00:00 8.8 C 8.01 g/m*3 8.8 C 0 km/h
2690 30-03-2017 09:05:00 8.9 C 8.06 g/m*3 8.9 C 0 km/h
2691 30-03-2017 09:10:00 9 C 8.11 g/m*3 9 C 0 km/h
2692 30-03-2017 09:15:00 9.1 C 8.16 g/m*3 9.1 C 0 km/h
2693 30-03-2017 09:20:00 9.2 C 8.22 g/m*3 9.2 C 0 km/h
2694 30-03-2017 09:25:00 9.3 C 8.18 g/m*3 9.3 C 0 km/h
2695 30-03-2017 09:30:00 9.3 C 8.18 g/m*3 9.3 C 0 km/h
2696 30-03-2017 09:35:00 9.5 C 8.28 g/m*3 9.5 C 0 km/h
2697 30-03-2017 09:40:00 9.6 C 8.34 g/m*3 9.6 C 0 km/h
2698 30-03-2017 09:45:00 9.7 C 8.39 g/m*3 9.7 C 0 km/h
2699 30-03-2017 09:50:00 9.8 C 8.35 g/m*3 9.8 C 0 km/h
2700 30-03-2017 09:55:00 9.9 C 8.5 g/m*3 9.9 C 0 km/h
Sensor: Nr:Datum:Temp:Abs-Feuchte:Windchill:Wind:
Aussen-T/F 2701 30-03-2017 10:00:00 10.1 C 8.51 g/m*3 10.1 C 1.6 km/h
2702 30-03-2017 10:05:00 10.3 C 8.62 g/m*3 10.3 C 1.6 km/h
2703 30-03-2017 10:10:00 10.4 C 8.67 g/m*3 10.4 C 3.2 km/h
2704 30-03-2017 10:15:00 10.7 C 8.74 g/m*3 10.7 C 4.8 km/h
2705 30-03-2017 10:20:00 10.9 C 8.75 g/m*3 10.9 C 0 km/h
2706 30-03-2017 10:25:00 11.1 C 8.86 g/m*3 11.1 C 0 km/h
2707 30-03-2017 10:30:00 11.3 C 8.87 g/m*3 11.3 C 0 km/h
2708 30-03-2017 10:35:00 11.6 C 8.94 g/m*3 11.6 C 0 km/h
2709 30-03-2017 10:40:00 11.9 C 9.11 g/m*3 11.9 C 1.6 km/h
2710 30-03-2017 10:45:00 12.2 C 9.17 g/m*3 12.2 C 1.6 km/h
2711 30-03-2017 10:50:00 12.6 C 9.18 g/m*3 12.6 C 0 km/h
2712 30-03-2017 10:55:00 12.9 C 9.13 g/m*3 12.9 C 3.2 km/h
2713 30-03-2017 11:00:00 13.4 C 9.18 g/m*3 13.4 C 3.2 km/h
2714 30-03-2017 11:05:00 13.8 C 9.29 g/m*3 13.8 C 3.2 km/h
2715 30-03-2017 11:10:00 14.3 C 9.34 g/m*3 14.3 C 4.8 km/h
2716 30-03-2017 11:15:00 14.6 C 9.26 g/m*3 14.6 C 4.8 km/h
2717 30-03-2017 11:20:00 14.9 C 9.43 g/m*3 14.9 C 4.8 km/h
2718 30-03-2017 11:25:00 15.3 C 9.4 g/m*3 15.3 C 8.1 km/h
2719 30-03-2017 11:30:00 15.6 C 9.44 g/m*3 15.6 C 4.8 km/h
2720 30-03-2017 11:35:00 15.9 C 9.48 g/m*3 15.9 C 4.8 km/h
2721 30-03-2017 11:40:00 16.1 C 9.46 g/m*3 16.1 C 4.8 km/h
2722 30-03-2017 11:45:00 16.3 C 9.3 g/m*3 16.3 C 6.4 km/h
2723 30-03-2017 11:50:00 16.6 C 9.32 g/m*3 16.6 C 6.4 km/h
2724 30-03-2017 11:55:00 16.7 C 9.24 g/m*3 16.7 C 4.8 km/h
2725 30-03-2017 12:00:00 16.9 C 9.35 g/m*3 16.9 C 4.8 km/h
Sensor: Nr:Datum:Temp:Abs-Feuchte:Windchill:Wind:
Aussen-T/F 2726 30-03-2017 12:05:00 17.2 C 9.23 g/m*3 17.2 C 3.2 km/h
2727 30-03-2017 12:10:00 17.3 C 9.43 g/m*3 17.3 C 1.6 km/h
2728 30-03-2017 12:15:00 17.4 C 9.34 g/m*3 17.4 C 4.8 km/h
2729 30-03-2017 12:20:00 17.5 C 9.39 g/m*3 17.5 C 3.2 km/h
2730 30-03-2017 12:25:00 17.5 C 9.69 g/m*3 17.5 C 1.6 km/h
2731 30-03-2017 12:30:00 17.3 C 9.72 g/m*3 17.3 C 0 km/h
2732 30-03-2017 12:35:00 17.3 C 9.58 g/m*3 17.3 C 0 km/h
2733 30-03-2017 12:40:00 17.2 C 9.67 g/m*3 17.2 C 0 km/h
2734 30-03-2017 12:45:00 17.2 C 9.52 g/m*3 17.2 C 3.2 km/h
2735 30-03-2017 12:50:00 17.2 C 9.23 g/m*3 17.2 C 3.2 km/h
2736 30-03-2017 12:55:00 17.6 C 9.15 g/m*3 17.6 C 4.8 km/h
2737 30-03-2017 13:00:00 17.8 C 9.26 g/m*3 17.8 C 4.8 km/h
2738 30-03-2017 13:05:00 18.1 C 9.27 g/m*3 18.1 C 1.6 km/h
2739 30-03-2017 13:10:00 18.3 C 9.38 g/m*3 18.3 C 3.2 km/h
2740 30-03-2017 13:15:00 18.3 C 9.07 g/m*3 18.3 C 3.2 km/h
2741 30-03-2017 13:20:00 18.4 C 9.12 g/m*3 18.4 C 3.2 km/h
2742 30-03-2017 13:25:00 18.6 C 8.91 g/m*3 18.6 C 3.2 km/h
2743 30-03-2017 13:30:00 18.7 C 9.29 g/m*3 18.7 C 4.8 km/h
2744 30-03-2017 13:35:00 18.7 C 9.29 g/m*3 18.7 C 3.2 km/h
2745 30-03-2017 13:40:00 18.8 C 8.86 g/m*3 18.8 C 4.8 km/h
2746 30-03-2017 13:45:00 18.9 C 9.07 g/m*3 18.9 C 6.4 km/h
2747 30-03-2017 13:50:00 19.1 C 8.85 g/m*3 19.1 C 6.4 km/h
2748 30-03-2017 13:55:00 19.3 C 8.79 g/m*3 19.3 C 8.1 km/h
2749 30-03-2017 14:00:00 19.5 C 9.06 g/m*3 19.5 C 6.4 km/h
2750 30-03-2017 14:05:00 19.6 C 8.95 g/m*3 19.6 C 4.8 km/h
Sensor: Nr:Datum:Temp:Abs-Feuchte:Windchill:Wind:
Aussen-T/F 2751 30-03-2017 14:10:00 19.7 C 9 g/m*3 19.7 C 6.4 km/h
2752 30-03-2017 14:15:00 19.7 C 9.17 g/m*3 19.7 C 1.6 km/h
2753 30-03-2017 14:20:00 19.7 C 8.83 g/m*3 19.7 C 4.8 km/h
2754 30-03-2017 14:25:00 19.6 C 9.12 g/m*3 19.6 C 6.4 km/h
2755 30-03-2017 14:30:00 19.6 C 9.12 g/m*3 19.6 C 3.2 km/h
2756 30-03-2017 14:35:00 19.6 C 9.12 g/m*3 19.6 C 4.8 km/h
2757 30-03-2017 14:40:00 19.6 C 8.95 g/m*3 19.6 C 6.4 km/h
2758 30-03-2017 14:45:00 19.6 C 9.28 g/m*3 19.6 C 3.2 km/h
2759 30-03-2017 14:50:00 19.7 C 9.34 g/m*3 19.7 C 3.2 km/h
2760 30-03-2017 14:55:00 19.7 C 9 g/m*3 19.7 C 4.8 km/h
2761 30-03-2017 15:00:00 19.8 C 8.88 g/m*3 19.8 C 4.8 km/h
2762 30-03-2017 15:05:00 20.1 C 9.21 g/m*3 20.1 C 6.4 km/h
2763 30-03-2017 15:10:00 20.2 C 9.09 g/m*3 20.2 C 3.2 km/h
2764 30-03-2017 15:15:00 20.3 C 8.97 g/m*3 20.3 C 8.1 km/h
2765 30-03-2017 15:20:00 20.6 C 9.49 g/m*3 20.6 C 14.5 km/h
2766 30-03-2017 15:25:00 20.9 C 9.29 g/m*3 20.9 C 6.4 km/h
2767 30-03-2017 15:30:00 21.2 C 9.45 g/m*3 21.2 C 3.2 km/h
2768 30-03-2017 15:35:00 21.5 C 9.24 g/m*3 21.5 C 12.9 km/h
2769 30-03-2017 15:40:00 21.4 C 9.19 g/m*3 21.4 C 9.7 km/h
2770 30-03-2017 15:45:00 21.3 C 9.51 g/m*3 21.3 C 9.7 km/h
2771 30-03-2017 15:50:00 21.1 C 8.84 g/m*3 21.1 C 9.7 km/h
2772 30-03-2017 15:55:00 20.9 C 8.74 g/m*3 20.9 C 9.7 km/h
2773 30-03-2017 16:00:00 20.8 C 9.05 g/m*3 20.8 C 8.1 km/h
2774 30-03-2017 16:05:00 20.7 C 9.18 g/m*3 20.7 C 1.6 km/h
2775 30-03-2017 16:10:00 20.7 C 9 g/m*3 20.7 C 1.6 km/h
Sensor: Nr:Datum:Temp:Abs-Feuchte:Windchill:Wind:
Aussen-T/F 2776 30-03-2017 16:15:00 20.6 C 8.77 g/m*3 20.6 C 1.6 km/h
2777 30-03-2017 16:20:00 20.6 C 8.77 g/m*3 20.6 C 4.8 km/h
2778 30-03-2017 16:25:00 20.7 C 8.82 g/m*3 20.7 C 4.8 km/h
2779 30-03-2017 16:30:00 20.9 C 8.74 g/m*3 20.9 C 8.1 km/h
2780 30-03-2017 16:35:00 21.2 C 8.9 g/m*3 21.2 C 6.4 km/h
2781 30-03-2017 16:40:00 21.4 C 9 g/m*3 21.4 C 6.4 km/h
2782 30-03-2017 16:45:00 21.7 C 8.97 g/m*3 21.7 C 8.1 km/h
2783 30-03-2017 16:50:00 22.1 C 8.98 g/m*3 22.1 C 4.8 km/h
2784 30-03-2017 16:55:00 22.4 C 9.14 g/m*3 22.4 C 9.7 km/h
2785 30-03-2017 17:00:00 22.6 C 9.04 g/m*3 22.6 C 14.5 km/h
2786 30-03-2017 17:05:00 22.6 C 9.04 g/m*3 22.6 C 11.3 km/h
2787 30-03-2017 17:10:00 22.6 C 8.84 g/m*3 22.6 C 11.3 km/h
2788 30-03-2017 17:15:00 22.3 C 8.89 g/m*3 22.3 C 1.6 km/h
2789 30-03-2017 17:20:00 22.5 C 8.99 g/m*3 22.5 C 9.7 km/h
2790 30-03-2017 17:25:00 22.3 C 8.89 g/m*3 22.3 C 9.7 km/h
2791 30-03-2017 17:30:00 22.3 C 8.89 g/m*3 22.3 C 14.5 km/h
2792 30-03-2017 17:35:00 22.3 C 8.69 g/m*3 22.3 C 1.6 km/h
2793 30-03-2017 17:40:00 22.3 C 8.89 g/m*3 22.3 C 6.4 km/h
2794 30-03-2017 17:45:00 22.4 C 8.94 g/m*3 22.4 C 3.2 km/h
2795 30-03-2017 17:50:00 22.4 C 8.74 g/m*3 22.4 C 4.8 km/h
2796 30-03-2017 17:55:00 22.5 C 8.79 g/m*3 22.5 C 4.8 km/h
2797 30-03-2017 18:00:00 22.5 C 8.79 g/m*3 22.5 C 4.8 km/h
2798 30-03-2017 18:05:00 22.7 C 8.89 g/m*3 22.7 C 8.1 km/h
2799 30-03-2017 18:10:00 22.8 C 8.74 g/m*3 22.8 C 11.3 km/h
2800 30-03-2017 18:15:00 22.7 C 8.89 g/m*3 22.7 C 9.7 km/h
Sensor: Nr:Datum:Temp:Abs-Feuchte:Windchill:Wind:
Aussen-T/F 2801 30-03-2017 18:20:00 22.4 C 8.74 g/m*3 22.4 C 6.4 km/h
2802 30-03-2017 18:25:00 22.2 C 8.83 g/m*3 22.2 C 4.8 km/h
2803 30-03-2017 18:30:00 22.1 C 8.59 g/m*3 22.1 C 4.8 km/h
2804 30-03-2017 18:35:00 22.2 C 8.64 g/m*3 22.2 C 6.4 km/h
2805 30-03-2017 18:40:00 22.1 C 8.59 g/m*3 22.1 C 6.4 km/h
2806 30-03-2017 18:45:00 21.9 C 8.49 g/m*3 21.9 C 4.8 km/h
2807 30-03-2017 18:50:00 21.6 C 9.1 g/m*3 21.6 C 4.8 km/h
2808 30-03-2017 18:55:00 21.3 C 9.13 g/m*3 21.3 C 1.6 km/h
2809 30-03-2017 19:00:00 20.9 C 8.56 g/m*3 20.9 C 4.8 km/h
2810 30-03-2017 19:05:00 20.6 C 8.23 g/m*3 20.6 C 3.2 km/h
2811 30-03-2017 19:10:00 20.4 C 8.67 g/m*3 20.4 C 0 km/h
2812 30-03-2017 19:15:00 20.1 C 9.21 g/m*3 20.1 C 1.6 km/h
2813 30-03-2017 19:20:00 19.5 C 9.23 g/m*3 19.5 C 3.2 km/h
2814 30-03-2017 19:25:00 18.9 C 9.07 g/m*3 18.9 C 4.8 km/h
2815 30-03-2017 19:30:00 18.4 C 9.12 g/m*3 18.4 C 4.8 km/h
2816 30-03-2017 19:35:00 17.8 C 8.95 g/m*3 17.8 C 4.8 km/h
2817 30-03-2017 19:40:00 17.3 C 8.99 g/m*3 17.3 C 3.2 km/h
2818 30-03-2017 19:45:00 16.9 C 8.92 g/m*3 16.9 C 4.8 km/h
2819 30-03-2017 19:50:00 16.6 C 9.04 g/m*3 16.6 C 4.8 km/h
2820 30-03-2017 19:55:00 16.2 C 8.96 g/m*3 16.2 C 4.8 km/h
2821 30-03-2017 20:00:00 15.8 C 8.88 g/m*3 15.8 C 4.8 km/h
2822 30-03-2017 20:05:00 15.6 C 8.78 g/m*3 15.6 C 6.4 km/h
2823 30-03-2017 20:10:00 15.3 C 8.75 g/m*3 15.3 C 4.8 km/h
2824 30-03-2017 20:15:00 15.1 C 8.77 g/m*3 15.1 C 6.4 km/h
2825 30-03-2017 20:20:00 14.9 C 8.79 g/m*3 14.9 C 6.4 km/h
Sensor: Nr:Datum:Temp:Abs-Feuchte:Windchill:Wind:
Aussen-T/F 2826 30-03-2017 20:25:00 14.8 C 8.87 g/m*3 14.8 C 4.8 km/h
2827 30-03-2017 20:30:00 14.7 C 8.81 g/m*3 14.7 C 6.4 km/h
2828 30-03-2017 20:35:00 14.6 C 8.76 g/m*3 14.6 C 6.4 km/h
2829 30-03-2017 20:40:00 14.4 C 8.78 g/m*3 14.4 C 4.8 km/h
2830 30-03-2017 20:45:00 14.3 C 8.72 g/m*3 14.3 C 4.8 km/h
2831 30-03-2017 20:50:00 14.3 C 8.85 g/m*3 14.3 C 4.8 km/h
2832 30-03-2017 20:55:00 14.2 C 8.79 g/m*3 14.2 C 6.4 km/h
2833 30-03-2017 21:00:00 14.2 C 8.79 g/m*3 14.2 C 4.8 km/h
2834 30-03-2017 21:05:00 14.1 C 8.86 g/m*3 14.1 C 6.4 km/h
2835 30-03-2017 21:10:00 14.1 C 8.86 g/m*3 14.1 C 6.4 km/h
2836 30-03-2017 21:15:00 13.9 C 8.75 g/m*3 13.9 C 6.4 km/h
2837 30-03-2017 21:20:00 13.9 C 8.87 g/m*3 13.9 C 6.4 km/h
2838 30-03-2017 21:25:00 13.8 C 8.82 g/m*3 13.8 C 4.8 km/h
2839 30-03-2017 21:30:00 13.8 C 8.82 g/m*3 13.8 C 4.8 km/h
2840 30-03-2017 21:35:00 13.8 C 8.82 g/m*3 13.8 C 4.8 km/h
2841 30-03-2017 21:40:00 13.7 C 8.88 g/m*3 13.7 C 4.8 km/h
2842 30-03-2017 21:45:00 13.7 C 8.88 g/m*3 13.7 C 4.8 km/h
2843 30-03-2017 21:50:00 13.6 C 8.94 g/m*3 13.6 C 0 km/h
2844 30-03-2017 21:55:00 13.4 C 8.83 g/m*3 13.4 C 3.2 km/h
2845 30-03-2017 22:00:00 13.3 C 8.9 g/m*3 13.3 C 3.2 km/h
2846 30-03-2017 22:05:00 13.2 C 8.96 g/m*3 13.2 C 3.2 km/h
2847 30-03-2017 22:10:00 13.1 C 8.9 g/m*3 13.1 C 3.2 km/h
2848 30-03-2017 22:15:00 13.1 C 8.9 g/m*3 13.1 C 3.2 km/h
2849 30-03-2017 22:20:00 12.9 C 8.79 g/m*3 12.9 C 3.2 km/h
2850 30-03-2017 22:25:00 12.8 C 8.74 g/m*3 12.8 C 1.6 km/h
Sensor: Nr:Datum:Temp:Abs-Feuchte:Windchill:Wind:
Aussen-T/F 2851 30-03-2017 22:30:00 12.7 C 8.68 g/m*3 12.7 C 0 km/h
2852 30-03-2017 22:35:00 12.5 C 8.69 g/m*3 12.5 C 0 km/h
2853 30-03-2017 22:40:00 12.4 C 8.63 g/m*3 12.4 C 0 km/h
2854 30-03-2017 22:45:00 12.2 C 8.52 g/m*3 12.2 C 0 km/h
2855 30-03-2017 22:50:00 12 C 8.53 g/m*3 12 C 0 km/h
2856 30-03-2017 22:55:00 11.8 C 8.42 g/m*3 11.8 C 0 km/h
2857 30-03-2017 23:00:00 11.6 C 8.52 g/m*3 11.6 C 0 km/h
2858 30-03-2017 23:05:00 11.5 C 8.57 g/m*3 11.5 C 0 km/h
2859 30-03-2017 23:10:00 11.4 C 8.42 g/m*3 11.4 C 0 km/h
2860 30-03-2017 23:15:00 11.2 C 8.41 g/m*3 11.2 C 0 km/h
2861 30-03-2017 23:20:00 11.1 C 8.36 g/m*3 11.1 C 0 km/h
2862 30-03-2017 23:25:00 10.9 C 8.36 g/m*3 10.9 C 0 km/h
2863 30-03-2017 23:30:00 10.9 C 8.26 g/m*3 10.9 C 0 km/h
2864 30-03-2017 23:35:00 10.8 C 8.3 g/m*3 10.8 C 0 km/h
2865 30-03-2017 23:40:00 10.8 C 8.3 g/m*3 10.8 C 0 km/h
2866 30-03-2017 23:45:00 10.7 C 8.25 g/m*3 10.7 C 0 km/h
2867 30-03-2017 23:50:00 10.5 C 8.15 g/m*3 10.5 C 0 km/h
2868 30-03-2017 23:55:00 10.4 C 8.19 g/m*3 10.4 C 0 km/h
2869 31-03-2017 00:00:00 10.2 C 7.99 g/m*3 10.2 C 0 km/h
2870 31-03-2017 00:05:00 10.1 C 8.13 g/m*3 10.1 C 0 km/h
2871 31-03-2017 00:10:00 10 C 8.08 g/m*3 10 C 0 km/h
2872 31-03-2017 00:15:00 9.9 C 8.03 g/m*3 9.9 C 0 km/h
2873 31-03-2017 00:20:00 9.8 C 8.07 g/m*3 9.8 C 0 km/h
2874 31-03-2017 00:25:00 9.7 C 7.93 g/m*3 9.7 C 0 km/h
2875 31-03-2017 00:30:00 9.6 C 7.97 g/m*3 9.6 C 0 km/h
Sensor: Nr:Datum:Temp:Abs-Feuchte:Windchill:Wind:
Aussen-T/F 2876 31-03-2017 00:35:00 9.5 C 7.92 g/m*3 9.5 C 0 km/h
2877 31-03-2017 00:40:00 9.4 C 7.96 g/m*3 9.4 C 0 km/h
2878 31-03-2017 00:45:00 9.3 C 7.91 g/m*3 9.3 C 0 km/h
2879 31-03-2017 00:50:00 9.3 C 7.91 g/m*3 9.3 C 0 km/h
2880 31-03-2017 00:55:00 9.2 C 7.86 g/m*3 9.2 C 0 km/h
2881 31-03-2017 01:00:00 9.1 C 7.81 g/m*3 9.1 C 0 km/h
2882 31-03-2017 01:05:00 9 C 7.85 g/m*3 9 C 0 km/h
2883 31-03-2017 01:10:00 9 C 7.85 g/m*3 9 C 0 km/h
2884 31-03-2017 01:15:00 8.9 C 7.88 g/m*3 8.9 C 0 km/h
2885 31-03-2017 01:20:00 8.9 C 7.8 g/m*3 8.9 C 0 km/h
2886 31-03-2017 01:25:00 8.8 C 7.75 g/m*3 8.8 C 0 km/h
2887 31-03-2017 01:30:00 8.7 C 7.7 g/m*3 8.7 C 0 km/h
2888 31-03-2017 01:35:00 8.7 C 7.78 g/m*3 8.7 C 0 km/h
2889 31-03-2017 01:40:00 8.6 C 7.73 g/m*3 8.6 C 0 km/h
2890 31-03-2017 01:45:00 8.5 C 7.68 g/m*3 8.5 C 0 km/h
2891 31-03-2017 01:50:00 8.5 C 7.77 g/m*3 8.5 C 0 km/h
2892 31-03-2017 01:55:00 8.4 C 7.72 g/m*3 8.4 C 0 km/h
2893 31-03-2017 02:00:00 8.4 C 7.72 g/m*3 8.4 C 0 km/h
2894 31-03-2017 02:05:00 8.4 C 7.72 g/m*3 8.4 C 0 km/h
2895 31-03-2017 02:10:00 8.3 C 7.67 g/m*3 8.3 C 0 km/h
2896 31-03-2017 02:15:00 8.3 C 7.67 g/m*3 8.3 C 0 km/h
2897 31-03-2017 02:20:00 8.3 C 7.67 g/m*3 8.3 C 0 km/h
2898 31-03-2017 02:25:00 8.2 C 7.62 g/m*3 8.2 C 0 km/h
2899 31-03-2017 02:30:00 8.2 C 7.7 g/m*3 8.2 C 0 km/h
2900 31-03-2017 02:35:00 8.1 C 7.57 g/m*3 8.1 C 0 km/h
Sensor: Nr:Datum:Temp:Abs-Feuchte:Windchill:Wind:
Aussen-T/F 2901 31-03-2017 02:40:00 8 C 7.52 g/m*3 8 C 0 km/h
2902 31-03-2017 02:45:00 7.8 C 7.43 g/m*3 7.8 C 0 km/h
2903 31-03-2017 02:50:00 7.7 C 7.38 g/m*3 7.7 C 0 km/h
2904 31-03-2017 02:55:00 7.7 C 7.46 g/m*3 7.7 C 0 km/h
2905 31-03-2017 03:00:00 7.6 C 7.41 g/m*3 7.6 C 0 km/h
2906 31-03-2017 03:05:00 7.6 C 7.41 g/m*3 7.6 C 0 km/h
2907 31-03-2017 03:10:00 7.5 C 7.36 g/m*3 7.5 C 0 km/h
2908 31-03-2017 03:15:00 7.4 C 7.32 g/m*3 7.4 C 0 km/h
2909 31-03-2017 03:20:00 7.4 C 7.32 g/m*3 7.4 C 0 km/h
2910 31-03-2017 03:25:00 7.3 C 7.27 g/m*3 7.3 C 0 km/h
2911 31-03-2017 03:30:00 7.3 C 7.27 g/m*3 7.3 C 0 km/h
2912 31-03-2017 03:35:00 7.2 C 7.22 g/m*3 7.2 C 0 km/h
2913 31-03-2017 03:40:00 7.2 C 7.3 g/m*3 7.2 C 0 km/h
2914 31-03-2017 03:45:00 7.2 C 7.3 g/m*3 7.2 C 0 km/h
2915 31-03-2017 03:50:00 7.2 C 7.3 g/m*3 7.2 C 0 km/h
2916 31-03-2017 03:55:00 7.2 C 7.3 g/m*3 7.2 C 0 km/h
2917 31-03-2017 04:00:00 7.2 C 7.3 g/m*3 7.2 C 0 km/h
2918 31-03-2017 04:05:00 7.2 C 7.3 g/m*3 7.2 C 0 km/h
2919 31-03-2017 04:10:00 7.3 C 7.35 g/m*3 7.3 C 0 km/h
2920 31-03-2017 04:15:00 7.2 C 7.3 g/m*3 7.2 C 0 km/h
2921 31-03-2017 04:20:00 7.2 C 7.3 g/m*3 7.2 C 0 km/h
2922 31-03-2017 04:25:00 7.2 C 7.38 g/m*3 7.2 C 0 km/h
2923 31-03-2017 04:30:00 7.1 C 7.25 g/m*3 7.1 C 0 km/h
2924 31-03-2017 04:35:00 6.9 C 7.16 g/m*3 6.9 C 0 km/h
2925 31-03-2017 04:40:00 6.8 C 7.11 g/m*3 6.8 C 0 km/h
Sensor: Nr:Datum:Temp:Abs-Feuchte:Windchill:Wind:
Aussen-T/F 2926 31-03-2017 04:45:00 6.8 C 7.11 g/m*3 6.8 C 0 km/h
2927 31-03-2017 04:50:00 6.8 C 7.19 g/m*3 6.8 C 0 km/h
2928 31-03-2017 04:55:00 6.7 C 7.14 g/m*3 6.7 C 0 km/h
2929 31-03-2017 05:00:00 6.7 C 7.14 g/m*3 6.7 C 0 km/h
2930 31-03-2017 05:05:00 6.6 C 7.02 g/m*3 6.6 C 0 km/h
2931 31-03-2017 05:10:00 6.5 C 7.05 g/m*3 6.5 C 0 km/h
2932 31-03-2017 05:15:00 6.5 C 7.05 g/m*3 6.5 C 0 km/h
2933 31-03-2017 05:20:00 6.5 C 7.05 g/m*3 6.5 C 0 km/h
2934 31-03-2017 05:25:00 6.4 C 7 g/m*3 6.4 C 0 km/h
2935 31-03-2017 05:30:00 6.4 C 7 g/m*3 6.4 C 0 km/h
2936 31-03-2017 05:35:00 6.3 C 6.96 g/m*3 6.3 C 0 km/h
2937 31-03-2017 05:40:00 6.3 C 6.96 g/m*3 6.3 C 0 km/h
2938 31-03-2017 05:45:00 6.2 C 6.91 g/m*3 6.2 C 0 km/h
2939 31-03-2017 05:50:00 6.2 C 6.91 g/m*3 6.2 C 0 km/h
2940 31-03-2017 05:55:00 6.2 C 6.91 g/m*3 6.2 C 0 km/h
2941 31-03-2017 06:00:00 6.1 C 6.87 g/m*3 6.1 C 0 km/h
2942 31-03-2017 06:05:00 6.2 C 6.99 g/m*3 6.2 C 0 km/h
2943 31-03-2017 06:10:00 6.3 C 7.03 g/m*3 6.3 C 0 km/h
2944 31-03-2017 06:15:00 6.2 C 6.99 g/m*3 6.2 C 0 km/h
2945 31-03-2017 06:20:00 6.2 C 6.99 g/m*3 6.2 C 0 km/h
2946 31-03-2017 06:25:00 6.2 C 6.91 g/m*3 6.2 C 0 km/h
2947 31-03-2017 06:30:00 6.1 C 6.87 g/m*3 6.1 C 0 km/h
2948 31-03-2017 06:35:00 6.1 C 6.87 g/m*3 6.1 C 0 km/h
2949 31-03-2017 06:40:00 6 C 6.9 g/m*3 6 C 0 km/h
2950 31-03-2017 06:45:00 5.9 C 6.85 g/m*3 5.9 C 0 km/h
Sensor: Nr:Datum:Temp:Abs-Feuchte:Windchill:Wind:
Aussen-T/F 2951 31-03-2017 06:50:00 5.8 C 6.81 g/m*3 5.8 C 0 km/h
2952 31-03-2017 06:55:00 5.8 C 6.73 g/m*3 5.8 C 0 km/h
2953 31-03-2017 07:00:00 5.7 C 6.69 g/m*3 5.7 C 0 km/h
2954 31-03-2017 07:05:00 5.6 C 6.72 g/m*3 5.6 C 0 km/h
2955 31-03-2017 07:10:00 5.6 C 6.72 g/m*3 5.6 C 0 km/h
2956 31-03-2017 07:15:00 5.5 C 6.67 g/m*3 5.5 C 0 km/h
2957 31-03-2017 07:20:00 5.4 C 6.56 g/m*3 5.4 C 0 km/h
2958 31-03-2017 07:25:00 5.6 C 6.72 g/m*3 5.6 C 0 km/h
2959 31-03-2017 07:30:00 5.6 C 6.72 g/m*3 5.6 C 0 km/h
2960 31-03-2017 07:35:00 5.6 C 6.72 g/m*3 5.6 C 0 km/h
2961 31-03-2017 07:40:00 5.7 C 6.76 g/m*3 5.7 C 1.6 km/h
2962 31-03-2017 07:45:00 5.7 C 6.76 g/m*3 5.7 C 0 km/h
2963 31-03-2017 07:50:00 5.7 C 6.76 g/m*3 5.7 C 0 km/h
2964 31-03-2017 07:55:00 5.6 C 6.72 g/m*3 5.6 C 0 km/h
2965 31-03-2017 08:00:00 5.6 C 6.72 g/m*3 5.6 C 0 km/h
2966 31-03-2017 08:05:00 5.7 C 6.76 g/m*3 5.7 C 1.6 km/h
2967 31-03-2017 08:10:00 5.7 C 6.76 g/m*3 5.7 C 0 km/h
2968 31-03-2017 08:15:00 5.8 C 6.81 g/m*3 5.8 C 0 km/h
2969 31-03-2017 08:20:00 5.8 C 6.81 g/m*3 5.8 C 0 km/h
2970 31-03-2017 08:25:00 6 C 6.97 g/m*3 6 C 0 km/h
2971 31-03-2017 08:30:00 6.1 C 6.94 g/m*3 6.1 C 0 km/h
2972 31-03-2017 08:35:00 6.1 C 7.01 g/m*3 6.1 C 0 km/h
2973 31-03-2017 08:40:00 6.1 C 7.01 g/m*3 6.1 C 0 km/h
2974 31-03-2017 08:45:00 6.2 C 7.06 g/m*3 6.2 C 1.6 km/h
2975 31-03-2017 08:50:00 6.3 C 7.11 g/m*3 6.3 C 0 km/h
Sensor: Nr:Datum:Temp:Abs-Feuchte:Windchill:Wind:
Aussen-T/F 2976 31-03-2017 08:55:00 6.3 C 7.11 g/m*3 6.3 C 0 km/h
2977 31-03-2017 09:00:00 6.4 C 7.15 g/m*3 6.4 C 0 km/h
2978 31-03-2017 09:05:00 6.6 C 7.25 g/m*3 6.6 C 0 km/h
2979 31-03-2017 09:10:00 6.7 C 7.29 g/m*3 6.7 C 0 km/h
2980 31-03-2017 09:15:00 6.8 C 7.34 g/m*3 6.8 C 0 km/h
2981 31-03-2017 09:20:00 7 C 7.44 g/m*3 7 C 0 km/h
2982 31-03-2017 09:25:00 7.1 C 7.49 g/m*3 7.1 C 0 km/h
2983 31-03-2017 09:30:00 7.3 C 7.58 g/m*3 7.3 C 0 km/h
2984 31-03-2017 09:35:00 7.5 C 7.68 g/m*3 7.5 C 0 km/h
2985 31-03-2017 09:40:00 7.7 C 7.78 g/m*3 7.7 C 0 km/h
2986 31-03-2017 09:45:00 7.9 C 7.89 g/m*3 7.9 C 0 km/h
2987 31-03-2017 09:50:00 8.1 C 7.99 g/m*3 8.1 C 0 km/h
2988 31-03-2017 09:55:00 8.3 C 8.09 g/m*3 8.3 C 0 km/h
2989 31-03-2017 10:00:00 8.6 C 8.25 g/m*3 8.6 C 0 km/h
2990 31-03-2017 10:05:00 8.8 C 8.44 g/m*3 8.8 C 0 km/h
2991 31-03-2017 10:10:00 9.1 C 8.61 g/m*3 9.1 C 0 km/h
2992 31-03-2017 10:15:00 9.4 C 8.77 g/m*3 9.4 C 0 km/h
2993 31-03-2017 10:20:00 9.6 C 8.89 g/m*3 9.6 C 0 km/h
2994 31-03-2017 10:25:00 9.8 C 9 g/m*3 9.8 C 0 km/h
2995 31-03-2017 10:30:00 10 C 9.02 g/m*3 10 C 0 km/h
2996 31-03-2017 10:35:00 10.2 C 9.14 g/m*3 10.2 C 0 km/h
2997 31-03-2017 10:40:00 10.4 C 9.25 g/m*3 10.4 C 1.6 km/h
2998 31-03-2017 10:45:00 10.8 C 9.39 g/m*3 10.8 C 0 km/h
2999 31-03-2017 10:50:00 11.1 C 9.57 g/m*3 11.1 C 0 km/h
3000 31-03-2017 10:55:00 11.6 C 9.77 g/m*3 11.6 C 0 km/h
Sensor: Nr:Datum:Temp:Abs-Feuchte:Windchill:Wind:
Aussen-T/F 3001 31-03-2017 11:00:00 12.1 C 9.76 g/m*3 12.1 C 0 km/h
3002 31-03-2017 11:05:00 12.7 C 9.8 g/m*3 12.7 C 3.2 km/h
3003 31-03-2017 11:10:00 13.3 C 9.7 g/m*3 13.3 C 1.6 km/h
3004 31-03-2017 11:15:00 13.9 C 9.47 g/m*3 13.9 C 3.2 km/h
3005 31-03-2017 11:20:00 14.7 C 9.32 g/m*3 14.7 C 3.2 km/h
3006 31-03-2017 11:25:00 15.3 C 9.53 g/m*3 15.3 C 4.8 km/h
3007 31-03-2017 11:30:00 15.8 C 9.42 g/m*3 15.8 C 3.2 km/h
3008 31-03-2017 11:35:00 16.2 C 9.52 g/m*3 16.2 C 1.6 km/h
3009 31-03-2017 11:40:00 16.7 C 9.52 g/m*3 16.7 C 3.2 km/h
3010 31-03-2017 11:45:00 17.1 C 9.46 g/m*3 17.1 C 4.8 km/h
3011 31-03-2017 11:50:00 17.6 C 9 g/m*3 17.6 C 6.4 km/h
3012 31-03-2017 11:55:00 18.2 C 8.7 g/m*3 18.2 C 12.9 km/h
3013 31-03-2017 12:00:00 18.6 C 8.28 g/m*3 18.6 C 17.7 km/h
3014 31-03-2017 12:05:00 19.1 C 8.03 g/m*3 19.1 C 14.5 km/h
3015 31-03-2017 12:10:00 19.4 C 7.67 g/m*3 19.4 C 16.1 km/h
3016 31-03-2017 12:15:00 19.6 C 7.43 g/m*3 19.6 C 17.7 km/h
3017 31-03-2017 12:20:00 19.8 C 7.52 g/m*3 19.8 C 14.5 km/h
3018 31-03-2017 12:25:00 19.9 C 7.73 g/m*3 19.9 C 11.3 km/h
3019 31-03-2017 12:30:00 20.1 C 7.47 g/m*3 20.1 C 16.1 km/h
3020 31-03-2017 12:35:00 20.1 C 7.65 g/m*3 20.1 C 12.9 km/h
3021 31-03-2017 12:40:00 20.1 C 7.47 g/m*3 20.1 C 14.5 km/h
3022 31-03-2017 12:45:00 20.2 C 7.34 g/m*3 20.2 C 14.5 km/h
3023 31-03-2017 12:50:00 20.2 C 7.17 g/m*3 20.2 C 11.3 km/h
3024 31-03-2017 12:55:00 20.3 C 7.56 g/m*3 20.3 C 12.9 km/h
3025 31-03-2017 13:00:00 20.2 C 7.52 g/m*3 20.2 C 17.7 km/h
Sensor: Nr:Datum:Temp:Abs-Feuchte:Windchill:Wind:
Aussen-T/F 3026 31-03-2017 13:05:00 20.2 C 7.17 g/m*3 20.2 C 19.3 km/h
3027 31-03-2017 13:10:00 20.3 C 7.39 g/m*3 20.3 C 16.1 km/h
3028 31-03-2017 13:15:00 20.3 C 7.21 g/m*3 20.3 C 14.5 km/h
3029 31-03-2017 13:20:00 20.4 C 7.43 g/m*3 20.4 C 16.1 km/h
3030 31-03-2017 13:25:00 20.6 C 7.52 g/m*3 20.6 C 14.5 km/h
3031 31-03-2017 13:30:00 20.6 C 7.34 g/m*3 20.6 C 12.9 km/h
3032 31-03-2017 13:35:00 20.6 C 7.34 g/m*3 20.6 C 14.5 km/h
3033 31-03-2017 13:40:00 20.7 C 7.2 g/m*3 20.7 C 20.9 km/h
3034 31-03-2017 13:45:00 20.7 C 7.38 g/m*3 20.7 C 20.9 km/h
3035 31-03-2017 13:50:00 20.7 C 7.2 g/m*3 20.7 C 14.5 km/h
3036 31-03-2017 13:55:00 20.8 C 7.06 g/m*3 20.8 C 12.9 km/h
3037 31-03-2017 14:00:00 20.9 C 7.29 g/m*3 20.9 C 19.3 km/h
3038 31-03-2017 14:05:00 21 C 7.14 g/m*3 21 C 19.3 km/h
3039 31-03-2017 14:10:00 21.1 C 7.19 g/m*3 21.1 C 11.3 km/h
3040 31-03-2017 14:15:00 21.3 C 7.27 g/m*3 21.3 C 9.7 km/h
3041 31-03-2017 14:20:00 21.4 C 7.12 g/m*3 21.4 C 4.8 km/h
3042 31-03-2017 14:25:00 21.6 C 7.21 g/m*3 21.6 C 9.7 km/h
3043 31-03-2017 14:30:00 21.7 C 7.06 g/m*3 21.7 C 12.9 km/h
3044 31-03-2017 14:35:00 21.7 C 7.06 g/m*3 21.7 C 16.1 km/h
3045 31-03-2017 14:40:00 21.8 C 6.91 g/m*3 21.8 C 11.3 km/h
3046 31-03-2017 14:45:00 22 C 6.99 g/m*3 22 C 11.3 km/h
3047 31-03-2017 14:50:00 22.1 C 7.03 g/m*3 22.1 C 12.9 km/h
3048 31-03-2017 14:55:00 22 C 6.99 g/m*3 22 C 12.9 km/h
3049 31-03-2017 15:00:00 22 C 7.57 g/m*3 22 C 12.9 km/h
3050 31-03-2017 15:05:00 22.1 C 7.22 g/m*3 22.1 C 11.3 km/h
Sensor: Nr:Datum:Temp:Abs-Feuchte:Windchill:Wind:
Aussen-T/F 3051 31-03-2017 15:10:00 22.1 C 7.03 g/m*3 22.1 C 11.3 km/h
3052 31-03-2017 15:15:00 22.1 C 6.64 g/m*3 22.1 C 12.9 km/h
3053 31-03-2017 15:20:00 22.2 C 7.26 g/m*3 22.2 C 6.4 km/h
3054 31-03-2017 15:25:00 22.3 C 6.91 g/m*3 22.3 C 12.9 km/h
3055 31-03-2017 15:30:00 22.4 C 6.95 g/m*3 22.4 C 16.1 km/h
3056 31-03-2017 15:35:00 22.5 C 6.99 g/m*3 22.5 C 14.5 km/h
3057 31-03-2017 15:40:00 22.6 C 6.63 g/m*3 22.6 C 9.7 km/h
3058 31-03-2017 15:45:00 22.7 C 7.07 g/m*3 22.7 C 9.7 km/h
3059 31-03-2017 15:50:00 22.7 C 6.26 g/m*3 22.7 C 8.1 km/h
3060 31-03-2017 15:55:00 22.7 C 6.67 g/m*3 22.7 C 8.1 km/h
3061 31-03-2017 16:00:00 22.8 C 6.5 g/m*3 22.8 C 11.3 km/h
3062 31-03-2017 16:05:00 22.8 C 6.71 g/m*3 22.8 C 14.5 km/h
3063 31-03-2017 16:10:00 22.7 C 6.47 g/m*3 22.7 C 8.1 km/h
3064 31-03-2017 16:15:00 22.8 C 6.71 g/m*3 22.8 C 12.9 km/h
3065 31-03-2017 16:20:00 22.8 C 7.11 g/m*3 22.8 C 8.1 km/h
3066 31-03-2017 16:25:00 22.8 C 6.91 g/m*3 22.8 C 6.4 km/h
3067 31-03-2017 16:30:00 22.8 C 6.91 g/m*3 22.8 C 8.1 km/h
3068 31-03-2017 16:35:00 22.6 C 6.43 g/m*3 22.6 C 9.7 km/h
3069 31-03-2017 16:40:00 22.4 C 6.16 g/m*3 22.4 C 9.7 km/h
3070 31-03-2017 16:45:00 22.3 C 6.12 g/m*3 22.3 C 11.3 km/h
3071 31-03-2017 16:50:00 22.3 C 6.71 g/m*3 22.3 C 8.1 km/h
3072 31-03-2017 16:55:00 22.3 C 6.71 g/m*3 22.3 C 6.4 km/h
3073 31-03-2017 17:00:00 22.3 C 7.11 g/m*3 22.3 C 11.3 km/h
3074 31-03-2017 17:05:00 22.2 C 6.28 g/m*3 22.2 C 9.7 km/h
3075 31-03-2017 17:10:00 22.2 C 6.09 g/m*3 22.2 C 11.3 km/h
Sensor: Nr:Datum:Temp:Abs-Feuchte:Windchill:Wind:
Aussen-T/F 3076 31-03-2017 17:15:00 22.1 C 6.25 g/m*3 22.1 C 4.8 km/h
3077 31-03-2017 17:20:00 22.1 C 6.44 g/m*3 22.1 C 8.1 km/h
3078 31-03-2017 17:25:00 22.1 C 6.25 g/m*3 22.1 C 9.7 km/h
3079 31-03-2017 17:30:00 22.1 C 6.25 g/m*3 22.1 C 11.3 km/h
3080 31-03-2017 17:35:00 22.1 C 6.05 g/m*3 22.1 C 6.4 km/h
3081 31-03-2017 17:40:00 22.1 C 6.64 g/m*3 22.1 C 14.5 km/h
3082 31-03-2017 17:45:00 22.2 C 6.87 g/m*3 22.2 C 12.9 km/h
3083 31-03-2017 17:50:00 22.2 C 6.87 g/m*3 22.2 C 8.1 km/h
3084 31-03-2017 17:55:00 22.3 C 6.71 g/m*3 22.3 C 4.8 km/h
3085 31-03-2017 18:00:00 22.5 C 6.59 g/m*3 22.5 C 9.7 km/h
3086 31-03-2017 18:05:00 22.8 C 6.91 g/m*3 22.8 C 6.4 km/h
3087 31-03-2017 18:10:00 23.2 C 6.86 g/m*3 23.2 C 6.4 km/h
3088 31-03-2017 18:15:00 23.3 C 6.69 g/m*3 23.3 C 9.7 km/h
3089 31-03-2017 18:20:00 23.2 C 6.86 g/m*3 23.2 C 9.7 km/h
3090 31-03-2017 18:25:00 22.9 C 6.74 g/m*3 22.9 C 8.1 km/h
3091 31-03-2017 18:30:00 22.6 C 6.83 g/m*3 22.6 C 8.1 km/h
3092 31-03-2017 18:35:00 22.3 C 6.91 g/m*3 22.3 C 11.3 km/h
3093 31-03-2017 18:40:00 22.2 C 7.26 g/m*3 22.2 C 6.4 km/h
3094 31-03-2017 18:45:00 22 C 7.18 g/m*3 22 C 11.3 km/h
3095 31-03-2017 18:50:00 21.9 C 7.33 g/m*3 21.9 C 6.4 km/h
3096 31-03-2017 18:55:00 21.9 C 7.53 g/m*3 21.9 C 4.8 km/h
3097 31-03-2017 19:00:00 21.9 C 7.91 g/m*3 21.9 C 4.8 km/h
3098 31-03-2017 19:05:00 21.8 C 8.06 g/m*3 21.8 C 1.6 km/h
3099 31-03-2017 19:10:00 21.6 C 7.78 g/m*3 21.6 C 3.2 km/h
3100 31-03-2017 19:15:00 21.2 C 7.97 g/m*3 21.2 C 3.2 km/h
Sensor: Nr:Datum:Temp:Abs-Feuchte:Windchill:Wind:
Aussen-T/F 3101 31-03-2017 19:20:00 20.8 C 7.97 g/m*3 20.8 C 1.6 km/h
3102 31-03-2017 19:25:00 20.4 C 7.61 g/m*3 20.4 C 4.8 km/h
3103 31-03-2017 19:30:00 20.1 C 8 g/m*3 20.1 C 1.6 km/h
3104 31-03-2017 19:35:00 19.8 C 8.03 g/m*3 19.8 C 3.2 km/h
3105 31-03-2017 19:40:00 19.4 C 8.18 g/m*3 19.4 C 3.2 km/h
3106 31-03-2017 19:45:00 19 C 8.31 g/m*3 19 C 4.8 km/h
3107 31-03-2017 19:50:00 18.6 C 8.28 g/m*3 18.6 C 3.2 km/h
3108 31-03-2017 19:55:00 18.2 C 7.93 g/m*3 18.2 C 4.8 km/h
3109 31-03-2017 20:00:00 17.9 C 8.09 g/m*3 17.9 C 4.8 km/h
3110 31-03-2017 20:05:00 17.6 C 7.95 g/m*3 17.6 C 4.8 km/h
3111 31-03-2017 20:10:00 17.3 C 8.1 g/m*3 17.3 C 6.4 km/h
3112 31-03-2017 20:15:00 17.1 C 8.01 g/m*3 17.1 C 4.8 km/h
3113 31-03-2017 20:20:00 16.9 C 8.05 g/m*3 16.9 C 4.8 km/h
3114 31-03-2017 20:25:00 16.8 C 8.01 g/m*3 16.8 C 4.8 km/h
3115 31-03-2017 20:30:00 16.6 C 8.19 g/m*3 16.6 C 4.8 km/h
3116 31-03-2017 20:35:00 16.4 C 7.96 g/m*3 16.4 C 4.8 km/h
3117 31-03-2017 20:40:00 16.2 C 8.14 g/m*3 16.2 C 4.8 km/h
3118 31-03-2017 20:45:00 16.1 C 8.09 g/m*3 16.1 C 4.8 km/h
3119 31-03-2017 20:50:00 15.9 C 7.99 g/m*3 15.9 C 4.8 km/h
3120 31-03-2017 20:55:00 15.8 C 8.08 g/m*3 15.8 C 4.8 km/h
3121 31-03-2017 21:00:00 15.7 C 8.16 g/m*3 15.7 C 3.2 km/h
3122 31-03-2017 21:05:00 15.5 C 8.06 g/m*3 15.5 C 3.2 km/h
3123 31-03-2017 21:10:00 15.3 C 8.1 g/m*3 15.3 C 3.2 km/h
3124 31-03-2017 21:15:00 15.1 C 8.13 g/m*3 15.1 C 1.6 km/h
3125 31-03-2017 21:20:00 15 C 8.08 g/m*3 15 C 1.6 km/h
Sensor: Nr:Datum:Temp:Abs-Feuchte:Windchill:Wind:
Aussen-T/F 3126 31-03-2017 21:25:00 14.8 C 7.98 g/m*3 14.8 C 0 km/h
3127 31-03-2017 21:30:00 14.6 C 8.01 g/m*3 14.6 C 1.6 km/h
3128 31-03-2017 21:35:00 14.4 C 8.03 g/m*3 14.4 C 1.6 km/h
3129 31-03-2017 21:40:00 14.4 C 8.16 g/m*3 14.4 C 1.6 km/h
3130 31-03-2017 21:45:00 14.3 C 7.86 g/m*3 14.3 C 6.4 km/h
3131 31-03-2017 21:50:00 14.4 C 7.79 g/m*3 14.4 C 6.4 km/h
3132 31-03-2017 21:55:00 14.5 C 8.08 g/m*3 14.5 C 4.8 km/h
3133 31-03-2017 22:00:00 14.6 C 8.13 g/m*3 14.6 C 4.8 km/h
3134 31-03-2017 22:05:00 14.6 C 8.13 g/m*3 14.6 C 3.2 km/h
3135 31-03-2017 22:10:00 14.5 C 8.08 g/m*3 14.5 C 3.2 km/h
3136 31-03-2017 22:15:00 14.4 C 8.03 g/m*3 14.4 C 3.2 km/h
3137 31-03-2017 22:20:00 14.3 C 8.11 g/m*3 14.3 C 3.2 km/h
3138 31-03-2017 22:25:00 14.3 C 8.11 g/m*3 14.3 C 3.2 km/h
3139 31-03-2017 22:30:00 14.3 C 8.23 g/m*3 14.3 C 3.2 km/h
3140 31-03-2017 22:35:00 14.2 C 8.18 g/m*3 14.2 C 4.8 km/h
3141 31-03-2017 22:40:00 14.2 C 8.18 g/m*3 14.2 C 3.2 km/h
3142 31-03-2017 22:45:00 14.2 C 8.18 g/m*3 14.2 C 4.8 km/h
3143 31-03-2017 22:50:00 14.1 C 8.25 g/m*3 14.1 C 3.2 km/h
3144 31-03-2017 22:55:00 14.1 C 8.25 g/m*3 14.1 C 1.6 km/h
3145 31-03-2017 23:00:00 14.1 C 8.25 g/m*3 14.1 C 0 km/h
3146 31-03-2017 23:05:00 14.1 C 8.25 g/m*3 14.1 C 1.6 km/h
3147 31-03-2017 23:10:00 14 C 8.2 g/m*3 14 C 0 km/h
3148 31-03-2017 23:15:00 14 C 8.2 g/m*3 14 C 1.6 km/h
3149 31-03-2017 23:20:00 13.9 C 8.27 g/m*3 13.9 C 0 km/h
3150 31-03-2017 23:25:00 13.8 C 8.34 g/m*3 13.8 C 0 km/h
Sensor: Nr:Datum:Temp:Abs-Feuchte:Windchill:Wind:
Aussen-T/F 3151 31-03-2017 23:30:00 13.6 C 8.24 g/m*3 13.6 C 1.6 km/h
3152 31-03-2017 23:35:00 13.4 C 8.25 g/m*3 13.4 C 0 km/h
3153 31-03-2017 23:40:00 13.3 C 8.2 g/m*3 13.3 C 1.6 km/h
3154 31-03-2017 23:45:00 13.2 C 8.27 g/m*3 13.2 C 0 km/h
3155 31-03-2017 23:50:00 13 C 8.05 g/m*3 13 C 0 km/h
3156 31-03-2017 23:55:00 12.9 C 8.23 g/m*3 12.9 C 1.6 km/h
3157 01-04-2017 00:00:00 12.8 C 8.18 g/m*3 12.8 C 0 km/h
3158 01-04-2017 00:05:00 12.7 C 8.01 g/m*3 12.7 C 0 km/h
3159 01-04-2017 00:10:00 12.7 C 7.9 g/m*3 12.7 C 0 km/h
3160 01-04-2017 00:15:00 12.8 C 8.06 g/m*3 12.8 C 0 km/h
3161 01-04-2017 00:20:00 12.8 C 8.06 g/m*3 12.8 C 0 km/h
3162 01-04-2017 00:25:00 12.8 C 8.06 g/m*3 12.8 C 0 km/h
3163 01-04-2017 00:30:00 12.7 C 8.01 g/m*3 12.7 C 0 km/h
3164 01-04-2017 00:35:00 12.6 C 8.08 g/m*3 12.6 C 0 km/h
3165 01-04-2017 00:40:00 12.4 C 7.98 g/m*3 12.4 C 0 km/h
3166 01-04-2017 00:45:00 12.3 C 8.14 g/m*3 12.3 C 0 km/h
3167 01-04-2017 00:50:00 12.1 C 8.04 g/m*3 12.1 C 0 km/h
3168 01-04-2017 00:55:00 11.9 C 8.05 g/m*3 11.9 C 0 km/h
3169 01-04-2017 01:00:00 11.8 C 7.89 g/m*3 11.8 C 0 km/h
3170 01-04-2017 01:05:00 11.8 C 7.89 g/m*3 11.8 C 0 km/h
3171 01-04-2017 01:10:00 11.9 C 7.94 g/m*3 11.9 C 0 km/h
3172 01-04-2017 01:15:00 12 C 7.89 g/m*3 12 C 1.6 km/h
3173 01-04-2017 01:20:00 12.1 C 7.94 g/m*3 12.1 C 1.6 km/h
3174 01-04-2017 01:25:00 12.2 C 7.99 g/m*3 12.2 C 0 km/h
3175 01-04-2017 01:30:00 12.2 C 7.99 g/m*3 12.2 C 0 km/h
Sensor: Nr:Datum:Temp:Abs-Feuchte:Windchill:Wind:
Aussen-T/F 3176 01-04-2017 01:35:00 12.2 C 8.09 g/m*3 12.2 C 3.2 km/h
3177 01-04-2017 01:40:00 12 C 7.99 g/m*3 12 C 0 km/h
3178 01-04-2017 01:45:00 11.9 C 8.05 g/m*3 11.9 C 0 km/h
3179 01-04-2017 01:50:00 11.8 C 8 g/m*3 11.8 C 0 km/h
3180 01-04-2017 01:55:00 11.7 C 7.95 g/m*3 11.7 C 0 km/h
3181 01-04-2017 02:00:00 11.6 C 7.9 g/m*3 11.6 C 0 km/h
3182 01-04-2017 02:05:00 11.5 C 7.85 g/m*3 11.5 C 0 km/h
3183 01-04-2017 02:10:00 11.4 C 7.9 g/m*3 11.4 C 0 km/h
3184 01-04-2017 02:15:00 11.3 C 7.85 g/m*3 11.3 C 0 km/h
3185 01-04-2017 02:20:00 11 C 7.71 g/m*3 11 C 0 km/h
3186 01-04-2017 02:25:00 10.8 C 7.71 g/m*3 10.8 C 0 km/h
3187 01-04-2017 02:30:00 10.7 C 7.66 g/m*3 10.7 C 0 km/h
3188 01-04-2017 02:35:00 10.6 C 7.71 g/m*3 10.6 C 0 km/h
3189 01-04-2017 02:40:00 10.6 C 7.81 g/m*3 10.6 C 0 km/h
3190 01-04-2017 02:45:00 10.6 C 7.81 g/m*3 10.6 C 1.6 km/h
3191 01-04-2017 02:50:00 10.5 C 7.76 g/m*3 10.5 C 3.2 km/h
3192 01-04-2017 02:55:00 10.3 C 7.66 g/m*3 10.3 C 0 km/h
3193 01-04-2017 03:00:00 10.2 C 7.71 g/m*3 10.2 C 0 km/h
3194 01-04-2017 03:05:00 10.1 C 7.66 g/m*3 10.1 C 0 km/h
3195 01-04-2017 03:10:00 10 C 7.61 g/m*3 10 C 0 km/h
3196 01-04-2017 03:15:00 9.9 C 7.66 g/m*3 9.9 C 4.8 km/h
3197 01-04-2017 03:20:00 9.8 C 7.61 g/m*3 9.8 C 0 km/h
3198 01-04-2017 03:25:00 9.8 C 7.7 g/m*3 9.8 C 0 km/h
3199 01-04-2017 03:30:00 9.8 C 7.7 g/m*3 9.8 C 0 km/h
3200 01-04-2017 03:35:00 9.8 C 7.7 g/m*3 9.8 C 0 km/h
Sensor: Nr:Datum:Temp:Abs-Feuchte:Windchill:Wind:
Aussen-T/F 3201 01-04-2017 03:40:00 9.7 C 7.65 g/m*3 9.7 C 0 km/h
3202 01-04-2017 03:45:00 9.7 C 7.65 g/m*3 9.7 C 0 km/h
3203 01-04-2017 03:50:00 9.6 C 7.6 g/m*3 9.6 C 0 km/h
3204 01-04-2017 03:55:00 9.6 C 7.69 g/m*3 9.6 C 0 km/h
3205 01-04-2017 04:00:00 9.6 C 7.6 g/m*3 9.6 C 0 km/h
3206 01-04-2017 04:05:00 9.5 C 7.65 g/m*3 9.5 C 0 km/h
3207 01-04-2017 04:10:00 9.4 C 7.6 g/m*3 9.4 C 0 km/h
3208 01-04-2017 04:15:00 9.6 C 7.79 g/m*3 9.6 C 0 km/h
3209 01-04-2017 04:20:00 9.6 C 7.69 g/m*3 9.6 C 0 km/h
3210 01-04-2017 04:25:00 9.6 C 7.69 g/m*3 9.6 C 0 km/h
3211 01-04-2017 04:30:00 9.6 C 7.69 g/m*3 9.6 C 0 km/h
3212 01-04-2017 04:35:00 9.6 C 7.69 g/m*3 9.6 C 0 km/h
3213 01-04-2017 04:40:00 9.6 C 7.69 g/m*3 9.6 C 0 km/h
3214 01-04-2017 04:45:00 9.6 C 7.69 g/m*3 9.6 C 0 km/h
3215 01-04-2017 04:50:00 9.4 C 7.51 g/m*3 9.4 C 0 km/h
3216 01-04-2017 04:55:00 9.2 C 7.5 g/m*3 9.2 C 0 km/h
3217 01-04-2017 05:00:00 9.2 C 7.59 g/m*3 9.2 C 0 km/h
3218 01-04-2017 05:05:00 9.1 C 7.54 g/m*3 9.1 C 0 km/h
3219 01-04-2017 05:10:00 9.1 C 7.54 g/m*3 9.1 C 0 km/h
3220 01-04-2017 05:15:00 9 C 7.49 g/m*3 9 C 0 km/h
3221 01-04-2017 05:20:00 8.9 C 7.45 g/m*3 8.9 C 0 km/h
3222 01-04-2017 05:25:00 8.8 C 7.49 g/m*3 8.8 C 0 km/h
3223 01-04-2017 05:30:00 8.7 C 7.44 g/m*3 8.7 C 0 km/h
3224 01-04-2017 05:35:00 8.7 C 7.52 g/m*3 8.7 C 0 km/h
3225 01-04-2017 05:40:00 8.7 C 7.61 g/m*3 8.7 C 0 km/h
Sensor: Nr:Datum:Temp:Abs-Feuchte:Windchill:Wind: